<?xml version="1.0" encoding="UTF-8" standalone="no" ?>
<gpx xmlns="http://www.topografix.com/GPX/1/1" xmlns:xsi="http://www.w3.org/2001/XMLSchema-instance" xsi:schemaLocation="http://www.topografix.com/GPX/1/1 http://www.topografix.com/GPX/1/1/gpx.xsd" version="1.1" creator="VisuGPX - https://www.visugpx.com">
  <metadata>
    <name>lundi 2016 07</name>
    <desc><![CDATA[cumul des lundi du mois de juillet 2016]]></desc>
  </metadata>
  <trk>
    <name><![CDATA[lundi 2016 07 18]]></name>
    <trkseg>
      <trkpt lat="48.85703" lon="2.34687">
        <ele>40.799999237061</ele>
        <time>2016-07-18T18:25:28.000Z</time>
      </trkpt>
      <trkpt lat="48.85686" lon="2.34676">
        <ele>41.200000762939</ele>
        <time>2016-07-18T18:25:37.000Z</time>
      </trkpt>
      <trkpt lat="48.85667" lon="2.34665">
        <ele>42.799999237061</ele>
        <time>2016-07-18T18:25:45.000Z</time>
      </trkpt>
      <trkpt lat="48.8565" lon="2.34653">
        <ele>44.400001525879</ele>
        <time>2016-07-18T18:25:52.000Z</time>
      </trkpt>
      <trkpt lat="48.85636" lon="2.3464">
        <ele>45.400001525879</ele>
        <time>2016-07-18T18:25:59.000Z</time>
      </trkpt>
      <trkpt lat="48.85639" lon="2.34618">
        <ele>45.200000762939</ele>
        <time>2016-07-18T18:26:07.000Z</time>
      </trkpt>
      <trkpt lat="48.85647" lon="2.34593">
        <ele>47.599998474121</ele>
        <time>2016-07-18T18:26:12.000Z</time>
      </trkpt>
      <trkpt lat="48.85655" lon="2.3457">
        <ele>49</ele>
        <time>2016-07-18T18:26:16.000Z</time>
      </trkpt>
      <trkpt lat="48.85664" lon="2.34546">
        <ele>48.799999237061</ele>
        <time>2016-07-18T18:26:20.000Z</time>
      </trkpt>
      <trkpt lat="48.85668" lon="2.34517">
        <ele>48.200000762939</ele>
        <time>2016-07-18T18:26:24.000Z</time>
      </trkpt>
      <trkpt lat="48.85678" lon="2.34487">
        <ele>47.599998474121</ele>
        <time>2016-07-18T18:26:28.000Z</time>
      </trkpt>
      <trkpt lat="48.85684" lon="2.34456">
        <ele>48.599998474121</ele>
        <time>2016-07-18T18:26:32.000Z</time>
      </trkpt>
      <trkpt lat="48.8569" lon="2.34428">
        <ele>49.599998474121</ele>
        <time>2016-07-18T18:26:36.000Z</time>
      </trkpt>
      <trkpt lat="48.85694" lon="2.34398">
        <ele>47.599998474121</ele>
        <time>2016-07-18T18:26:40.000Z</time>
      </trkpt>
      <trkpt lat="48.85694" lon="2.34368">
        <ele>44</ele>
        <time>2016-07-18T18:26:45.000Z</time>
      </trkpt>
      <trkpt lat="48.85694" lon="2.34354">
        <ele>42.200000762939</ele>
        <time>2016-07-18T18:26:48.000Z</time>
      </trkpt>
      <trkpt lat="48.85678" lon="2.34336">
        <ele>40.799999237061</ele>
        <time>2016-07-18T18:26:53.000Z</time>
      </trkpt>
      <trkpt lat="48.85666" lon="2.34325">
        <ele>40.400001525879</ele>
        <time>2016-07-18T18:26:56.000Z</time>
      </trkpt>
      <trkpt lat="48.85648" lon="2.34309">
        <ele>40.799999237061</ele>
        <time>2016-07-18T18:27:00.000Z</time>
      </trkpt>
      <trkpt lat="48.85643" lon="2.34306">
        <ele>40.799999237061</ele>
        <time>2016-07-18T18:27:01.000Z</time>
      </trkpt>
      <trkpt lat="48.85624" lon="2.34293">
        <ele>41.200000762939</ele>
        <time>2016-07-18T18:27:05.000Z</time>
      </trkpt>
      <trkpt lat="48.85605" lon="2.34276">
        <ele>41.599998474121</ele>
        <time>2016-07-18T18:27:09.000Z</time>
      </trkpt>
      <trkpt lat="48.8559" lon="2.3426">
        <ele>41.200000762939</ele>
        <time>2016-07-18T18:27:13.000Z</time>
      </trkpt>
      <trkpt lat="48.85588" lon="2.34254">
        <ele>41.200000762939</ele>
        <time>2016-07-18T18:27:14.000Z</time>
      </trkpt>
      <trkpt lat="48.85596" lon="2.34229">
        <ele>42.400001525879</ele>
        <time>2016-07-18T18:27:19.000Z</time>
      </trkpt>
      <trkpt lat="48.8561" lon="2.34215">
        <ele>45</ele>
        <time>2016-07-18T18:27:23.000Z</time>
      </trkpt>
      <trkpt lat="48.85617" lon="2.34207">
        <ele>45.599998474121</ele>
        <time>2016-07-18T18:27:25.000Z</time>
      </trkpt>
      <trkpt lat="48.85633" lon="2.34188">
        <ele>47</ele>
        <time>2016-07-18T18:27:29.000Z</time>
      </trkpt>
      <trkpt lat="48.85648" lon="2.3417">
        <ele>48.799999237061</ele>
        <time>2016-07-18T18:27:33.000Z</time>
      </trkpt>
      <trkpt lat="48.85667" lon="2.34155">
        <ele>48.599998474121</ele>
        <time>2016-07-18T18:27:37.000Z</time>
      </trkpt>
      <trkpt lat="48.85681" lon="2.34133">
        <ele>45.599998474121</ele>
        <time>2016-07-18T18:27:44.000Z</time>
      </trkpt>
      <trkpt lat="48.85685" lon="2.34123">
        <ele>44.200000762939</ele>
        <time>2016-07-18T18:27:46.000Z</time>
      </trkpt>
      <trkpt lat="48.85669" lon="2.34097">
        <ele>42</ele>
        <time>2016-07-18T18:27:52.000Z</time>
      </trkpt>
      <trkpt lat="48.85663" lon="2.3409">
        <ele>41.400001525879</ele>
        <time>2016-07-18T18:27:54.000Z</time>
      </trkpt>
      <trkpt lat="48.85661" lon="2.34088">
        <ele>41.200000762939</ele>
        <time>2016-07-18T18:27:55.000Z</time>
      </trkpt>
      <trkpt lat="48.85654" lon="2.34084">
        <ele>41</ele>
        <time>2016-07-18T18:27:58.000Z</time>
      </trkpt>
      <trkpt lat="48.85638" lon="2.34071">
        <ele>42</ele>
        <time>2016-07-18T18:28:06.000Z</time>
      </trkpt>
      <trkpt lat="48.85624" lon="2.34053">
        <ele>43.799999237061</ele>
        <time>2016-07-18T18:28:18.000Z</time>
      </trkpt>
      <trkpt lat="48.85625" lon="2.34051">
        <ele>44</ele>
        <time>2016-07-18T18:28:19.000Z</time>
      </trkpt>
      <trkpt lat="48.85631" lon="2.34042">
        <ele>44.200000762939</ele>
        <time>2016-07-18T18:28:24.000Z</time>
      </trkpt>
      <trkpt lat="48.85647" lon="2.34021">
        <ele>42.200000762939</ele>
        <time>2016-07-18T18:28:31.000Z</time>
      </trkpt>
      <trkpt lat="48.85664" lon="2.33997">
        <ele>37.599998474121</ele>
        <time>2016-07-18T18:28:36.000Z</time>
      </trkpt>
      <trkpt lat="48.8568" lon="2.33973">
        <ele>35.599998474121</ele>
        <time>2016-07-18T18:28:40.000Z</time>
      </trkpt>
      <trkpt lat="48.85696" lon="2.33948">
        <ele>35.799999237061</ele>
        <time>2016-07-18T18:28:44.000Z</time>
      </trkpt>
      <trkpt lat="48.85711" lon="2.33923">
        <ele>35.200000762939</ele>
        <time>2016-07-18T18:28:48.000Z</time>
      </trkpt>
      <trkpt lat="48.85723" lon="2.33902">
        <ele>33</ele>
        <time>2016-07-18T18:28:51.000Z</time>
      </trkpt>
      <trkpt lat="48.85735" lon="2.33879">
        <ele>31.39999961853</ele>
        <time>2016-07-18T18:28:54.000Z</time>
      </trkpt>
      <trkpt lat="48.85747" lon="2.33857">
        <ele>32.200000762939</ele>
        <time>2016-07-18T18:28:57.000Z</time>
      </trkpt>
      <trkpt lat="48.85761" lon="2.33829">
        <ele>33.400001525879</ele>
        <time>2016-07-18T18:29:01.000Z</time>
      </trkpt>
      <trkpt lat="48.85768" lon="2.33809">
        <ele>33.200000762939</ele>
        <time>2016-07-18T18:29:04.000Z</time>
      </trkpt>
      <trkpt lat="48.85773" lon="2.3378">
        <ele>33.799999237061</ele>
        <time>2016-07-18T18:29:08.000Z</time>
      </trkpt>
      <trkpt lat="48.85779" lon="2.33749">
        <ele>34.599998474121</ele>
        <time>2016-07-18T18:29:12.000Z</time>
      </trkpt>
      <trkpt lat="48.85783" lon="2.33725">
        <ele>34.200000762939</ele>
        <time>2016-07-18T18:29:15.000Z</time>
      </trkpt>
      <trkpt lat="48.85788" lon="2.33691">
        <ele>33.799999237061</ele>
        <time>2016-07-18T18:29:19.000Z</time>
      </trkpt>
      <trkpt lat="48.85796" lon="2.33659">
        <ele>30.60000038147</ele>
        <time>2016-07-18T18:29:23.000Z</time>
      </trkpt>
      <trkpt lat="48.85799" lon="2.33642">
        <ele>31.200000762939</ele>
        <time>2016-07-18T18:29:25.000Z</time>
      </trkpt>
      <trkpt lat="48.858" lon="2.33615">
        <ele>33</ele>
        <time>2016-07-18T18:29:28.000Z</time>
      </trkpt>
      <trkpt lat="48.858" lon="2.33607">
        <ele>33.400001525879</ele>
        <time>2016-07-18T18:29:29.000Z</time>
      </trkpt>
      <trkpt lat="48.85799" lon="2.3359">
        <ele>32.799999237061</ele>
        <time>2016-07-18T18:29:31.000Z</time>
      </trkpt>
      <trkpt lat="48.85797" lon="2.33566">
        <ele>33</ele>
        <time>2016-07-18T18:29:34.000Z</time>
      </trkpt>
      <trkpt lat="48.85798" lon="2.33532">
        <ele>33.799999237061</ele>
        <time>2016-07-18T18:29:38.000Z</time>
      </trkpt>
      <trkpt lat="48.85798" lon="2.33524">
        <ele>33.799999237061</ele>
        <time>2016-07-18T18:29:39.000Z</time>
      </trkpt>
      <trkpt lat="48.858" lon="2.3351">
        <ele>38.400001525879</ele>
        <time>2016-07-18T18:29:41.000Z</time>
      </trkpt>
      <trkpt lat="48.85807" lon="2.33479">
        <ele>43.200000762939</ele>
        <time>2016-07-18T18:29:46.000Z</time>
      </trkpt>
      <trkpt lat="48.8581" lon="2.33461">
        <ele>43.400001525879</ele>
        <time>2016-07-18T18:29:49.000Z</time>
      </trkpt>
      <trkpt lat="48.8582" lon="2.33432">
        <ele>44.799999237061</ele>
        <time>2016-07-18T18:29:54.000Z</time>
      </trkpt>
      <trkpt lat="48.85827" lon="2.33408">
        <ele>46</ele>
        <time>2016-07-18T18:29:58.000Z</time>
      </trkpt>
      <trkpt lat="48.85835" lon="2.3338">
        <ele>45.799999237061</ele>
        <time>2016-07-18T18:30:03.000Z</time>
      </trkpt>
      <trkpt lat="48.85838" lon="2.33368">
        <ele>45.200000762939</ele>
        <time>2016-07-18T18:30:05.000Z</time>
      </trkpt>
      <trkpt lat="48.85845" lon="2.33341">
        <ele>43.799999237061</ele>
        <time>2016-07-18T18:30:09.000Z</time>
      </trkpt>
      <trkpt lat="48.85854" lon="2.33316">
        <ele>43</ele>
        <time>2016-07-18T18:30:13.000Z</time>
      </trkpt>
      <trkpt lat="48.85863" lon="2.33291">
        <ele>42.599998474121</ele>
        <time>2016-07-18T18:30:18.000Z</time>
      </trkpt>
      <trkpt lat="48.85866" lon="2.33287">
        <ele>42.599998474121</ele>
        <time>2016-07-18T18:30:19.000Z</time>
      </trkpt>
      <trkpt lat="48.8587" lon="2.3328">
        <ele>42.599998474121</ele>
        <time>2016-07-18T18:30:21.000Z</time>
      </trkpt>
      <trkpt lat="48.85873" lon="2.33265">
        <ele>42.400001525879</ele>
        <time>2016-07-18T18:30:46.000Z</time>
      </trkpt>
      <trkpt lat="48.85868" lon="2.33253">
        <ele>41.599998474121</ele>
        <time>2016-07-18T18:30:55.000Z</time>
      </trkpt>
      <trkpt lat="48.85875" lon="2.3323">
        <ele>40.599998474121</ele>
        <time>2016-07-18T18:31:21.000Z</time>
      </trkpt>
      <trkpt lat="48.85875" lon="2.33228">
        <ele>40.599998474121</ele>
        <time>2016-07-18T18:31:22.000Z</time>
      </trkpt>
      <trkpt lat="48.85877" lon="2.33214">
        <ele>40.799999237061</ele>
        <time>2016-07-18T18:31:26.000Z</time>
      </trkpt>
      <trkpt lat="48.85885" lon="2.33187">
        <ele>40.400001525879</ele>
        <time>2016-07-18T18:31:31.000Z</time>
      </trkpt>
      <trkpt lat="48.85894" lon="2.33163">
        <ele>39</ele>
        <time>2016-07-18T18:31:35.000Z</time>
      </trkpt>
      <trkpt lat="48.85899" lon="2.33145">
        <ele>39.200000762939</ele>
        <time>2016-07-18T18:31:38.000Z</time>
      </trkpt>
      <trkpt lat="48.85908" lon="2.33114">
        <ele>39.799999237061</ele>
        <time>2016-07-18T18:31:43.000Z</time>
      </trkpt>
      <trkpt lat="48.85916" lon="2.33089">
        <ele>40.400001525879</ele>
        <time>2016-07-18T18:31:47.000Z</time>
      </trkpt>
      <trkpt lat="48.85923" lon="2.33063">
        <ele>40</ele>
        <time>2016-07-18T18:31:51.000Z</time>
      </trkpt>
      <trkpt lat="48.85932" lon="2.33037">
        <ele>39.799999237061</ele>
        <time>2016-07-18T18:31:55.000Z</time>
      </trkpt>
      <trkpt lat="48.85941" lon="2.33009">
        <ele>39.799999237061</ele>
        <time>2016-07-18T18:31:59.000Z</time>
      </trkpt>
      <trkpt lat="48.85949" lon="2.32981">
        <ele>40.799999237061</ele>
        <time>2016-07-18T18:32:03.000Z</time>
      </trkpt>
      <trkpt lat="48.85957" lon="2.32951">
        <ele>42.200000762939</ele>
        <time>2016-07-18T18:32:08.000Z</time>
      </trkpt>
      <trkpt lat="48.85964" lon="2.32921">
        <ele>42.599998474121</ele>
        <time>2016-07-18T18:32:13.000Z</time>
      </trkpt>
      <trkpt lat="48.85972" lon="2.32895">
        <ele>42.799999237061</ele>
        <time>2016-07-18T18:32:17.000Z</time>
      </trkpt>
      <trkpt lat="48.85979" lon="2.32865">
        <ele>43</ele>
        <time>2016-07-18T18:32:21.000Z</time>
      </trkpt>
      <trkpt lat="48.85986" lon="2.32835">
        <ele>41</ele>
        <time>2016-07-18T18:32:25.000Z</time>
      </trkpt>
      <trkpt lat="48.85997" lon="2.3281">
        <ele>39.599998474121</ele>
        <time>2016-07-18T18:32:29.000Z</time>
      </trkpt>
      <trkpt lat="48.8601" lon="2.32792">
        <ele>39.400001525879</ele>
        <time>2016-07-18T18:32:34.000Z</time>
      </trkpt>
      <trkpt lat="48.86023" lon="2.32769">
        <ele>39.799999237061</ele>
        <time>2016-07-18T18:32:41.000Z</time>
      </trkpt>
      <trkpt lat="48.86028" lon="2.32756">
        <ele>39.799999237061</ele>
        <time>2016-07-18T18:32:43.000Z</time>
      </trkpt>
      <trkpt lat="48.8604" lon="2.32733">
        <ele>39.200000762939</ele>
        <time>2016-07-18T18:32:46.000Z</time>
      </trkpt>
      <trkpt lat="48.86052" lon="2.32704">
        <ele>39.799999237061</ele>
        <time>2016-07-18T18:32:49.000Z</time>
      </trkpt>
      <trkpt lat="48.86061" lon="2.32676">
        <ele>39</ele>
        <time>2016-07-18T18:32:52.000Z</time>
      </trkpt>
      <trkpt lat="48.86069" lon="2.32648">
        <ele>37.200000762939</ele>
        <time>2016-07-18T18:32:55.000Z</time>
      </trkpt>
      <trkpt lat="48.86077" lon="2.32621">
        <ele>35.599998474121</ele>
        <time>2016-07-18T18:32:58.000Z</time>
      </trkpt>
      <trkpt lat="48.86084" lon="2.32595">
        <ele>35</ele>
        <time>2016-07-18T18:33:01.000Z</time>
      </trkpt>
      <trkpt lat="48.86091" lon="2.32562">
        <ele>32.799999237061</ele>
        <time>2016-07-18T18:33:05.000Z</time>
      </trkpt>
      <trkpt lat="48.86102" lon="2.32531">
        <ele>33.599998474121</ele>
        <time>2016-07-18T18:33:09.000Z</time>
      </trkpt>
      <trkpt lat="48.86112" lon="2.325">
        <ele>34.599998474121</ele>
        <time>2016-07-18T18:33:13.000Z</time>
      </trkpt>
      <trkpt lat="48.86121" lon="2.32469">
        <ele>35</ele>
        <time>2016-07-18T18:33:17.000Z</time>
      </trkpt>
      <trkpt lat="48.86125" lon="2.32454">
        <ele>35.200000762939</ele>
        <time>2016-07-18T18:33:19.000Z</time>
      </trkpt>
      <trkpt lat="48.86136" lon="2.32422">
        <ele>34.200000762939</ele>
        <time>2016-07-18T18:33:23.000Z</time>
      </trkpt>
      <trkpt lat="48.86145" lon="2.32393">
        <ele>34.400001525879</ele>
        <time>2016-07-18T18:33:27.000Z</time>
      </trkpt>
      <trkpt lat="48.86153" lon="2.32366">
        <ele>34.799999237061</ele>
        <time>2016-07-18T18:33:31.000Z</time>
      </trkpt>
      <trkpt lat="48.86158" lon="2.32338">
        <ele>35</ele>
        <time>2016-07-18T18:33:35.000Z</time>
      </trkpt>
      <trkpt lat="48.86164" lon="2.3231">
        <ele>33.599998474121</ele>
        <time>2016-07-18T18:33:39.000Z</time>
      </trkpt>
      <trkpt lat="48.86173" lon="2.32279">
        <ele>33.400001525879</ele>
        <time>2016-07-18T18:33:43.000Z</time>
      </trkpt>
      <trkpt lat="48.86181" lon="2.32249">
        <ele>33.599998474121</ele>
        <time>2016-07-18T18:33:47.000Z</time>
      </trkpt>
      <trkpt lat="48.8619" lon="2.3222">
        <ele>35</ele>
        <time>2016-07-18T18:33:51.000Z</time>
      </trkpt>
      <trkpt lat="48.86198" lon="2.32193">
        <ele>36.400001525879</ele>
        <time>2016-07-18T18:33:55.000Z</time>
      </trkpt>
      <trkpt lat="48.86208" lon="2.32161">
        <ele>36.599998474121</ele>
        <time>2016-07-18T18:33:59.000Z</time>
      </trkpt>
      <trkpt lat="48.86217" lon="2.32134">
        <ele>37.200000762939</ele>
        <time>2016-07-18T18:34:03.000Z</time>
      </trkpt>
      <trkpt lat="48.86225" lon="2.32106">
        <ele>37.799999237061</ele>
        <time>2016-07-18T18:34:07.000Z</time>
      </trkpt>
      <trkpt lat="48.86234" lon="2.32077">
        <ele>37.400001525879</ele>
        <time>2016-07-18T18:34:11.000Z</time>
      </trkpt>
      <trkpt lat="48.86242" lon="2.32049">
        <ele>35.400001525879</ele>
        <time>2016-07-18T18:34:15.000Z</time>
      </trkpt>
      <trkpt lat="48.86249" lon="2.32021">
        <ele>34.400001525879</ele>
        <time>2016-07-18T18:34:19.000Z</time>
      </trkpt>
      <trkpt lat="48.86258" lon="2.31992">
        <ele>32.799999237061</ele>
        <time>2016-07-18T18:34:23.000Z</time>
      </trkpt>
      <trkpt lat="48.86268" lon="2.31962">
        <ele>32.200000762939</ele>
        <time>2016-07-18T18:34:27.000Z</time>
      </trkpt>
      <trkpt lat="48.86277" lon="2.31938">
        <ele>32.200000762939</ele>
        <time>2016-07-18T18:34:30.000Z</time>
      </trkpt>
      <trkpt lat="48.86287" lon="2.31914">
        <ele>31.799999237061</ele>
        <time>2016-07-18T18:34:33.000Z</time>
      </trkpt>
      <trkpt lat="48.86293" lon="2.31885">
        <ele>31</ele>
        <time>2016-07-18T18:34:36.000Z</time>
      </trkpt>
      <trkpt lat="48.86301" lon="2.31855">
        <ele>30.60000038147</ele>
        <time>2016-07-18T18:34:40.000Z</time>
      </trkpt>
      <trkpt lat="48.86308" lon="2.31828">
        <ele>37.200000762939</ele>
        <time>2016-07-18T18:34:44.000Z</time>
      </trkpt>
      <trkpt lat="48.86314" lon="2.31798">
        <ele>40.200000762939</ele>
        <time>2016-07-18T18:34:48.000Z</time>
      </trkpt>
      <trkpt lat="48.86318" lon="2.31764">
        <ele>44.599998474121</ele>
        <time>2016-07-18T18:34:52.000Z</time>
      </trkpt>
      <trkpt lat="48.86318" lon="2.31729">
        <ele>46.200000762939</ele>
        <time>2016-07-18T18:34:56.000Z</time>
      </trkpt>
      <trkpt lat="48.86319" lon="2.31701">
        <ele>41.400001525879</ele>
        <time>2016-07-18T18:34:59.000Z</time>
      </trkpt>
      <trkpt lat="48.86318" lon="2.31665">
        <ele>24.799999237061</ele>
        <time>2016-07-18T18:35:03.000Z</time>
      </trkpt>
      <trkpt lat="48.86319" lon="2.3163">
        <ele>26</ele>
        <time>2016-07-18T18:35:07.000Z</time>
      </trkpt>
      <trkpt lat="48.86317" lon="2.31596">
        <ele>28.60000038147</ele>
        <time>2016-07-18T18:35:11.000Z</time>
      </trkpt>
      <trkpt lat="48.86317" lon="2.31588">
        <ele>29</ele>
        <time>2016-07-18T18:35:12.000Z</time>
      </trkpt>
      <trkpt lat="48.86318" lon="2.31555">
        <ele>27.60000038147</ele>
        <time>2016-07-18T18:35:16.000Z</time>
      </trkpt>
      <trkpt lat="48.86318" lon="2.31548">
        <ele>27.39999961853</ele>
        <time>2016-07-18T18:35:17.000Z</time>
      </trkpt>
      <trkpt lat="48.86317" lon="2.31517">
        <ele>31.200000762939</ele>
        <time>2016-07-18T18:35:22.000Z</time>
      </trkpt>
      <trkpt lat="48.86317" lon="2.31495">
        <ele>34.400001525879</ele>
        <time>2016-07-18T18:35:26.000Z</time>
      </trkpt>
      <trkpt lat="48.86317" lon="2.31484">
        <ele>33.599998474121</ele>
        <time>2016-07-18T18:35:28.000Z</time>
      </trkpt>
      <trkpt lat="48.86315" lon="2.31461">
        <ele>31.799999237061</ele>
        <time>2016-07-18T18:35:32.000Z</time>
      </trkpt>
      <trkpt lat="48.86314" lon="2.31432">
        <ele>32.599998474121</ele>
        <time>2016-07-18T18:35:37.000Z</time>
      </trkpt>
      <trkpt lat="48.86314" lon="2.31414">
        <ele>33.400001525879</ele>
        <time>2016-07-18T18:35:40.000Z</time>
      </trkpt>
      <trkpt lat="48.86314" lon="2.31399">
        <ele>34.200000762939</ele>
        <time>2016-07-18T18:35:43.000Z</time>
      </trkpt>
      <trkpt lat="48.86314" lon="2.3139">
        <ele>34.599998474121</ele>
        <time>2016-07-18T18:35:45.000Z</time>
      </trkpt>
      <trkpt lat="48.86323" lon="2.31364">
        <ele>34.799999237061</ele>
        <time>2016-07-18T18:35:51.000Z</time>
      </trkpt>
      <trkpt lat="48.86322" lon="2.3133">
        <ele>32.400001525879</ele>
        <time>2016-07-18T18:35:57.000Z</time>
      </trkpt>
      <trkpt lat="48.8632" lon="2.31301">
        <ele>32.400001525879</ele>
        <time>2016-07-18T18:36:00.000Z</time>
      </trkpt>
      <trkpt lat="48.86316" lon="2.31269">
        <ele>32</ele>
        <time>2016-07-18T18:36:04.000Z</time>
      </trkpt>
      <trkpt lat="48.86313" lon="2.31241">
        <ele>31.60000038147</ele>
        <time>2016-07-18T18:36:07.000Z</time>
      </trkpt>
      <trkpt lat="48.86311" lon="2.31213">
        <ele>32</ele>
        <time>2016-07-18T18:36:10.000Z</time>
      </trkpt>
      <trkpt lat="48.86311" lon="2.31204">
        <ele>32.200000762939</ele>
        <time>2016-07-18T18:36:11.000Z</time>
      </trkpt>
      <trkpt lat="48.86308" lon="2.31169">
        <ele>32</ele>
        <time>2016-07-18T18:36:15.000Z</time>
      </trkpt>
      <trkpt lat="48.86306" lon="2.3114">
        <ele>33.400001525879</ele>
        <time>2016-07-18T18:36:18.000Z</time>
      </trkpt>
      <trkpt lat="48.86304" lon="2.31105">
        <ele>35.200000762939</ele>
        <time>2016-07-18T18:36:22.000Z</time>
      </trkpt>
      <trkpt lat="48.86302" lon="2.31076">
        <ele>35.799999237061</ele>
        <time>2016-07-18T18:36:26.000Z</time>
      </trkpt>
      <trkpt lat="48.86301" lon="2.31045">
        <ele>37.799999237061</ele>
        <time>2016-07-18T18:36:30.000Z</time>
      </trkpt>
      <trkpt lat="48.863" lon="2.31009">
        <ele>38.400001525879</ele>
        <time>2016-07-18T18:36:34.000Z</time>
      </trkpt>
      <trkpt lat="48.86299" lon="2.30974">
        <ele>38.599998474121</ele>
        <time>2016-07-18T18:36:38.000Z</time>
      </trkpt>
      <trkpt lat="48.86299" lon="2.30948">
        <ele>39.200000762939</ele>
        <time>2016-07-18T18:36:41.000Z</time>
      </trkpt>
      <trkpt lat="48.86299" lon="2.30912">
        <ele>41.799999237061</ele>
        <time>2016-07-18T18:36:45.000Z</time>
      </trkpt>
      <trkpt lat="48.86298" lon="2.30877">
        <ele>40.200000762939</ele>
        <time>2016-07-18T18:36:49.000Z</time>
      </trkpt>
      <trkpt lat="48.86297" lon="2.30849">
        <ele>39.400001525879</ele>
        <time>2016-07-18T18:36:52.000Z</time>
      </trkpt>
      <trkpt lat="48.86295" lon="2.30821">
        <ele>38.799999237061</ele>
        <time>2016-07-18T18:36:55.000Z</time>
      </trkpt>
      <trkpt lat="48.86295" lon="2.30811">
        <ele>38.200000762939</ele>
        <time>2016-07-18T18:36:56.000Z</time>
      </trkpt>
      <trkpt lat="48.86295" lon="2.30783">
        <ele>36.599998474121</ele>
        <time>2016-07-18T18:36:59.000Z</time>
      </trkpt>
      <trkpt lat="48.86293" lon="2.30756">
        <ele>36.799999237061</ele>
        <time>2016-07-18T18:37:02.000Z</time>
      </trkpt>
      <trkpt lat="48.86292" lon="2.30728">
        <ele>37.200000762939</ele>
        <time>2016-07-18T18:37:05.000Z</time>
      </trkpt>
      <trkpt lat="48.8629" lon="2.30701">
        <ele>36.799999237061</ele>
        <time>2016-07-18T18:37:08.000Z</time>
      </trkpt>
      <trkpt lat="48.86288" lon="2.30666">
        <ele>35.400001525879</ele>
        <time>2016-07-18T18:37:12.000Z</time>
      </trkpt>
      <trkpt lat="48.86288" lon="2.30648">
        <ele>35</ele>
        <time>2016-07-18T18:37:14.000Z</time>
      </trkpt>
      <trkpt lat="48.86288" lon="2.30621">
        <ele>35</ele>
        <time>2016-07-18T18:37:17.000Z</time>
      </trkpt>
      <trkpt lat="48.86289" lon="2.30593">
        <ele>34.799999237061</ele>
        <time>2016-07-18T18:37:21.000Z</time>
      </trkpt>
      <trkpt lat="48.86289" lon="2.30589">
        <ele>34.400001525879</ele>
        <time>2016-07-18T18:37:22.000Z</time>
      </trkpt>
      <trkpt lat="48.86291" lon="2.30559">
        <ele>33.799999237061</ele>
        <time>2016-07-18T18:37:29.000Z</time>
      </trkpt>
      <trkpt lat="48.8629" lon="2.30553">
        <ele>34.200000762939</ele>
        <time>2016-07-18T18:37:30.000Z</time>
      </trkpt>
      <trkpt lat="48.86287" lon="2.30528">
        <ele>35.200000762939</ele>
        <time>2016-07-18T18:37:34.000Z</time>
      </trkpt>
      <trkpt lat="48.86285" lon="2.30505">
        <ele>35.799999237061</ele>
        <time>2016-07-18T18:37:38.000Z</time>
      </trkpt>
      <trkpt lat="48.86284" lon="2.30493">
        <ele>36.400001525879</ele>
        <time>2016-07-18T18:37:40.000Z</time>
      </trkpt>
      <trkpt lat="48.86284" lon="2.30477">
        <ele>38</ele>
        <time>2016-07-18T18:37:43.000Z</time>
      </trkpt>
      <trkpt lat="48.86283" lon="2.30444">
        <ele>41.200000762939</ele>
        <time>2016-07-18T18:37:49.000Z</time>
      </trkpt>
      <trkpt lat="48.86282" lon="2.30428">
        <ele>43</ele>
        <time>2016-07-18T18:37:52.000Z</time>
      </trkpt>
      <trkpt lat="48.86281" lon="2.30405">
        <ele>44</ele>
        <time>2016-07-18T18:37:56.000Z</time>
      </trkpt>
      <trkpt lat="48.86278" lon="2.30394">
        <ele>44</ele>
        <time>2016-07-18T18:37:58.000Z</time>
      </trkpt>
      <trkpt lat="48.86272" lon="2.30368">
        <ele>44.400001525879</ele>
        <time>2016-07-18T18:38:04.000Z</time>
      </trkpt>
      <trkpt lat="48.86268" lon="2.30352">
        <ele>43.799999237061</ele>
        <time>2016-07-18T18:38:08.000Z</time>
      </trkpt>
      <trkpt lat="48.86267" lon="2.30346">
        <ele>43.599998474121</ele>
        <time>2016-07-18T18:38:10.000Z</time>
      </trkpt>
      <trkpt lat="48.86263" lon="2.30326">
        <ele>43</ele>
        <time>2016-07-18T18:38:19.000Z</time>
      </trkpt>
      <trkpt lat="48.86258" lon="2.30328">
        <ele>43</ele>
        <time>2016-07-18T18:39:30.000Z</time>
      </trkpt>
      <trkpt lat="48.86248" lon="2.30305">
        <ele>43.599998474121</ele>
        <time>2016-07-18T18:39:45.000Z</time>
      </trkpt>
      <trkpt lat="48.86247" lon="2.30276">
        <ele>42.200000762939</ele>
        <time>2016-07-18T18:39:53.000Z</time>
      </trkpt>
      <trkpt lat="48.86249" lon="2.30244">
        <ele>40.599998474121</ele>
        <time>2016-07-18T18:40:01.000Z</time>
      </trkpt>
      <trkpt lat="48.8625" lon="2.30213">
        <ele>38.799999237061</ele>
        <time>2016-07-18T18:40:08.000Z</time>
      </trkpt>
      <trkpt lat="48.86251" lon="2.30184">
        <ele>37.200000762939</ele>
        <time>2016-07-18T18:40:13.000Z</time>
      </trkpt>
      <trkpt lat="48.86249" lon="2.30156">
        <ele>35.799999237061</ele>
        <time>2016-07-18T18:40:18.000Z</time>
      </trkpt>
      <trkpt lat="48.86245" lon="2.30123">
        <ele>36.400001525879</ele>
        <time>2016-07-18T18:40:23.000Z</time>
      </trkpt>
      <trkpt lat="48.86242" lon="2.30091">
        <ele>38.400001525879</ele>
        <time>2016-07-18T18:40:28.000Z</time>
      </trkpt>
      <trkpt lat="48.86237" lon="2.30062">
        <ele>38.599998474121</ele>
        <time>2016-07-18T18:40:32.000Z</time>
      </trkpt>
      <trkpt lat="48.86237" lon="2.30033">
        <ele>37.799999237061</ele>
        <time>2016-07-18T18:40:36.000Z</time>
      </trkpt>
      <trkpt lat="48.86236" lon="2.30003">
        <ele>36.599998474121</ele>
        <time>2016-07-18T18:40:40.000Z</time>
      </trkpt>
      <trkpt lat="48.86233" lon="2.2997">
        <ele>35.200000762939</ele>
        <time>2016-07-18T18:40:44.000Z</time>
      </trkpt>
      <trkpt lat="48.86227" lon="2.29937">
        <ele>32.799999237061</ele>
        <time>2016-07-18T18:40:48.000Z</time>
      </trkpt>
      <trkpt lat="48.86224" lon="2.29928">
        <ele>32</ele>
        <time>2016-07-18T18:40:49.000Z</time>
      </trkpt>
      <trkpt lat="48.86217" lon="2.29902">
        <ele>30.200000762939</ele>
        <time>2016-07-18T18:40:52.000Z</time>
      </trkpt>
      <trkpt lat="48.86214" lon="2.29885">
        <ele>30</ele>
        <time>2016-07-18T18:40:54.000Z</time>
      </trkpt>
      <trkpt lat="48.86211" lon="2.29869">
        <ele>29.60000038147</ele>
        <time>2016-07-18T18:40:56.000Z</time>
      </trkpt>
      <trkpt lat="48.86203" lon="2.29837">
        <ele>29.39999961853</ele>
        <time>2016-07-18T18:41:00.000Z</time>
      </trkpt>
      <trkpt lat="48.86193" lon="2.29808">
        <ele>30.60000038147</ele>
        <time>2016-07-18T18:41:04.000Z</time>
      </trkpt>
      <trkpt lat="48.86183" lon="2.29778">
        <ele>31.799999237061</ele>
        <time>2016-07-18T18:41:08.000Z</time>
      </trkpt>
      <trkpt lat="48.86173" lon="2.29752">
        <ele>32.799999237061</ele>
        <time>2016-07-18T18:41:12.000Z</time>
      </trkpt>
      <trkpt lat="48.86166" lon="2.29733">
        <ele>33</ele>
        <time>2016-07-18T18:41:15.000Z</time>
      </trkpt>
      <trkpt lat="48.86156" lon="2.29707">
        <ele>33</ele>
        <time>2016-07-18T18:41:19.000Z</time>
      </trkpt>
      <trkpt lat="48.86147" lon="2.29681">
        <ele>32.799999237061</ele>
        <time>2016-07-18T18:41:23.000Z</time>
      </trkpt>
      <trkpt lat="48.86138" lon="2.29656">
        <ele>32.799999237061</ele>
        <time>2016-07-18T18:41:27.000Z</time>
      </trkpt>
      <trkpt lat="48.86125" lon="2.29633">
        <ele>33.599998474121</ele>
        <time>2016-07-18T18:41:31.000Z</time>
      </trkpt>
      <trkpt lat="48.86113" lon="2.2961">
        <ele>34.200000762939</ele>
        <time>2016-07-18T18:41:35.000Z</time>
      </trkpt>
      <trkpt lat="48.861" lon="2.29589">
        <ele>35.200000762939</ele>
        <time>2016-07-18T18:41:39.000Z</time>
      </trkpt>
      <trkpt lat="48.86087" lon="2.29568">
        <ele>36</ele>
        <time>2016-07-18T18:41:43.000Z</time>
      </trkpt>
      <trkpt lat="48.86083" lon="2.29564">
        <ele>36.200000762939</ele>
        <time>2016-07-18T18:41:44.000Z</time>
      </trkpt>
      <trkpt lat="48.86069" lon="2.29546">
        <ele>36.799999237061</ele>
        <time>2016-07-18T18:41:48.000Z</time>
      </trkpt>
      <trkpt lat="48.86055" lon="2.29527">
        <ele>37.400001525879</ele>
        <time>2016-07-18T18:41:52.000Z</time>
      </trkpt>
      <trkpt lat="48.86047" lon="2.29514">
        <ele>37.599998474121</ele>
        <time>2016-07-18T18:41:55.000Z</time>
      </trkpt>
      <trkpt lat="48.86033" lon="2.2949">
        <ele>37.799999237061</ele>
        <time>2016-07-18T18:42:01.000Z</time>
      </trkpt>
      <trkpt lat="48.86019" lon="2.29468">
        <ele>37.599998474121</ele>
        <time>2016-07-18T18:42:07.000Z</time>
      </trkpt>
      <trkpt lat="48.86016" lon="2.29464">
        <ele>37.799999237061</ele>
        <time>2016-07-18T18:42:08.000Z</time>
      </trkpt>
      <trkpt lat="48.86004" lon="2.29447">
        <ele>37.799999237061</ele>
        <time>2016-07-18T18:42:12.000Z</time>
      </trkpt>
      <trkpt lat="48.8599" lon="2.29426">
        <ele>38</ele>
        <time>2016-07-18T18:42:17.000Z</time>
      </trkpt>
      <trkpt lat="48.85976" lon="2.29406">
        <ele>38.200000762939</ele>
        <time>2016-07-18T18:42:21.000Z</time>
      </trkpt>
      <trkpt lat="48.8596" lon="2.29381">
        <ele>38.799999237061</ele>
        <time>2016-07-18T18:42:25.000Z</time>
      </trkpt>
      <trkpt lat="48.85947" lon="2.29356">
        <ele>39.200000762939</ele>
        <time>2016-07-18T18:42:28.000Z</time>
      </trkpt>
      <trkpt lat="48.85932" lon="2.2933">
        <ele>39</ele>
        <time>2016-07-18T18:42:31.000Z</time>
      </trkpt>
      <trkpt lat="48.85915" lon="2.29303">
        <ele>38.400001525879</ele>
        <time>2016-07-18T18:42:34.000Z</time>
      </trkpt>
      <trkpt lat="48.85903" lon="2.29283">
        <ele>37.599998474121</ele>
        <time>2016-07-18T18:42:36.000Z</time>
      </trkpt>
      <trkpt lat="48.85889" lon="2.29257">
        <ele>36.599998474121</ele>
        <time>2016-07-18T18:42:39.000Z</time>
      </trkpt>
      <trkpt lat="48.85867" lon="2.29242">
        <ele>36.799999237061</ele>
        <time>2016-07-18T18:42:43.000Z</time>
      </trkpt>
      <trkpt lat="48.85857" lon="2.29228">
        <ele>36</ele>
        <time>2016-07-18T18:42:46.000Z</time>
      </trkpt>
      <trkpt lat="48.85843" lon="2.29204">
        <ele>35.799999237061</ele>
        <time>2016-07-18T18:42:51.000Z</time>
      </trkpt>
      <trkpt lat="48.85829" lon="2.29185">
        <ele>36</ele>
        <time>2016-07-18T18:42:55.000Z</time>
      </trkpt>
      <trkpt lat="48.85814" lon="2.29164">
        <ele>36.200000762939</ele>
        <time>2016-07-18T18:42:59.000Z</time>
      </trkpt>
      <trkpt lat="48.85797" lon="2.29141">
        <ele>36.400001525879</ele>
        <time>2016-07-18T18:43:03.000Z</time>
      </trkpt>
      <trkpt lat="48.8578" lon="2.29118">
        <ele>36.599998474121</ele>
        <time>2016-07-18T18:43:07.000Z</time>
      </trkpt>
      <trkpt lat="48.85762" lon="2.29094">
        <ele>35.799999237061</ele>
        <time>2016-07-18T18:43:11.000Z</time>
      </trkpt>
      <trkpt lat="48.85744" lon="2.29071">
        <ele>35.400001525879</ele>
        <time>2016-07-18T18:43:15.000Z</time>
      </trkpt>
      <trkpt lat="48.85727" lon="2.29048">
        <ele>36.200000762939</ele>
        <time>2016-07-18T18:43:19.000Z</time>
      </trkpt>
      <trkpt lat="48.8571" lon="2.29029">
        <ele>37</ele>
        <time>2016-07-18T18:43:23.000Z</time>
      </trkpt>
      <trkpt lat="48.85692" lon="2.29014">
        <ele>37.799999237061</ele>
        <time>2016-07-18T18:43:27.000Z</time>
      </trkpt>
      <trkpt lat="48.85674" lon="2.28999">
        <ele>36.799999237061</ele>
        <time>2016-07-18T18:43:31.000Z</time>
      </trkpt>
      <trkpt lat="48.85656" lon="2.28987">
        <ele>35</ele>
        <time>2016-07-18T18:43:35.000Z</time>
      </trkpt>
      <trkpt lat="48.85638" lon="2.28979">
        <ele>33.200000762939</ele>
        <time>2016-07-18T18:43:39.000Z</time>
      </trkpt>
      <trkpt lat="48.8562" lon="2.28971">
        <ele>31.39999961853</ele>
        <time>2016-07-18T18:43:43.000Z</time>
      </trkpt>
      <trkpt lat="48.85601" lon="2.28964">
        <ele>30.799999237061</ele>
        <time>2016-07-18T18:43:47.000Z</time>
      </trkpt>
      <trkpt lat="48.85582" lon="2.28956">
        <ele>33</ele>
        <time>2016-07-18T18:43:51.000Z</time>
      </trkpt>
      <trkpt lat="48.85563" lon="2.28948">
        <ele>35.200000762939</ele>
        <time>2016-07-18T18:43:55.000Z</time>
      </trkpt>
      <trkpt lat="48.85546" lon="2.2894">
        <ele>37</ele>
        <time>2016-07-18T18:43:59.000Z</time>
      </trkpt>
      <trkpt lat="48.85539" lon="2.28936">
        <ele>37.799999237061</ele>
        <time>2016-07-18T18:44:01.000Z</time>
      </trkpt>
      <trkpt lat="48.85525" lon="2.28929">
        <ele>39</ele>
        <time>2016-07-18T18:44:05.000Z</time>
      </trkpt>
      <trkpt lat="48.85519" lon="2.28926">
        <ele>39.400001525879</ele>
        <time>2016-07-18T18:44:07.000Z</time>
      </trkpt>
      <trkpt lat="48.85503" lon="2.28911">
        <ele>40.200000762939</ele>
        <time>2016-07-18T18:44:13.000Z</time>
      </trkpt>
      <trkpt lat="48.85489" lon="2.28898">
        <ele>40.400001525879</ele>
        <time>2016-07-18T18:44:19.000Z</time>
      </trkpt>
      <trkpt lat="48.85485" lon="2.28896">
        <ele>40.599998474121</ele>
        <time>2016-07-18T18:44:22.000Z</time>
      </trkpt>
      <trkpt lat="48.85482" lon="2.28892">
        <ele>40.599998474121</ele>
        <time>2016-07-18T18:44:26.000Z</time>
      </trkpt>
      <trkpt lat="48.85481" lon="2.2889">
        <ele>40.599998474121</ele>
        <time>2016-07-18T18:44:27.000Z</time>
      </trkpt>
      <trkpt lat="48.85478" lon="2.28885">
        <ele>40.599998474121</ele>
        <time>2016-07-18T18:44:32.000Z</time>
      </trkpt>
      <trkpt lat="48.85469" lon="2.28869">
        <ele>40.599998474121</ele>
        <time>2016-07-18T18:45:27.000Z</time>
      </trkpt>
      <trkpt lat="48.85452" lon="2.28858">
        <ele>41.200000762939</ele>
        <time>2016-07-18T18:45:35.000Z</time>
      </trkpt>
      <trkpt lat="48.85437" lon="2.28837">
        <ele>41.200000762939</ele>
        <time>2016-07-18T18:45:40.000Z</time>
      </trkpt>
      <trkpt lat="48.85433" lon="2.28831">
        <ele>41</ele>
        <time>2016-07-18T18:45:41.000Z</time>
      </trkpt>
      <trkpt lat="48.85417" lon="2.28803">
        <ele>40.200000762939</ele>
        <time>2016-07-18T18:45:45.000Z</time>
      </trkpt>
      <trkpt lat="48.85405" lon="2.28778">
        <ele>38.799999237061</ele>
        <time>2016-07-18T18:45:48.000Z</time>
      </trkpt>
      <trkpt lat="48.85385" lon="2.28757">
        <ele>38.400001525879</ele>
        <time>2016-07-18T18:45:51.000Z</time>
      </trkpt>
      <trkpt lat="48.8537" lon="2.28735">
        <ele>38</ele>
        <time>2016-07-18T18:45:54.000Z</time>
      </trkpt>
      <trkpt lat="48.85354" lon="2.28714">
        <ele>38.200000762939</ele>
        <time>2016-07-18T18:45:57.000Z</time>
      </trkpt>
      <trkpt lat="48.85343" lon="2.28689">
        <ele>37.200000762939</ele>
        <time>2016-07-18T18:46:00.000Z</time>
      </trkpt>
      <trkpt lat="48.85327" lon="2.28668">
        <ele>36.599998474121</ele>
        <time>2016-07-18T18:46:03.000Z</time>
      </trkpt>
      <trkpt lat="48.85312" lon="2.2865">
        <ele>36.599998474121</ele>
        <time>2016-07-18T18:46:06.000Z</time>
      </trkpt>
      <trkpt lat="48.85295" lon="2.28635">
        <ele>37</ele>
        <time>2016-07-18T18:46:09.000Z</time>
      </trkpt>
      <trkpt lat="48.85281" lon="2.28619">
        <ele>37</ele>
        <time>2016-07-18T18:46:12.000Z</time>
      </trkpt>
      <trkpt lat="48.85258" lon="2.28603">
        <ele>38.599998474121</ele>
        <time>2016-07-18T18:46:16.000Z</time>
      </trkpt>
      <trkpt lat="48.85238" lon="2.28585">
        <ele>40.400001525879</ele>
        <time>2016-07-18T18:46:20.000Z</time>
      </trkpt>
      <trkpt lat="48.8522" lon="2.28564">
        <ele>39.799999237061</ele>
        <time>2016-07-18T18:46:24.000Z</time>
      </trkpt>
      <trkpt lat="48.85208" lon="2.2854">
        <ele>37.599998474121</ele>
        <time>2016-07-18T18:46:28.000Z</time>
      </trkpt>
      <trkpt lat="48.85193" lon="2.28517">
        <ele>35.799999237061</ele>
        <time>2016-07-18T18:46:32.000Z</time>
      </trkpt>
      <trkpt lat="48.85178" lon="2.28491">
        <ele>33.200000762939</ele>
        <time>2016-07-18T18:46:36.000Z</time>
      </trkpt>
      <trkpt lat="48.85163" lon="2.28467">
        <ele>33.200000762939</ele>
        <time>2016-07-18T18:46:40.000Z</time>
      </trkpt>
      <trkpt lat="48.85151" lon="2.28439">
        <ele>32.599998474121</ele>
        <time>2016-07-18T18:46:44.000Z</time>
      </trkpt>
      <trkpt lat="48.85139" lon="2.28418">
        <ele>32.200000762939</ele>
        <time>2016-07-18T18:46:47.000Z</time>
      </trkpt>
      <trkpt lat="48.85124" lon="2.28401">
        <ele>32.400001525879</ele>
        <time>2016-07-18T18:46:50.000Z</time>
      </trkpt>
      <trkpt lat="48.8511" lon="2.28383">
        <ele>32.400001525879</ele>
        <time>2016-07-18T18:46:53.000Z</time>
      </trkpt>
      <trkpt lat="48.85096" lon="2.28364">
        <ele>32.799999237061</ele>
        <time>2016-07-18T18:46:56.000Z</time>
      </trkpt>
      <trkpt lat="48.85082" lon="2.28345">
        <ele>33.599998474121</ele>
        <time>2016-07-18T18:46:59.000Z</time>
      </trkpt>
      <trkpt lat="48.85067" lon="2.28319">
        <ele>33.599998474121</ele>
        <time>2016-07-18T18:47:03.000Z</time>
      </trkpt>
      <trkpt lat="48.85048" lon="2.28299">
        <ele>34</ele>
        <time>2016-07-18T18:47:07.000Z</time>
      </trkpt>
      <trkpt lat="48.85039" lon="2.28289">
        <ele>34</ele>
        <time>2016-07-18T18:47:09.000Z</time>
      </trkpt>
      <trkpt lat="48.85022" lon="2.28271">
        <ele>34.400001525879</ele>
        <time>2016-07-18T18:47:13.000Z</time>
      </trkpt>
      <trkpt lat="48.85008" lon="2.28252">
        <ele>33.200000762939</ele>
        <time>2016-07-18T18:47:17.000Z</time>
      </trkpt>
      <trkpt lat="48.84992" lon="2.2823">
        <ele>32.400001525879</ele>
        <time>2016-07-18T18:47:22.000Z</time>
      </trkpt>
      <trkpt lat="48.84975" lon="2.28208">
        <ele>32</ele>
        <time>2016-07-18T18:47:27.000Z</time>
      </trkpt>
      <trkpt lat="48.84961" lon="2.2819">
        <ele>31.60000038147</ele>
        <time>2016-07-18T18:47:32.000Z</time>
      </trkpt>
      <trkpt lat="48.84957" lon="2.28179">
        <ele>31.200000762939</ele>
        <time>2016-07-18T18:47:35.000Z</time>
      </trkpt>
      <trkpt lat="48.84954" lon="2.28174">
        <ele>31</ele>
        <time>2016-07-18T18:47:37.000Z</time>
      </trkpt>
      <trkpt lat="48.84953" lon="2.28151">
        <ele>30.60000038147</ele>
        <time>2016-07-18T18:47:51.000Z</time>
      </trkpt>
      <trkpt lat="48.84955" lon="2.28149">
        <ele>30.60000038147</ele>
        <time>2016-07-18T18:47:52.000Z</time>
      </trkpt>
      <trkpt lat="48.84964" lon="2.2813">
        <ele>30.60000038147</ele>
        <time>2016-07-18T18:47:57.000Z</time>
      </trkpt>
      <trkpt lat="48.84977" lon="2.28109">
        <ele>29.799999237061</ele>
        <time>2016-07-18T18:48:03.000Z</time>
      </trkpt>
      <trkpt lat="48.84989" lon="2.28088">
        <ele>28</ele>
        <time>2016-07-18T18:48:08.000Z</time>
      </trkpt>
      <trkpt lat="48.85004" lon="2.28064">
        <ele>26.60000038147</ele>
        <time>2016-07-18T18:48:13.000Z</time>
      </trkpt>
      <trkpt lat="48.85017" lon="2.28044">
        <ele>27.200000762939</ele>
        <time>2016-07-18T18:48:17.000Z</time>
      </trkpt>
      <trkpt lat="48.8503" lon="2.28023">
        <ele>29</ele>
        <time>2016-07-18T18:48:21.000Z</time>
      </trkpt>
      <trkpt lat="48.85043" lon="2.28003">
        <ele>29.799999237061</ele>
        <time>2016-07-18T18:48:25.000Z</time>
      </trkpt>
      <trkpt lat="48.85056" lon="2.27981">
        <ele>30</ele>
        <time>2016-07-18T18:48:29.000Z</time>
      </trkpt>
      <trkpt lat="48.8507" lon="2.27958">
        <ele>31.200000762939</ele>
        <time>2016-07-18T18:48:33.000Z</time>
      </trkpt>
      <trkpt lat="48.85084" lon="2.27934">
        <ele>31.799999237061</ele>
        <time>2016-07-18T18:48:37.000Z</time>
      </trkpt>
      <trkpt lat="48.851" lon="2.27911">
        <ele>32.200000762939</ele>
        <time>2016-07-18T18:48:41.000Z</time>
      </trkpt>
      <trkpt lat="48.85116" lon="2.27889">
        <ele>34</ele>
        <time>2016-07-18T18:48:45.000Z</time>
      </trkpt>
      <trkpt lat="48.85127" lon="2.27875">
        <ele>35.200000762939</ele>
        <time>2016-07-18T18:48:48.000Z</time>
      </trkpt>
      <trkpt lat="48.85132" lon="2.27867">
        <ele>36</ele>
        <time>2016-07-18T18:48:50.000Z</time>
      </trkpt>
      <trkpt lat="48.85135" lon="2.27862">
        <ele>36.400001525879</ele>
        <time>2016-07-18T18:48:53.000Z</time>
      </trkpt>
      <trkpt lat="48.85134" lon="2.27844">
        <ele>36.799999237061</ele>
        <time>2016-07-18T18:49:39.000Z</time>
      </trkpt>
      <trkpt lat="48.85127" lon="2.27818">
        <ele>37</ele>
        <time>2016-07-18T18:49:52.000Z</time>
      </trkpt>
      <trkpt lat="48.8511" lon="2.27795">
        <ele>37</ele>
        <time>2016-07-18T18:49:57.000Z</time>
      </trkpt>
      <trkpt lat="48.85094" lon="2.27774">
        <ele>37</ele>
        <time>2016-07-18T18:50:01.000Z</time>
      </trkpt>
      <trkpt lat="48.85078" lon="2.2775">
        <ele>37</ele>
        <time>2016-07-18T18:50:05.000Z</time>
      </trkpt>
      <trkpt lat="48.8506" lon="2.27726">
        <ele>38.599998474121</ele>
        <time>2016-07-18T18:50:09.000Z</time>
      </trkpt>
      <trkpt lat="48.85042" lon="2.27703">
        <ele>40.599998474121</ele>
        <time>2016-07-18T18:50:13.000Z</time>
      </trkpt>
      <trkpt lat="48.85026" lon="2.2768">
        <ele>42.599998474121</ele>
        <time>2016-07-18T18:50:17.000Z</time>
      </trkpt>
      <trkpt lat="48.85013" lon="2.27653">
        <ele>44.400001525879</ele>
        <time>2016-07-18T18:50:21.000Z</time>
      </trkpt>
      <trkpt lat="48.85008" lon="2.27629">
        <ele>44.400001525879</ele>
        <time>2016-07-18T18:50:24.000Z</time>
      </trkpt>
      <trkpt lat="48.84992" lon="2.2761">
        <ele>45.200000762939</ele>
        <time>2016-07-18T18:50:28.000Z</time>
      </trkpt>
      <trkpt lat="48.84981" lon="2.27595">
        <ele>45.599998474121</ele>
        <time>2016-07-18T18:50:31.000Z</time>
      </trkpt>
      <trkpt lat="48.84966" lon="2.27575">
        <ele>46.200000762939</ele>
        <time>2016-07-18T18:50:35.000Z</time>
      </trkpt>
      <trkpt lat="48.84961" lon="2.27571">
        <ele>46.400001525879</ele>
        <time>2016-07-18T18:50:36.000Z</time>
      </trkpt>
      <trkpt lat="48.84944" lon="2.2755">
        <ele>47</ele>
        <time>2016-07-18T18:50:40.000Z</time>
      </trkpt>
      <trkpt lat="48.84929" lon="2.27529">
        <ele>46.799999237061</ele>
        <time>2016-07-18T18:50:44.000Z</time>
      </trkpt>
      <trkpt lat="48.84916" lon="2.27513">
        <ele>46.400001525879</ele>
        <time>2016-07-18T18:50:48.000Z</time>
      </trkpt>
      <trkpt lat="48.84897" lon="2.27504">
        <ele>46.200000762939</ele>
        <time>2016-07-18T18:50:53.000Z</time>
      </trkpt>
      <trkpt lat="48.84883" lon="2.27496">
        <ele>46</ele>
        <time>2016-07-18T18:50:56.000Z</time>
      </trkpt>
      <trkpt lat="48.84864" lon="2.27479">
        <ele>45.400001525879</ele>
        <time>2016-07-18T18:51:00.000Z</time>
      </trkpt>
      <trkpt lat="48.84846" lon="2.27463">
        <ele>44.599998474121</ele>
        <time>2016-07-18T18:51:04.000Z</time>
      </trkpt>
      <trkpt lat="48.84826" lon="2.27447">
        <ele>43.799999237061</ele>
        <time>2016-07-18T18:51:08.000Z</time>
      </trkpt>
      <trkpt lat="48.84806" lon="2.27437">
        <ele>43.200000762939</ele>
        <time>2016-07-18T18:51:12.000Z</time>
      </trkpt>
      <trkpt lat="48.84786" lon="2.27419">
        <ele>42.400001525879</ele>
        <time>2016-07-18T18:51:16.000Z</time>
      </trkpt>
      <trkpt lat="48.84767" lon="2.27407">
        <ele>41.799999237061</ele>
        <time>2016-07-18T18:51:19.000Z</time>
      </trkpt>
      <trkpt lat="48.84749" lon="2.27387">
        <ele>41.599998474121</ele>
        <time>2016-07-18T18:51:22.000Z</time>
      </trkpt>
      <trkpt lat="48.8473" lon="2.27365">
        <ele>41.200000762939</ele>
        <time>2016-07-18T18:51:26.000Z</time>
      </trkpt>
      <trkpt lat="48.84712" lon="2.27344">
        <ele>40.799999237061</ele>
        <time>2016-07-18T18:51:30.000Z</time>
      </trkpt>
      <trkpt lat="48.84696" lon="2.27328">
        <ele>40.400001525879</ele>
        <time>2016-07-18T18:51:33.000Z</time>
      </trkpt>
      <trkpt lat="48.84676" lon="2.27311">
        <ele>39.599998474121</ele>
        <time>2016-07-18T18:51:37.000Z</time>
      </trkpt>
      <trkpt lat="48.84656" lon="2.27291">
        <ele>38.799999237061</ele>
        <time>2016-07-18T18:51:41.000Z</time>
      </trkpt>
      <trkpt lat="48.8464" lon="2.27274">
        <ele>38</ele>
        <time>2016-07-18T18:51:44.000Z</time>
      </trkpt>
      <trkpt lat="48.84624" lon="2.27259">
        <ele>37.200000762939</ele>
        <time>2016-07-18T18:51:47.000Z</time>
      </trkpt>
      <trkpt lat="48.84619" lon="2.27254">
        <ele>37</ele>
        <time>2016-07-18T18:51:48.000Z</time>
      </trkpt>
      <trkpt lat="48.846" lon="2.27235">
        <ele>37</ele>
        <time>2016-07-18T18:51:52.000Z</time>
      </trkpt>
      <trkpt lat="48.84585" lon="2.27217">
        <ele>38.400001525879</ele>
        <time>2016-07-18T18:51:55.000Z</time>
      </trkpt>
      <trkpt lat="48.84571" lon="2.27198">
        <ele>40</ele>
        <time>2016-07-18T18:51:58.000Z</time>
      </trkpt>
      <trkpt lat="48.84566" lon="2.27192">
        <ele>40.400001525879</ele>
        <time>2016-07-18T18:51:59.000Z</time>
      </trkpt>
      <trkpt lat="48.84551" lon="2.27176">
        <ele>41.599998474121</ele>
        <time>2016-07-18T18:52:02.000Z</time>
      </trkpt>
      <trkpt lat="48.84535" lon="2.27162">
        <ele>42.400001525879</ele>
        <time>2016-07-18T18:52:05.000Z</time>
      </trkpt>
      <trkpt lat="48.84518" lon="2.27145">
        <ele>41.799999237061</ele>
        <time>2016-07-18T18:52:08.000Z</time>
      </trkpt>
      <trkpt lat="48.84503" lon="2.27129">
        <ele>42.599998474121</ele>
        <time>2016-07-18T18:52:11.000Z</time>
      </trkpt>
      <trkpt lat="48.84487" lon="2.27112">
        <ele>43.400001525879</ele>
        <time>2016-07-18T18:52:14.000Z</time>
      </trkpt>
      <trkpt lat="48.8447" lon="2.27095">
        <ele>44.200000762939</ele>
        <time>2016-07-18T18:52:17.000Z</time>
      </trkpt>
      <trkpt lat="48.84453" lon="2.27078">
        <ele>45</ele>
        <time>2016-07-18T18:52:20.000Z</time>
      </trkpt>
      <trkpt lat="48.84435" lon="2.27061">
        <ele>45.799999237061</ele>
        <time>2016-07-18T18:52:23.000Z</time>
      </trkpt>
      <trkpt lat="48.84414" lon="2.27046">
        <ele>46.200000762939</ele>
        <time>2016-07-18T18:52:26.000Z</time>
      </trkpt>
      <trkpt lat="48.8439" lon="2.27034">
        <ele>46.599998474121</ele>
        <time>2016-07-18T18:52:29.000Z</time>
      </trkpt>
      <trkpt lat="48.84371" lon="2.27016">
        <ele>46.799999237061</ele>
        <time>2016-07-18T18:52:32.000Z</time>
      </trkpt>
      <trkpt lat="48.84351" lon="2.26999">
        <ele>46.599998474121</ele>
        <time>2016-07-18T18:52:35.000Z</time>
      </trkpt>
      <trkpt lat="48.84333" lon="2.26983">
        <ele>45.599998474121</ele>
        <time>2016-07-18T18:52:38.000Z</time>
      </trkpt>
      <trkpt lat="48.84319" lon="2.26949">
        <ele>45.400001525879</ele>
        <time>2016-07-18T18:52:42.000Z</time>
      </trkpt>
      <trkpt lat="48.84305" lon="2.26931">
        <ele>44.599998474121</ele>
        <time>2016-07-18T18:52:45.000Z</time>
      </trkpt>
      <trkpt lat="48.8429" lon="2.26911">
        <ele>44</ele>
        <time>2016-07-18T18:52:48.000Z</time>
      </trkpt>
      <trkpt lat="48.84273" lon="2.26891">
        <ele>44.200000762939</ele>
        <time>2016-07-18T18:52:51.000Z</time>
      </trkpt>
      <trkpt lat="48.8427" lon="2.26884">
        <ele>44.200000762939</ele>
        <time>2016-07-18T18:52:52.000Z</time>
      </trkpt>
      <trkpt lat="48.84258" lon="2.26864">
        <ele>43.400001525879</ele>
        <time>2016-07-18T18:52:55.000Z</time>
      </trkpt>
      <trkpt lat="48.84249" lon="2.26831">
        <ele>43</ele>
        <time>2016-07-18T18:52:58.000Z</time>
      </trkpt>
      <trkpt lat="48.8424" lon="2.26815">
        <ele>43.200000762939</ele>
        <time>2016-07-18T18:53:00.000Z</time>
      </trkpt>
      <trkpt lat="48.84226" lon="2.26789">
        <ele>43.599998474121</ele>
        <time>2016-07-18T18:53:03.000Z</time>
      </trkpt>
      <trkpt lat="48.8421" lon="2.26763">
        <ele>43.200000762939</ele>
        <time>2016-07-18T18:53:06.000Z</time>
      </trkpt>
      <trkpt lat="48.84194" lon="2.2674">
        <ele>43</ele>
        <time>2016-07-18T18:53:09.000Z</time>
      </trkpt>
      <trkpt lat="48.84178" lon="2.26718">
        <ele>43.599998474121</ele>
        <time>2016-07-18T18:53:12.000Z</time>
      </trkpt>
      <trkpt lat="48.84165" lon="2.26695">
        <ele>44</ele>
        <time>2016-07-18T18:53:15.000Z</time>
      </trkpt>
      <trkpt lat="48.84151" lon="2.26674">
        <ele>44.200000762939</ele>
        <time>2016-07-18T18:53:18.000Z</time>
      </trkpt>
      <trkpt lat="48.84142" lon="2.2664">
        <ele>44.799999237061</ele>
        <time>2016-07-18T18:53:22.000Z</time>
      </trkpt>
      <trkpt lat="48.84131" lon="2.26614">
        <ele>44.799999237061</ele>
        <time>2016-07-18T18:53:26.000Z</time>
      </trkpt>
      <trkpt lat="48.8413" lon="2.26574">
        <ele>44.799999237061</ele>
        <time>2016-07-18T18:53:31.000Z</time>
      </trkpt>
      <trkpt lat="48.84114" lon="2.26554">
        <ele>44.799999237061</ele>
        <time>2016-07-18T18:53:36.000Z</time>
      </trkpt>
      <trkpt lat="48.84111" lon="2.26552">
        <ele>45</ele>
        <time>2016-07-18T18:53:37.000Z</time>
      </trkpt>
      <trkpt lat="48.84106" lon="2.26547">
        <ele>45</ele>
        <time>2016-07-18T18:53:41.000Z</time>
      </trkpt>
      <trkpt lat="48.84105" lon="2.26545">
        <ele>45</ele>
        <time>2016-07-18T18:53:44.000Z</time>
      </trkpt>
      <trkpt lat="48.84106" lon="2.26544">
        <ele>45</ele>
        <time>2016-07-18T18:55:41.000Z</time>
      </trkpt>
      <trkpt lat="48.84106" lon="2.26545">
        <ele>45</ele>
        <time>2016-07-18T18:57:25.000Z</time>
      </trkpt>
      <trkpt lat="48.84092" lon="2.26534">
        <ele>45.599998474121</ele>
        <time>2016-07-18T18:58:03.000Z</time>
      </trkpt>
      <trkpt lat="48.8408" lon="2.26511">
        <ele>46.200000762939</ele>
        <time>2016-07-18T18:58:09.000Z</time>
      </trkpt>
      <trkpt lat="48.84067" lon="2.26491">
        <ele>46.599998474121</ele>
        <time>2016-07-18T18:58:14.000Z</time>
      </trkpt>
      <trkpt lat="48.84053" lon="2.26465">
        <ele>46</ele>
        <time>2016-07-18T18:58:19.000Z</time>
      </trkpt>
      <trkpt lat="48.84037" lon="2.26441">
        <ele>45.599998474121</ele>
        <time>2016-07-18T18:58:23.000Z</time>
      </trkpt>
      <trkpt lat="48.84024" lon="2.26421">
        <ele>45.400001525879</ele>
        <time>2016-07-18T18:58:26.000Z</time>
      </trkpt>
      <trkpt lat="48.84009" lon="2.26399">
        <ele>45.200000762939</ele>
        <time>2016-07-18T18:58:29.000Z</time>
      </trkpt>
      <trkpt lat="48.83994" lon="2.26376">
        <ele>45.200000762939</ele>
        <time>2016-07-18T18:58:32.000Z</time>
      </trkpt>
      <trkpt lat="48.83978" lon="2.26354">
        <ele>45.400001525879</ele>
        <time>2016-07-18T18:58:35.000Z</time>
      </trkpt>
      <trkpt lat="48.83961" lon="2.26331">
        <ele>45.400001525879</ele>
        <time>2016-07-18T18:58:38.000Z</time>
      </trkpt>
      <trkpt lat="48.83948" lon="2.26305">
        <ele>46</ele>
        <time>2016-07-18T18:58:41.000Z</time>
      </trkpt>
      <trkpt lat="48.83936" lon="2.26275">
        <ele>46.599998474121</ele>
        <time>2016-07-18T18:58:44.000Z</time>
      </trkpt>
      <trkpt lat="48.83928" lon="2.26241">
        <ele>46.599998474121</ele>
        <time>2016-07-18T18:58:47.000Z</time>
      </trkpt>
      <trkpt lat="48.83919" lon="2.26215">
        <ele>45.599998474121</ele>
        <time>2016-07-18T18:58:50.000Z</time>
      </trkpt>
      <trkpt lat="48.83911" lon="2.26189">
        <ele>44.599998474121</ele>
        <time>2016-07-18T18:58:53.000Z</time>
      </trkpt>
      <trkpt lat="48.83903" lon="2.26164">
        <ele>43.599998474121</ele>
        <time>2016-07-18T18:58:56.000Z</time>
      </trkpt>
      <trkpt lat="48.839" lon="2.26128">
        <ele>44.799999237061</ele>
        <time>2016-07-18T18:59:00.000Z</time>
      </trkpt>
      <trkpt lat="48.83891" lon="2.26094">
        <ele>45.599998474121</ele>
        <time>2016-07-18T18:59:04.000Z</time>
      </trkpt>
      <trkpt lat="48.83884" lon="2.26068">
        <ele>45.799999237061</ele>
        <time>2016-07-18T18:59:07.000Z</time>
      </trkpt>
      <trkpt lat="48.83876" lon="2.26044">
        <ele>45.599998474121</ele>
        <time>2016-07-18T18:59:10.000Z</time>
      </trkpt>
      <trkpt lat="48.83864" lon="2.26012">
        <ele>45.200000762939</ele>
        <time>2016-07-18T18:59:14.000Z</time>
      </trkpt>
      <trkpt lat="48.83854" lon="2.25981">
        <ele>44.599998474121</ele>
        <time>2016-07-18T18:59:18.000Z</time>
      </trkpt>
      <trkpt lat="48.83844" lon="2.25948">
        <ele>43.599998474121</ele>
        <time>2016-07-18T18:59:22.000Z</time>
      </trkpt>
      <trkpt lat="48.83833" lon="2.25916">
        <ele>43</ele>
        <time>2016-07-18T18:59:26.000Z</time>
      </trkpt>
      <trkpt lat="48.83819" lon="2.25887">
        <ele>43</ele>
        <time>2016-07-18T18:59:30.000Z</time>
      </trkpt>
      <trkpt lat="48.83816" lon="2.25879">
        <ele>43</ele>
        <time>2016-07-18T18:59:31.000Z</time>
      </trkpt>
      <trkpt lat="48.83807" lon="2.25847">
        <ele>43.200000762939</ele>
        <time>2016-07-18T18:59:35.000Z</time>
      </trkpt>
      <trkpt lat="48.83804" lon="2.25819">
        <ele>42.599998474121</ele>
        <time>2016-07-18T18:59:38.000Z</time>
      </trkpt>
      <trkpt lat="48.83801" lon="2.25792">
        <ele>41</ele>
        <time>2016-07-18T18:59:41.000Z</time>
      </trkpt>
      <trkpt lat="48.83807" lon="2.25763">
        <ele>39.799999237061</ele>
        <time>2016-07-18T18:59:45.000Z</time>
      </trkpt>
      <trkpt lat="48.83816" lon="2.25749">
        <ele>39.599998474121</ele>
        <time>2016-07-18T18:59:47.000Z</time>
      </trkpt>
      <trkpt lat="48.83829" lon="2.25728">
        <ele>39</ele>
        <time>2016-07-18T18:59:52.000Z</time>
      </trkpt>
      <trkpt lat="48.83835" lon="2.25715">
        <ele>39.200000762939</ele>
        <time>2016-07-18T18:59:57.000Z</time>
      </trkpt>
      <trkpt lat="48.83837" lon="2.25696">
        <ele>39.400001525879</ele>
        <time>2016-07-18T19:00:15.000Z</time>
      </trkpt>
      <trkpt lat="48.83837" lon="2.25668">
        <ele>39.799999237061</ele>
        <time>2016-07-18T19:00:22.000Z</time>
      </trkpt>
      <trkpt lat="48.83829" lon="2.25641">
        <ele>39.400001525879</ele>
        <time>2016-07-18T19:00:27.000Z</time>
      </trkpt>
      <trkpt lat="48.83828" lon="2.25608">
        <ele>39.400001525879</ele>
        <time>2016-07-18T19:00:32.000Z</time>
      </trkpt>
      <trkpt lat="48.83834" lon="2.25576">
        <ele>39.799999237061</ele>
        <time>2016-07-18T19:00:37.000Z</time>
      </trkpt>
      <trkpt lat="48.83847" lon="2.25555">
        <ele>40.200000762939</ele>
        <time>2016-07-18T19:00:41.000Z</time>
      </trkpt>
      <trkpt lat="48.83856" lon="2.25531">
        <ele>39.799999237061</ele>
        <time>2016-07-18T19:00:45.000Z</time>
      </trkpt>
      <trkpt lat="48.8386" lon="2.25504">
        <ele>39.400001525879</ele>
        <time>2016-07-18T19:00:50.000Z</time>
      </trkpt>
      <trkpt lat="48.83864" lon="2.25473">
        <ele>39.200000762939</ele>
        <time>2016-07-18T19:00:56.000Z</time>
      </trkpt>
      <trkpt lat="48.83868" lon="2.25444">
        <ele>39.200000762939</ele>
        <time>2016-07-18T19:01:03.000Z</time>
      </trkpt>
      <trkpt lat="48.83873" lon="2.25417">
        <ele>39.200000762939</ele>
        <time>2016-07-18T19:01:09.000Z</time>
      </trkpt>
      <trkpt lat="48.83874" lon="2.25389">
        <ele>39.599998474121</ele>
        <time>2016-07-18T19:01:15.000Z</time>
      </trkpt>
      <trkpt lat="48.83866" lon="2.2536">
        <ele>39.799999237061</ele>
        <time>2016-07-18T19:01:21.000Z</time>
      </trkpt>
      <trkpt lat="48.83862" lon="2.25329">
        <ele>40.200000762939</ele>
        <time>2016-07-18T19:01:26.000Z</time>
      </trkpt>
      <trkpt lat="48.8386" lon="2.253">
        <ele>39.799999237061</ele>
        <time>2016-07-18T19:01:30.000Z</time>
      </trkpt>
      <trkpt lat="48.83862" lon="2.25273">
        <ele>39.599998474121</ele>
        <time>2016-07-18T19:01:34.000Z</time>
      </trkpt>
      <trkpt lat="48.83867" lon="2.25245">
        <ele>39.400001525879</ele>
        <time>2016-07-18T19:01:38.000Z</time>
      </trkpt>
      <trkpt lat="48.83872" lon="2.25218">
        <ele>40.200000762939</ele>
        <time>2016-07-18T19:01:42.000Z</time>
      </trkpt>
      <trkpt lat="48.83877" lon="2.25189">
        <ele>41.200000762939</ele>
        <time>2016-07-18T19:01:46.000Z</time>
      </trkpt>
      <trkpt lat="48.8388" lon="2.25161">
        <ele>42.200000762939</ele>
        <time>2016-07-18T19:01:50.000Z</time>
      </trkpt>
      <trkpt lat="48.8388" lon="2.25154">
        <ele>42.400001525879</ele>
        <time>2016-07-18T19:01:51.000Z</time>
      </trkpt>
      <trkpt lat="48.83882" lon="2.25134">
        <ele>43</ele>
        <time>2016-07-18T19:01:54.000Z</time>
      </trkpt>
      <trkpt lat="48.83884" lon="2.25122">
        <ele>43.400001525879</ele>
        <time>2016-07-18T19:01:56.000Z</time>
      </trkpt>
      <trkpt lat="48.83889" lon="2.25106">
        <ele>44</ele>
        <time>2016-07-18T19:02:00.000Z</time>
      </trkpt>
      <trkpt lat="48.8389" lon="2.25087">
        <ele>44.400001525879</ele>
        <time>2016-07-18T19:02:06.000Z</time>
      </trkpt>
      <trkpt lat="48.83895" lon="2.25059">
        <ele>45.200000762939</ele>
        <time>2016-07-18T19:02:13.000Z</time>
      </trkpt>
      <trkpt lat="48.83903" lon="2.25031">
        <ele>45.200000762939</ele>
        <time>2016-07-18T19:02:18.000Z</time>
      </trkpt>
      <trkpt lat="48.83907" lon="2.25004">
        <ele>44.400001525879</ele>
        <time>2016-07-18T19:02:23.000Z</time>
      </trkpt>
      <trkpt lat="48.83914" lon="2.24972">
        <ele>43.400001525879</ele>
        <time>2016-07-18T19:02:28.000Z</time>
      </trkpt>
      <trkpt lat="48.83922" lon="2.24941">
        <ele>43.200000762939</ele>
        <time>2016-07-18T19:02:32.000Z</time>
      </trkpt>
      <trkpt lat="48.83924" lon="2.24913">
        <ele>42.799999237061</ele>
        <time>2016-07-18T19:02:36.000Z</time>
      </trkpt>
      <trkpt lat="48.8393" lon="2.24884">
        <ele>43</ele>
        <time>2016-07-18T19:02:40.000Z</time>
      </trkpt>
      <trkpt lat="48.83934" lon="2.24855">
        <ele>43.400001525879</ele>
        <time>2016-07-18T19:02:44.000Z</time>
      </trkpt>
      <trkpt lat="48.83946" lon="2.24825">
        <ele>44</ele>
        <time>2016-07-18T19:02:48.000Z</time>
      </trkpt>
      <trkpt lat="48.83959" lon="2.24802">
        <ele>43.799999237061</ele>
        <time>2016-07-18T19:02:51.000Z</time>
      </trkpt>
      <trkpt lat="48.83963" lon="2.24773">
        <ele>43.799999237061</ele>
        <time>2016-07-18T19:02:54.000Z</time>
      </trkpt>
      <trkpt lat="48.83966" lon="2.24748">
        <ele>44</ele>
        <time>2016-07-18T19:02:57.000Z</time>
      </trkpt>
      <trkpt lat="48.83973" lon="2.24722">
        <ele>43.799999237061</ele>
        <time>2016-07-18T19:03:01.000Z</time>
      </trkpt>
      <trkpt lat="48.83974" lon="2.24715">
        <ele>43.599998474121</ele>
        <time>2016-07-18T19:03:03.000Z</time>
      </trkpt>
      <trkpt lat="48.83975" lon="2.24712">
        <ele>43.599998474121</ele>
        <time>2016-07-18T19:03:05.000Z</time>
      </trkpt>
      <trkpt lat="48.83978" lon="2.24693">
        <ele>43.400001525879</ele>
        <time>2016-07-18T19:03:12.000Z</time>
      </trkpt>
      <trkpt lat="48.83979" lon="2.24688">
        <ele>43.400001525879</ele>
        <time>2016-07-18T19:03:13.000Z</time>
      </trkpt>
      <trkpt lat="48.83983" lon="2.24659">
        <ele>43</ele>
        <time>2016-07-18T19:03:18.000Z</time>
      </trkpt>
      <trkpt lat="48.83988" lon="2.24633">
        <ele>42.200000762939</ele>
        <time>2016-07-18T19:03:22.000Z</time>
      </trkpt>
      <trkpt lat="48.83989" lon="2.24627">
        <ele>42.200000762939</ele>
        <time>2016-07-18T19:03:23.000Z</time>
      </trkpt>
      <trkpt lat="48.83994" lon="2.24605">
        <ele>41.599998474121</ele>
        <time>2016-07-18T19:03:27.000Z</time>
      </trkpt>
      <trkpt lat="48.83998" lon="2.24578">
        <ele>41</ele>
        <time>2016-07-18T19:03:31.000Z</time>
      </trkpt>
      <trkpt lat="48.83999" lon="2.24546">
        <ele>40.799999237061</ele>
        <time>2016-07-18T19:03:36.000Z</time>
      </trkpt>
      <trkpt lat="48.84001" lon="2.24513">
        <ele>41.200000762939</ele>
        <time>2016-07-18T19:03:40.000Z</time>
      </trkpt>
      <trkpt lat="48.84002" lon="2.24482">
        <ele>41.599998474121</ele>
        <time>2016-07-18T19:03:46.000Z</time>
      </trkpt>
      <trkpt lat="48.84006" lon="2.24452">
        <ele>42</ele>
        <time>2016-07-18T19:03:51.000Z</time>
      </trkpt>
      <trkpt lat="48.84006" lon="2.24447">
        <ele>42</ele>
        <time>2016-07-18T19:03:52.000Z</time>
      </trkpt>
      <trkpt lat="48.8402" lon="2.24417">
        <ele>42.799999237061</ele>
        <time>2016-07-18T19:03:56.000Z</time>
      </trkpt>
      <trkpt lat="48.84025" lon="2.24406">
        <ele>43.200000762939</ele>
        <time>2016-07-18T19:03:57.000Z</time>
      </trkpt>
      <trkpt lat="48.84032" lon="2.24376">
        <ele>43.799999237061</ele>
        <time>2016-07-18T19:04:01.000Z</time>
      </trkpt>
      <trkpt lat="48.84036" lon="2.24345">
        <ele>44.400001525879</ele>
        <time>2016-07-18T19:04:06.000Z</time>
      </trkpt>
      <trkpt lat="48.84036" lon="2.24339">
        <ele>44.200000762939</ele>
        <time>2016-07-18T19:04:07.000Z</time>
      </trkpt>
      <trkpt lat="48.84045" lon="2.2431">
        <ele>43</ele>
        <time>2016-07-18T19:04:12.000Z</time>
      </trkpt>
      <trkpt lat="48.84046" lon="2.243">
        <ele>42.799999237061</ele>
        <time>2016-07-18T19:04:14.000Z</time>
      </trkpt>
      <trkpt lat="48.84047" lon="2.24284">
        <ele>42.400001525879</ele>
        <time>2016-07-18T19:04:17.000Z</time>
      </trkpt>
      <trkpt lat="48.84052" lon="2.24261">
        <ele>41.799999237061</ele>
        <time>2016-07-18T19:04:21.000Z</time>
      </trkpt>
      <trkpt lat="48.84056" lon="2.2423">
        <ele>41.599998474121</ele>
        <time>2016-07-18T19:04:26.000Z</time>
      </trkpt>
      <trkpt lat="48.84061" lon="2.24199">
        <ele>41.599998474121</ele>
        <time>2016-07-18T19:04:32.000Z</time>
      </trkpt>
      <trkpt lat="48.84066" lon="2.2417">
        <ele>42.799999237061</ele>
        <time>2016-07-18T19:04:37.000Z</time>
      </trkpt>
      <trkpt lat="48.84074" lon="2.24145">
        <ele>43.200000762939</ele>
        <time>2016-07-18T19:04:41.000Z</time>
      </trkpt>
      <trkpt lat="48.84085" lon="2.24119">
        <ele>43.200000762939</ele>
        <time>2016-07-18T19:04:45.000Z</time>
      </trkpt>
      <trkpt lat="48.84094" lon="2.24095">
        <ele>43</ele>
        <time>2016-07-18T19:04:49.000Z</time>
      </trkpt>
      <trkpt lat="48.84103" lon="2.24068">
        <ele>42.599998474121</ele>
        <time>2016-07-18T19:04:53.000Z</time>
      </trkpt>
      <trkpt lat="48.84109" lon="2.24049">
        <ele>41.799999237061</ele>
        <time>2016-07-18T19:04:56.000Z</time>
      </trkpt>
      <trkpt lat="48.84113" lon="2.24021">
        <ele>40.799999237061</ele>
        <time>2016-07-18T19:05:00.000Z</time>
      </trkpt>
      <trkpt lat="48.84117" lon="2.24">
        <ele>40</ele>
        <time>2016-07-18T19:05:03.000Z</time>
      </trkpt>
      <trkpt lat="48.84122" lon="2.2397">
        <ele>39.599998474121</ele>
        <time>2016-07-18T19:05:08.000Z</time>
      </trkpt>
      <trkpt lat="48.84125" lon="2.23943">
        <ele>39.200000762939</ele>
        <time>2016-07-18T19:05:15.000Z</time>
      </trkpt>
      <trkpt lat="48.84127" lon="2.23939">
        <ele>39</ele>
        <time>2016-07-18T19:05:17.000Z</time>
      </trkpt>
      <trkpt lat="48.84127" lon="2.23932">
        <ele>39</ele>
        <time>2016-07-18T19:05:18.000Z</time>
      </trkpt>
      <trkpt lat="48.84141" lon="2.23906">
        <ele>40.200000762939</ele>
        <time>2016-07-18T19:05:32.000Z</time>
      </trkpt>
      <trkpt lat="48.84148" lon="2.23903">
        <ele>40.599998474121</ele>
        <time>2016-07-18T19:06:26.000Z</time>
      </trkpt>
      <trkpt lat="48.84169" lon="2.23891">
        <ele>41.200000762939</ele>
        <time>2016-07-18T19:06:36.000Z</time>
      </trkpt>
      <trkpt lat="48.84189" lon="2.23887">
        <ele>41.400001525879</ele>
        <time>2016-07-18T19:06:42.000Z</time>
      </trkpt>
      <trkpt lat="48.84206" lon="2.23881">
        <ele>41</ele>
        <time>2016-07-18T19:06:47.000Z</time>
      </trkpt>
      <trkpt lat="48.84224" lon="2.23875">
        <ele>40.599998474121</ele>
        <time>2016-07-18T19:06:53.000Z</time>
      </trkpt>
      <trkpt lat="48.84244" lon="2.23866">
        <ele>40.599998474121</ele>
        <time>2016-07-18T19:06:58.000Z</time>
      </trkpt>
      <trkpt lat="48.84262" lon="2.23855">
        <ele>40.799999237061</ele>
        <time>2016-07-18T19:07:03.000Z</time>
      </trkpt>
      <trkpt lat="48.84281" lon="2.23848">
        <ele>41</ele>
        <time>2016-07-18T19:07:08.000Z</time>
      </trkpt>
      <trkpt lat="48.84298" lon="2.23839">
        <ele>41</ele>
        <time>2016-07-18T19:07:12.000Z</time>
      </trkpt>
      <trkpt lat="48.84319" lon="2.23829">
        <ele>41.599998474121</ele>
        <time>2016-07-18T19:07:17.000Z</time>
      </trkpt>
      <trkpt lat="48.8434" lon="2.23817">
        <ele>41.599998474121</ele>
        <time>2016-07-18T19:07:22.000Z</time>
      </trkpt>
      <trkpt lat="48.84358" lon="2.23802">
        <ele>41.799999237061</ele>
        <time>2016-07-18T19:07:26.000Z</time>
      </trkpt>
      <trkpt lat="48.84379" lon="2.23789">
        <ele>42</ele>
        <time>2016-07-18T19:07:31.000Z</time>
      </trkpt>
      <trkpt lat="48.84397" lon="2.23781">
        <ele>42.400001525879</ele>
        <time>2016-07-18T19:07:35.000Z</time>
      </trkpt>
      <trkpt lat="48.84418" lon="2.23773">
        <ele>43.200000762939</ele>
        <time>2016-07-18T19:07:39.000Z</time>
      </trkpt>
      <trkpt lat="48.84439" lon="2.2377">
        <ele>44</ele>
        <time>2016-07-18T19:07:43.000Z</time>
      </trkpt>
      <trkpt lat="48.84457" lon="2.23761">
        <ele>43.599998474121</ele>
        <time>2016-07-18T19:07:47.000Z</time>
      </trkpt>
      <trkpt lat="48.84476" lon="2.2375">
        <ele>43.200000762939</ele>
        <time>2016-07-18T19:07:51.000Z</time>
      </trkpt>
      <trkpt lat="48.84484" lon="2.23742">
        <ele>42.799999237061</ele>
        <time>2016-07-18T19:07:53.000Z</time>
      </trkpt>
      <trkpt lat="48.84501" lon="2.23724">
        <ele>41.599998474121</ele>
        <time>2016-07-18T19:07:56.000Z</time>
      </trkpt>
      <trkpt lat="48.8452" lon="2.23716">
        <ele>42.200000762939</ele>
        <time>2016-07-18T19:08:00.000Z</time>
      </trkpt>
      <trkpt lat="48.84539" lon="2.23707">
        <ele>42.200000762939</ele>
        <time>2016-07-18T19:08:04.000Z</time>
      </trkpt>
      <trkpt lat="48.84557" lon="2.23697">
        <ele>42.200000762939</ele>
        <time>2016-07-18T19:08:08.000Z</time>
      </trkpt>
      <trkpt lat="48.84564" lon="2.23689">
        <ele>41.599998474121</ele>
        <time>2016-07-18T19:08:10.000Z</time>
      </trkpt>
      <trkpt lat="48.84586" lon="2.23694">
        <ele>40.599998474121</ele>
        <time>2016-07-18T19:08:15.000Z</time>
      </trkpt>
      <trkpt lat="48.84607" lon="2.23689">
        <ele>39.599998474121</ele>
        <time>2016-07-18T19:08:20.000Z</time>
      </trkpt>
      <trkpt lat="48.8462" lon="2.23685">
        <ele>39.400001525879</ele>
        <time>2016-07-18T19:08:23.000Z</time>
      </trkpt>
      <trkpt lat="48.84638" lon="2.23682">
        <ele>39</ele>
        <time>2016-07-18T19:08:27.000Z</time>
      </trkpt>
      <trkpt lat="48.84643" lon="2.23681">
        <ele>39</ele>
        <time>2016-07-18T19:08:28.000Z</time>
      </trkpt>
      <trkpt lat="48.84664" lon="2.2368">
        <ele>38.799999237061</ele>
        <time>2016-07-18T19:08:32.000Z</time>
      </trkpt>
      <trkpt lat="48.84683" lon="2.23679">
        <ele>38.400001525879</ele>
        <time>2016-07-18T19:08:36.000Z</time>
      </trkpt>
      <trkpt lat="48.84688" lon="2.23679">
        <ele>38.400001525879</ele>
        <time>2016-07-18T19:08:37.000Z</time>
      </trkpt>
      <trkpt lat="48.84708" lon="2.23686">
        <ele>38.200000762939</ele>
        <time>2016-07-18T19:08:41.000Z</time>
      </trkpt>
      <trkpt lat="48.84728" lon="2.23691">
        <ele>37.799999237061</ele>
        <time>2016-07-18T19:08:45.000Z</time>
      </trkpt>
      <trkpt lat="48.8475" lon="2.23699">
        <ele>37.799999237061</ele>
        <time>2016-07-18T19:08:49.000Z</time>
      </trkpt>
      <trkpt lat="48.84773" lon="2.23705">
        <ele>37.599998474121</ele>
        <time>2016-07-18T19:08:53.000Z</time>
      </trkpt>
      <trkpt lat="48.84795" lon="2.23712">
        <ele>36.799999237061</ele>
        <time>2016-07-18T19:08:57.000Z</time>
      </trkpt>
      <trkpt lat="48.84815" lon="2.23721">
        <ele>36.200000762939</ele>
        <time>2016-07-18T19:09:01.000Z</time>
      </trkpt>
      <trkpt lat="48.84835" lon="2.23725">
        <ele>35.599998474121</ele>
        <time>2016-07-18T19:09:05.000Z</time>
      </trkpt>
      <trkpt lat="48.84854" lon="2.23729">
        <ele>35.400001525879</ele>
        <time>2016-07-18T19:09:09.000Z</time>
      </trkpt>
      <trkpt lat="48.84874" lon="2.23735">
        <ele>35.200000762939</ele>
        <time>2016-07-18T19:09:13.000Z</time>
      </trkpt>
      <trkpt lat="48.84893" lon="2.23741">
        <ele>35.200000762939</ele>
        <time>2016-07-18T19:09:17.000Z</time>
      </trkpt>
      <trkpt lat="48.84914" lon="2.23746">
        <ele>35</ele>
        <time>2016-07-18T19:09:21.000Z</time>
      </trkpt>
      <trkpt lat="48.84934" lon="2.23751">
        <ele>35.200000762939</ele>
        <time>2016-07-18T19:09:25.000Z</time>
      </trkpt>
      <trkpt lat="48.84954" lon="2.23756">
        <ele>35.400001525879</ele>
        <time>2016-07-18T19:09:29.000Z</time>
      </trkpt>
      <trkpt lat="48.84972" lon="2.23762">
        <ele>35.799999237061</ele>
        <time>2016-07-18T19:09:33.000Z</time>
      </trkpt>
      <trkpt lat="48.84993" lon="2.23769">
        <ele>36.200000762939</ele>
        <time>2016-07-18T19:09:38.000Z</time>
      </trkpt>
      <trkpt lat="48.85014" lon="2.23776">
        <ele>36.799999237061</ele>
        <time>2016-07-18T19:09:43.000Z</time>
      </trkpt>
      <trkpt lat="48.85027" lon="2.23781">
        <ele>37</ele>
        <time>2016-07-18T19:09:46.000Z</time>
      </trkpt>
      <trkpt lat="48.85045" lon="2.2379">
        <ele>36.799999237061</ele>
        <time>2016-07-18T19:09:51.000Z</time>
      </trkpt>
      <trkpt lat="48.8506" lon="2.23794">
        <ele>36.599998474121</ele>
        <time>2016-07-18T19:09:57.000Z</time>
      </trkpt>
      <trkpt lat="48.8507" lon="2.23813">
        <ele>36.400001525879</ele>
        <time>2016-07-18T19:10:19.000Z</time>
      </trkpt>
      <trkpt lat="48.8507" lon="2.23819">
        <ele>36.400001525879</ele>
        <time>2016-07-18T19:10:24.000Z</time>
      </trkpt>
      <trkpt lat="48.85069" lon="2.23812">
        <ele>36.400001525879</ele>
        <time>2016-07-18T19:10:58.000Z</time>
      </trkpt>
      <trkpt lat="48.85085" lon="2.23821">
        <ele>36.200000762939</ele>
        <time>2016-07-18T19:11:16.000Z</time>
      </trkpt>
      <trkpt lat="48.85104" lon="2.23829">
        <ele>36</ele>
        <time>2016-07-18T19:11:26.000Z</time>
      </trkpt>
      <trkpt lat="48.85106" lon="2.2383">
        <ele>36</ele>
        <time>2016-07-18T19:11:29.000Z</time>
      </trkpt>
      <trkpt lat="48.85105" lon="2.23823">
        <ele>35.799999237061</ele>
        <time>2016-07-18T19:13:09.000Z</time>
      </trkpt>
      <trkpt lat="48.85114" lon="2.23834">
        <ele>36.599998474121</ele>
        <time>2016-07-18T19:14:08.000Z</time>
      </trkpt>
      <trkpt lat="48.85131" lon="2.2385">
        <ele>38.200000762939</ele>
        <time>2016-07-18T19:14:16.000Z</time>
      </trkpt>
      <trkpt lat="48.85147" lon="2.23865">
        <ele>39.599998474121</ele>
        <time>2016-07-18T19:14:22.000Z</time>
      </trkpt>
      <trkpt lat="48.85164" lon="2.23879">
        <ele>40.799999237061</ele>
        <time>2016-07-18T19:14:29.000Z</time>
      </trkpt>
      <trkpt lat="48.85182" lon="2.2389">
        <ele>42</ele>
        <time>2016-07-18T19:14:36.000Z</time>
      </trkpt>
      <trkpt lat="48.852" lon="2.23891">
        <ele>42.599998474121</ele>
        <time>2016-07-18T19:14:42.000Z</time>
      </trkpt>
      <trkpt lat="48.8522" lon="2.23884">
        <ele>42.799999237061</ele>
        <time>2016-07-18T19:14:48.000Z</time>
      </trkpt>
      <trkpt lat="48.85241" lon="2.23878">
        <ele>43</ele>
        <time>2016-07-18T19:14:54.000Z</time>
      </trkpt>
      <trkpt lat="48.85261" lon="2.23878">
        <ele>44.200000762939</ele>
        <time>2016-07-18T19:15:00.000Z</time>
      </trkpt>
      <trkpt lat="48.85278" lon="2.23885">
        <ele>45.400001525879</ele>
        <time>2016-07-18T19:15:07.000Z</time>
      </trkpt>
      <trkpt lat="48.85289" lon="2.23883">
        <ele>45</ele>
        <time>2016-07-18T19:15:26.000Z</time>
      </trkpt>
      <trkpt lat="48.85308" lon="2.23888">
        <ele>45.200000762939</ele>
        <time>2016-07-18T19:15:31.000Z</time>
      </trkpt>
      <trkpt lat="48.85328" lon="2.23896">
        <ele>45.400001525879</ele>
        <time>2016-07-18T19:15:36.000Z</time>
      </trkpt>
      <trkpt lat="48.85351" lon="2.23894">
        <ele>45.799999237061</ele>
        <time>2016-07-18T19:15:41.000Z</time>
      </trkpt>
      <trkpt lat="48.85372" lon="2.23891">
        <ele>46.200000762939</ele>
        <time>2016-07-18T19:15:46.000Z</time>
      </trkpt>
      <trkpt lat="48.85391" lon="2.23887">
        <ele>46.400001525879</ele>
        <time>2016-07-18T19:15:50.000Z</time>
      </trkpt>
      <trkpt lat="48.85413" lon="2.23885">
        <ele>46.599998474121</ele>
        <time>2016-07-18T19:15:54.000Z</time>
      </trkpt>
      <trkpt lat="48.85433" lon="2.2389">
        <ele>46.400001525879</ele>
        <time>2016-07-18T19:15:58.000Z</time>
      </trkpt>
      <trkpt lat="48.85453" lon="2.23896">
        <ele>46.200000762939</ele>
        <time>2016-07-18T19:16:02.000Z</time>
      </trkpt>
      <trkpt lat="48.85458" lon="2.23897">
        <ele>46.200000762939</ele>
        <time>2016-07-18T19:16:03.000Z</time>
      </trkpt>
      <trkpt lat="48.85479" lon="2.23895">
        <ele>45.799999237061</ele>
        <time>2016-07-18T19:16:07.000Z</time>
      </trkpt>
      <trkpt lat="48.85498" lon="2.23893">
        <ele>45.599998474121</ele>
        <time>2016-07-18T19:16:11.000Z</time>
      </trkpt>
      <trkpt lat="48.85518" lon="2.23893">
        <ele>45.599998474121</ele>
        <time>2016-07-18T19:16:15.000Z</time>
      </trkpt>
      <trkpt lat="48.85534" lon="2.23894">
        <ele>45.599998474121</ele>
        <time>2016-07-18T19:16:18.000Z</time>
      </trkpt>
      <trkpt lat="48.85555" lon="2.2388">
        <ele>45.599998474121</ele>
        <time>2016-07-18T19:16:22.000Z</time>
      </trkpt>
      <trkpt lat="48.85575" lon="2.23868">
        <ele>45</ele>
        <time>2016-07-18T19:16:25.000Z</time>
      </trkpt>
      <trkpt lat="48.85595" lon="2.23857">
        <ele>44</ele>
        <time>2016-07-18T19:16:28.000Z</time>
      </trkpt>
      <trkpt lat="48.85613" lon="2.23851">
        <ele>43.200000762939</ele>
        <time>2016-07-18T19:16:31.000Z</time>
      </trkpt>
      <trkpt lat="48.85637" lon="2.23849">
        <ele>42.599998474121</ele>
        <time>2016-07-18T19:16:35.000Z</time>
      </trkpt>
      <trkpt lat="48.85657" lon="2.23852">
        <ele>42.400001525879</ele>
        <time>2016-07-18T19:16:38.000Z</time>
      </trkpt>
      <trkpt lat="48.85679" lon="2.23849">
        <ele>42.200000762939</ele>
        <time>2016-07-18T19:16:42.000Z</time>
      </trkpt>
      <trkpt lat="48.85693" lon="2.23846">
        <ele>41.799999237061</ele>
        <time>2016-07-18T19:16:45.000Z</time>
      </trkpt>
      <trkpt lat="48.85714" lon="2.23839">
        <ele>41.400001525879</ele>
        <time>2016-07-18T19:16:49.000Z</time>
      </trkpt>
      <trkpt lat="48.85737" lon="2.23828">
        <ele>41</ele>
        <time>2016-07-18T19:16:53.000Z</time>
      </trkpt>
      <trkpt lat="48.85755" lon="2.23814">
        <ele>40.599998474121</ele>
        <time>2016-07-18T19:16:56.000Z</time>
      </trkpt>
      <trkpt lat="48.85771" lon="2.23798">
        <ele>39.599998474121</ele>
        <time>2016-07-18T19:16:59.000Z</time>
      </trkpt>
      <trkpt lat="48.85788" lon="2.23781">
        <ele>39</ele>
        <time>2016-07-18T19:17:02.000Z</time>
      </trkpt>
      <trkpt lat="48.85804" lon="2.23763">
        <ele>38.200000762939</ele>
        <time>2016-07-18T19:17:05.000Z</time>
      </trkpt>
      <trkpt lat="48.85823" lon="2.23747">
        <ele>37.200000762939</ele>
        <time>2016-07-18T19:17:08.000Z</time>
      </trkpt>
      <trkpt lat="48.85842" lon="2.23734">
        <ele>36.400001525879</ele>
        <time>2016-07-18T19:17:11.000Z</time>
      </trkpt>
      <trkpt lat="48.85861" lon="2.23723">
        <ele>35.400001525879</ele>
        <time>2016-07-18T19:17:14.000Z</time>
      </trkpt>
      <trkpt lat="48.8588" lon="2.23718">
        <ele>35.400001525879</ele>
        <time>2016-07-18T19:17:17.000Z</time>
      </trkpt>
      <trkpt lat="48.85899" lon="2.23717">
        <ele>35.400001525879</ele>
        <time>2016-07-18T19:17:20.000Z</time>
      </trkpt>
      <trkpt lat="48.85917" lon="2.23716">
        <ele>35.400001525879</ele>
        <time>2016-07-18T19:17:23.000Z</time>
      </trkpt>
      <trkpt lat="48.8594" lon="2.23716">
        <ele>35.599998474121</ele>
        <time>2016-07-18T19:17:27.000Z</time>
      </trkpt>
      <trkpt lat="48.85961" lon="2.23719">
        <ele>35.799999237061</ele>
        <time>2016-07-18T19:17:31.000Z</time>
      </trkpt>
      <trkpt lat="48.85982" lon="2.23723">
        <ele>36.200000762939</ele>
        <time>2016-07-18T19:17:35.000Z</time>
      </trkpt>
      <trkpt lat="48.86005" lon="2.23729">
        <ele>36.599998474121</ele>
        <time>2016-07-18T19:17:39.000Z</time>
      </trkpt>
      <trkpt lat="48.86026" lon="2.23735">
        <ele>37</ele>
        <time>2016-07-18T19:17:43.000Z</time>
      </trkpt>
      <trkpt lat="48.86048" lon="2.23741">
        <ele>36.799999237061</ele>
        <time>2016-07-18T19:17:47.000Z</time>
      </trkpt>
      <trkpt lat="48.86067" lon="2.2375">
        <ele>36.599998474121</ele>
        <time>2016-07-18T19:17:51.000Z</time>
      </trkpt>
      <trkpt lat="48.86083" lon="2.23763">
        <ele>36.599998474121</ele>
        <time>2016-07-18T19:17:55.000Z</time>
      </trkpt>
      <trkpt lat="48.86092" lon="2.23774">
        <ele>36.799999237061</ele>
        <time>2016-07-18T19:17:59.000Z</time>
      </trkpt>
      <trkpt lat="48.86093" lon="2.23766">
        <ele>36.400001525879</ele>
        <time>2016-07-18T19:18:35.000Z</time>
      </trkpt>
      <trkpt lat="48.86077" lon="2.23754">
        <ele>36.400001525879</ele>
        <time>2016-07-18T19:18:40.000Z</time>
      </trkpt>
      <trkpt lat="48.86058" lon="2.23742">
        <ele>36.400001525879</ele>
        <time>2016-07-18T19:18:45.000Z</time>
      </trkpt>
      <trkpt lat="48.86037" lon="2.23735">
        <ele>36.599998474121</ele>
        <time>2016-07-18T19:18:49.000Z</time>
      </trkpt>
      <trkpt lat="48.86013" lon="2.2373">
        <ele>36.599998474121</ele>
        <time>2016-07-18T19:18:53.000Z</time>
      </trkpt>
      <trkpt lat="48.8599" lon="2.23726">
        <ele>36.400001525879</ele>
        <time>2016-07-18T19:18:57.000Z</time>
      </trkpt>
      <trkpt lat="48.85968" lon="2.23721">
        <ele>36</ele>
        <time>2016-07-18T19:19:01.000Z</time>
      </trkpt>
      <trkpt lat="48.85946" lon="2.23719">
        <ele>35.799999237061</ele>
        <time>2016-07-18T19:19:05.000Z</time>
      </trkpt>
      <trkpt lat="48.85922" lon="2.23719">
        <ele>35.799999237061</ele>
        <time>2016-07-18T19:19:09.000Z</time>
      </trkpt>
      <trkpt lat="48.85903" lon="2.23721">
        <ele>35.799999237061</ele>
        <time>2016-07-18T19:19:12.000Z</time>
      </trkpt>
      <trkpt lat="48.85886" lon="2.23722">
        <ele>35.599998474121</ele>
        <time>2016-07-18T19:19:15.000Z</time>
      </trkpt>
      <trkpt lat="48.85871" lon="2.23736">
        <ele>36.599998474121</ele>
        <time>2016-07-18T19:19:19.000Z</time>
      </trkpt>
      <trkpt lat="48.85866" lon="2.23748">
        <ele>37.200000762939</ele>
        <time>2016-07-18T19:19:21.000Z</time>
      </trkpt>
      <trkpt lat="48.85854" lon="2.23772">
        <ele>39</ele>
        <time>2016-07-18T19:19:26.000Z</time>
      </trkpt>
      <trkpt lat="48.85848" lon="2.23788">
        <ele>40</ele>
        <time>2016-07-18T19:19:29.000Z</time>
      </trkpt>
      <trkpt lat="48.85835" lon="2.23808">
        <ele>41.599998474121</ele>
        <time>2016-07-18T19:19:33.000Z</time>
      </trkpt>
      <trkpt lat="48.85821" lon="2.23827">
        <ele>42</ele>
        <time>2016-07-18T19:19:37.000Z</time>
      </trkpt>
      <trkpt lat="48.85805" lon="2.23851">
        <ele>42.599998474121</ele>
        <time>2016-07-18T19:19:42.000Z</time>
      </trkpt>
      <trkpt lat="48.85802" lon="2.23855">
        <ele>42.599998474121</ele>
        <time>2016-07-18T19:19:43.000Z</time>
      </trkpt>
      <trkpt lat="48.85787" lon="2.23872">
        <ele>42.799999237061</ele>
        <time>2016-07-18T19:19:47.000Z</time>
      </trkpt>
      <trkpt lat="48.85783" lon="2.23879">
        <ele>43</ele>
        <time>2016-07-18T19:19:48.000Z</time>
      </trkpt>
      <trkpt lat="48.85769" lon="2.23899">
        <ele>43.599998474121</ele>
        <time>2016-07-18T19:19:52.000Z</time>
      </trkpt>
      <trkpt lat="48.85753" lon="2.23922">
        <ele>44.200000762939</ele>
        <time>2016-07-18T19:19:57.000Z</time>
      </trkpt>
      <trkpt lat="48.85736" lon="2.23944">
        <ele>44.400001525879</ele>
        <time>2016-07-18T19:20:02.000Z</time>
      </trkpt>
      <trkpt lat="48.8572" lon="2.23967">
        <ele>44.400001525879</ele>
        <time>2016-07-18T19:20:07.000Z</time>
      </trkpt>
      <trkpt lat="48.85714" lon="2.23973">
        <ele>44.200000762939</ele>
        <time>2016-07-18T19:20:09.000Z</time>
      </trkpt>
      <trkpt lat="48.85699" lon="2.23994">
        <ele>44</ele>
        <time>2016-07-18T19:20:15.000Z</time>
      </trkpt>
      <trkpt lat="48.85684" lon="2.24015">
        <ele>44.599998474121</ele>
        <time>2016-07-18T19:20:20.000Z</time>
      </trkpt>
      <trkpt lat="48.85681" lon="2.24016">
        <ele>44.799999237061</ele>
        <time>2016-07-18T19:20:21.000Z</time>
      </trkpt>
      <trkpt lat="48.85666" lon="2.24039">
        <ele>45.799999237061</ele>
        <time>2016-07-18T19:20:27.000Z</time>
      </trkpt>
      <trkpt lat="48.85653" lon="2.2406">
        <ele>46.200000762939</ele>
        <time>2016-07-18T19:20:32.000Z</time>
      </trkpt>
      <trkpt lat="48.8564" lon="2.24086">
        <ele>46</ele>
        <time>2016-07-18T19:20:37.000Z</time>
      </trkpt>
      <trkpt lat="48.85632" lon="2.24101">
        <ele>46.200000762939</ele>
        <time>2016-07-18T19:20:40.000Z</time>
      </trkpt>
      <trkpt lat="48.85621" lon="2.24123">
        <ele>46.599998474121</ele>
        <time>2016-07-18T19:20:45.000Z</time>
      </trkpt>
      <trkpt lat="48.85607" lon="2.24143">
        <ele>46.799999237061</ele>
        <time>2016-07-18T19:20:50.000Z</time>
      </trkpt>
      <trkpt lat="48.85592" lon="2.24163">
        <ele>46.799999237061</ele>
        <time>2016-07-18T19:20:55.000Z</time>
      </trkpt>
      <trkpt lat="48.85573" lon="2.24183">
        <ele>46.799999237061</ele>
        <time>2016-07-18T19:21:00.000Z</time>
      </trkpt>
      <trkpt lat="48.85562" lon="2.24191">
        <ele>46.799999237061</ele>
        <time>2016-07-18T19:21:03.000Z</time>
      </trkpt>
      <trkpt lat="48.85555" lon="2.24195">
        <ele>46.799999237061</ele>
        <time>2016-07-18T19:21:05.000Z</time>
      </trkpt>
      <trkpt lat="48.85536" lon="2.24209">
        <ele>47.200000762939</ele>
        <time>2016-07-18T19:21:11.000Z</time>
      </trkpt>
      <trkpt lat="48.85518" lon="2.24222">
        <ele>47.599998474121</ele>
        <time>2016-07-18T19:21:17.000Z</time>
      </trkpt>
      <trkpt lat="48.85507" lon="2.2423">
        <ele>48.200000762939</ele>
        <time>2016-07-18T19:21:22.000Z</time>
      </trkpt>
      <trkpt lat="48.85498" lon="2.24232">
        <ele>48.400001525879</ele>
        <time>2016-07-18T19:21:28.000Z</time>
      </trkpt>
      <trkpt lat="48.85494" lon="2.24234">
        <ele>48.599998474121</ele>
        <time>2016-07-18T19:21:33.000Z</time>
      </trkpt>
      <trkpt lat="48.85492" lon="2.24225">
        <ele>48.400001525879</ele>
        <time>2016-07-18T19:22:56.000Z</time>
      </trkpt>
      <trkpt lat="48.85494" lon="2.2423">
        <ele>48.400001525879</ele>
        <time>2016-07-18T19:23:06.000Z</time>
      </trkpt>
      <trkpt lat="48.85485" lon="2.24239">
        <ele>48.799999237061</ele>
        <time>2016-07-18T19:24:15.000Z</time>
      </trkpt>
      <trkpt lat="48.85468" lon="2.24252">
        <ele>49.400001525879</ele>
        <time>2016-07-18T19:24:25.000Z</time>
      </trkpt>
      <trkpt lat="48.85451" lon="2.24269">
        <ele>49.799999237061</ele>
        <time>2016-07-18T19:24:31.000Z</time>
      </trkpt>
      <trkpt lat="48.85436" lon="2.24285">
        <ele>50.400001525879</ele>
        <time>2016-07-18T19:24:36.000Z</time>
      </trkpt>
      <trkpt lat="48.85421" lon="2.24303">
        <ele>50.599998474121</ele>
        <time>2016-07-18T19:24:41.000Z</time>
      </trkpt>
      <trkpt lat="48.85404" lon="2.24324">
        <ele>50.599998474121</ele>
        <time>2016-07-18T19:24:46.000Z</time>
      </trkpt>
      <trkpt lat="48.8539" lon="2.24342">
        <ele>50.200000762939</ele>
        <time>2016-07-18T19:24:51.000Z</time>
      </trkpt>
      <trkpt lat="48.85375" lon="2.24364">
        <ele>50.200000762939</ele>
        <time>2016-07-18T19:24:56.000Z</time>
      </trkpt>
      <trkpt lat="48.85359" lon="2.24388">
        <ele>50.599998474121</ele>
        <time>2016-07-18T19:25:01.000Z</time>
      </trkpt>
      <trkpt lat="48.85346" lon="2.24409">
        <ele>50.799999237061</ele>
        <time>2016-07-18T19:25:05.000Z</time>
      </trkpt>
      <trkpt lat="48.85334" lon="2.24434">
        <ele>51.200000762939</ele>
        <time>2016-07-18T19:25:09.000Z</time>
      </trkpt>
      <trkpt lat="48.85322" lon="2.2446">
        <ele>51.599998474121</ele>
        <time>2016-07-18T19:25:13.000Z</time>
      </trkpt>
      <trkpt lat="48.85312" lon="2.24486">
        <ele>51.799999237061</ele>
        <time>2016-07-18T19:25:17.000Z</time>
      </trkpt>
      <trkpt lat="48.85302" lon="2.2451">
        <ele>51.799999237061</ele>
        <time>2016-07-18T19:25:20.000Z</time>
      </trkpt>
      <trkpt lat="48.85293" lon="2.24537">
        <ele>51.799999237061</ele>
        <time>2016-07-18T19:25:24.000Z</time>
      </trkpt>
      <trkpt lat="48.85288" lon="2.24549">
        <ele>51.799999237061</ele>
        <time>2016-07-18T19:25:26.000Z</time>
      </trkpt>
      <trkpt lat="48.8528" lon="2.24581">
        <ele>52</ele>
        <time>2016-07-18T19:25:30.000Z</time>
      </trkpt>
      <trkpt lat="48.85275" lon="2.24613">
        <ele>52</ele>
        <time>2016-07-18T19:25:34.000Z</time>
      </trkpt>
      <trkpt lat="48.85272" lon="2.24647">
        <ele>52</ele>
        <time>2016-07-18T19:25:38.000Z</time>
      </trkpt>
      <trkpt lat="48.85271" lon="2.2468">
        <ele>52.200000762939</ele>
        <time>2016-07-18T19:25:42.000Z</time>
      </trkpt>
      <trkpt lat="48.85273" lon="2.24709">
        <ele>52.599998474121</ele>
        <time>2016-07-18T19:25:46.000Z</time>
      </trkpt>
      <trkpt lat="48.85276" lon="2.24736">
        <ele>53</ele>
        <time>2016-07-18T19:25:51.000Z</time>
      </trkpt>
      <trkpt lat="48.85283" lon="2.24764">
        <ele>53.200000762939</ele>
        <time>2016-07-18T19:25:57.000Z</time>
      </trkpt>
      <trkpt lat="48.85288" lon="2.24781">
        <ele>53.400001525879</ele>
        <time>2016-07-18T19:26:02.000Z</time>
      </trkpt>
      <trkpt lat="48.85292" lon="2.24788">
        <ele>53.400001525879</ele>
        <time>2016-07-18T19:26:05.000Z</time>
      </trkpt>
      <trkpt lat="48.85304" lon="2.2481">
        <ele>53.799999237061</ele>
        <time>2016-07-18T19:26:11.000Z</time>
      </trkpt>
      <trkpt lat="48.85306" lon="2.24813">
        <ele>53.799999237061</ele>
        <time>2016-07-18T19:26:12.000Z</time>
      </trkpt>
      <trkpt lat="48.85311" lon="2.2482">
        <ele>54</ele>
        <time>2016-07-18T19:26:14.000Z</time>
      </trkpt>
      <trkpt lat="48.85324" lon="2.24841">
        <ele>54</ele>
        <time>2016-07-18T19:26:19.000Z</time>
      </trkpt>
      <trkpt lat="48.85337" lon="2.24864">
        <ele>54.200000762939</ele>
        <time>2016-07-18T19:26:24.000Z</time>
      </trkpt>
      <trkpt lat="48.85351" lon="2.24888">
        <ele>54.200000762939</ele>
        <time>2016-07-18T19:26:29.000Z</time>
      </trkpt>
      <trkpt lat="48.85365" lon="2.24912">
        <ele>54</ele>
        <time>2016-07-18T19:26:34.000Z</time>
      </trkpt>
      <trkpt lat="48.85376" lon="2.24933">
        <ele>53.799999237061</ele>
        <time>2016-07-18T19:26:38.000Z</time>
      </trkpt>
      <trkpt lat="48.85391" lon="2.24951">
        <ele>53.599998474121</ele>
        <time>2016-07-18T19:26:42.000Z</time>
      </trkpt>
      <trkpt lat="48.85405" lon="2.24971">
        <ele>53.400001525879</ele>
        <time>2016-07-18T19:26:46.000Z</time>
      </trkpt>
      <trkpt lat="48.8542" lon="2.24991">
        <ele>53.200000762939</ele>
        <time>2016-07-18T19:26:50.000Z</time>
      </trkpt>
      <trkpt lat="48.85434" lon="2.25011">
        <ele>53.200000762939</ele>
        <time>2016-07-18T19:26:54.000Z</time>
      </trkpt>
      <trkpt lat="48.85441" lon="2.25021">
        <ele>53.200000762939</ele>
        <time>2016-07-18T19:26:56.000Z</time>
      </trkpt>
      <trkpt lat="48.85452" lon="2.25042">
        <ele>53.200000762939</ele>
        <time>2016-07-18T19:27:00.000Z</time>
      </trkpt>
      <trkpt lat="48.85463" lon="2.25064">
        <ele>53</ele>
        <time>2016-07-18T19:27:04.000Z</time>
      </trkpt>
      <trkpt lat="48.85481" lon="2.25088">
        <ele>52.799999237061</ele>
        <time>2016-07-18T19:27:08.000Z</time>
      </trkpt>
      <trkpt lat="48.8549" lon="2.25099">
        <ele>52.599998474121</ele>
        <time>2016-07-18T19:27:10.000Z</time>
      </trkpt>
      <trkpt lat="48.85509" lon="2.2512">
        <ele>52.400001525879</ele>
        <time>2016-07-18T19:27:14.000Z</time>
      </trkpt>
      <trkpt lat="48.85525" lon="2.25137">
        <ele>52.400001525879</ele>
        <time>2016-07-18T19:27:17.000Z</time>
      </trkpt>
      <trkpt lat="48.85542" lon="2.25158">
        <ele>52.200000762939</ele>
        <time>2016-07-18T19:27:21.000Z</time>
      </trkpt>
      <trkpt lat="48.85557" lon="2.25176">
        <ele>52.200000762939</ele>
        <time>2016-07-18T19:27:24.000Z</time>
      </trkpt>
      <trkpt lat="48.85573" lon="2.25193">
        <ele>52.200000762939</ele>
        <time>2016-07-18T19:27:27.000Z</time>
      </trkpt>
      <trkpt lat="48.85589" lon="2.25208">
        <ele>52.200000762939</ele>
        <time>2016-07-18T19:27:30.000Z</time>
      </trkpt>
      <trkpt lat="48.85598" lon="2.2522">
        <ele>52.400001525879</ele>
        <time>2016-07-18T19:27:32.000Z</time>
      </trkpt>
      <trkpt lat="48.85616" lon="2.25235">
        <ele>52.599998474121</ele>
        <time>2016-07-18T19:27:35.000Z</time>
      </trkpt>
      <trkpt lat="48.85633" lon="2.25248">
        <ele>52.799999237061</ele>
        <time>2016-07-18T19:27:38.000Z</time>
      </trkpt>
      <trkpt lat="48.85652" lon="2.25268">
        <ele>52</ele>
        <time>2016-07-18T19:27:42.000Z</time>
      </trkpt>
      <trkpt lat="48.85671" lon="2.25287">
        <ele>51</ele>
        <time>2016-07-18T19:27:46.000Z</time>
      </trkpt>
      <trkpt lat="48.85682" lon="2.25299">
        <ele>50.400001525879</ele>
        <time>2016-07-18T19:27:49.000Z</time>
      </trkpt>
      <trkpt lat="48.85695" lon="2.25315">
        <ele>50</ele>
        <time>2016-07-18T19:27:53.000Z</time>
      </trkpt>
      <trkpt lat="48.85702" lon="2.25326">
        <ele>49.799999237061</ele>
        <time>2016-07-18T19:27:55.000Z</time>
      </trkpt>
      <trkpt lat="48.85716" lon="2.25348">
        <ele>49.799999237061</ele>
        <time>2016-07-18T19:27:59.000Z</time>
      </trkpt>
      <trkpt lat="48.85728" lon="2.25369">
        <ele>50</ele>
        <time>2016-07-18T19:28:03.000Z</time>
      </trkpt>
      <trkpt lat="48.85739" lon="2.25392">
        <ele>50.599998474121</ele>
        <time>2016-07-18T19:28:07.000Z</time>
      </trkpt>
      <trkpt lat="48.85751" lon="2.25421">
        <ele>50.799999237061</ele>
        <time>2016-07-18T19:28:12.000Z</time>
      </trkpt>
      <trkpt lat="48.85759" lon="2.2544">
        <ele>50.400001525879</ele>
        <time>2016-07-18T19:28:15.000Z</time>
      </trkpt>
      <trkpt lat="48.85773" lon="2.25467">
        <ele>49.799999237061</ele>
        <time>2016-07-18T19:28:20.000Z</time>
      </trkpt>
      <trkpt lat="48.85785" lon="2.25494">
        <ele>49.400001525879</ele>
        <time>2016-07-18T19:28:25.000Z</time>
      </trkpt>
      <trkpt lat="48.85792" lon="2.25511">
        <ele>49.599998474121</ele>
        <time>2016-07-18T19:28:28.000Z</time>
      </trkpt>
      <trkpt lat="48.85799" lon="2.25539">
        <ele>49.599998474121</ele>
        <time>2016-07-18T19:28:33.000Z</time>
      </trkpt>
      <trkpt lat="48.858" lon="2.25543">
        <ele>49.599998474121</ele>
        <time>2016-07-18T19:28:34.000Z</time>
      </trkpt>
      <trkpt lat="48.85809" lon="2.25567">
        <ele>49.400001525879</ele>
        <time>2016-07-18T19:28:39.000Z</time>
      </trkpt>
      <trkpt lat="48.85815" lon="2.25587">
        <ele>49.599998474121</ele>
        <time>2016-07-18T19:28:44.000Z</time>
      </trkpt>
      <trkpt lat="48.85816" lon="2.25592">
        <ele>49.599998474121</ele>
        <time>2016-07-18T19:28:46.000Z</time>
      </trkpt>
      <trkpt lat="48.85824" lon="2.25603">
        <ele>50</ele>
        <time>2016-07-18T19:29:54.000Z</time>
      </trkpt>
      <trkpt lat="48.85829" lon="2.25629">
        <ele>50.400001525879</ele>
        <time>2016-07-18T19:30:01.000Z</time>
      </trkpt>
      <trkpt lat="48.85834" lon="2.25659">
        <ele>50.200000762939</ele>
        <time>2016-07-18T19:30:08.000Z</time>
      </trkpt>
      <trkpt lat="48.85837" lon="2.2567">
        <ele>50.599998474121</ele>
        <time>2016-07-18T19:30:12.000Z</time>
      </trkpt>
      <trkpt lat="48.85852" lon="2.25682">
        <ele>52.400001525879</ele>
        <time>2016-07-18T19:30:19.000Z</time>
      </trkpt>
      <trkpt lat="48.85858" lon="2.25708">
        <ele>53.599998474121</ele>
        <time>2016-07-18T19:30:25.000Z</time>
      </trkpt>
      <trkpt lat="48.85867" lon="2.25732">
        <ele>54.200000762939</ele>
        <time>2016-07-18T19:30:32.000Z</time>
      </trkpt>
      <trkpt lat="48.85878" lon="2.25752">
        <ele>54.200000762939</ele>
        <time>2016-07-18T19:30:38.000Z</time>
      </trkpt>
      <trkpt lat="48.85896" lon="2.25758">
        <ele>53.599998474121</ele>
        <time>2016-07-18T19:30:43.000Z</time>
      </trkpt>
      <trkpt lat="48.85917" lon="2.25764">
        <ele>52.799999237061</ele>
        <time>2016-07-18T19:30:48.000Z</time>
      </trkpt>
      <trkpt lat="48.85939" lon="2.25769">
        <ele>52</ele>
        <time>2016-07-18T19:30:53.000Z</time>
      </trkpt>
      <trkpt lat="48.85959" lon="2.25771">
        <ele>51.799999237061</ele>
        <time>2016-07-18T19:30:57.000Z</time>
      </trkpt>
      <trkpt lat="48.85977" lon="2.2577">
        <ele>51.599998474121</ele>
        <time>2016-07-18T19:31:01.000Z</time>
      </trkpt>
      <trkpt lat="48.85998" lon="2.25769">
        <ele>51.200000762939</ele>
        <time>2016-07-18T19:31:05.000Z</time>
      </trkpt>
      <trkpt lat="48.8602" lon="2.25773">
        <ele>51</ele>
        <time>2016-07-18T19:31:09.000Z</time>
      </trkpt>
      <trkpt lat="48.86042" lon="2.2578">
        <ele>51</ele>
        <time>2016-07-18T19:31:13.000Z</time>
      </trkpt>
      <trkpt lat="48.86061" lon="2.25784">
        <ele>51</ele>
        <time>2016-07-18T19:31:16.000Z</time>
      </trkpt>
      <trkpt lat="48.8608" lon="2.25789">
        <ele>51.200000762939</ele>
        <time>2016-07-18T19:31:19.000Z</time>
      </trkpt>
      <trkpt lat="48.86102" lon="2.25793">
        <ele>51.400001525879</ele>
        <time>2016-07-18T19:31:22.000Z</time>
      </trkpt>
      <trkpt lat="48.86122" lon="2.25796">
        <ele>50.599998474121</ele>
        <time>2016-07-18T19:31:25.000Z</time>
      </trkpt>
      <trkpt lat="48.86143" lon="2.25798">
        <ele>49.599998474121</ele>
        <time>2016-07-18T19:31:28.000Z</time>
      </trkpt>
      <trkpt lat="48.86163" lon="2.25798">
        <ele>48.599998474121</ele>
        <time>2016-07-18T19:31:31.000Z</time>
      </trkpt>
      <trkpt lat="48.86176" lon="2.25799">
        <ele>48.200000762939</ele>
        <time>2016-07-18T19:31:33.000Z</time>
      </trkpt>
      <trkpt lat="48.86194" lon="2.25805">
        <ele>47.599998474121</ele>
        <time>2016-07-18T19:31:36.000Z</time>
      </trkpt>
      <trkpt lat="48.86212" lon="2.25808">
        <ele>47.599998474121</ele>
        <time>2016-07-18T19:31:39.000Z</time>
      </trkpt>
      <trkpt lat="48.86218" lon="2.25808">
        <ele>47.599998474121</ele>
        <time>2016-07-18T19:31:40.000Z</time>
      </trkpt>
      <trkpt lat="48.86239" lon="2.25805">
        <ele>47.599998474121</ele>
        <time>2016-07-18T19:31:44.000Z</time>
      </trkpt>
      <trkpt lat="48.86252" lon="2.25811">
        <ele>47.400001525879</ele>
        <time>2016-07-18T19:31:48.000Z</time>
      </trkpt>
      <trkpt lat="48.86261" lon="2.25811">
        <ele>47.599998474121</ele>
        <time>2016-07-18T19:31:53.000Z</time>
      </trkpt>
      <trkpt lat="48.86275" lon="2.258">
        <ele>48</ele>
        <time>2016-07-18T19:32:29.000Z</time>
      </trkpt>
      <trkpt lat="48.86293" lon="2.25803">
        <ele>48.200000762939</ele>
        <time>2016-07-18T19:32:36.000Z</time>
      </trkpt>
      <trkpt lat="48.86314" lon="2.25802">
        <ele>48.400001525879</ele>
        <time>2016-07-18T19:32:41.000Z</time>
      </trkpt>
      <trkpt lat="48.86337" lon="2.25806">
        <ele>48.400001525879</ele>
        <time>2016-07-18T19:32:45.000Z</time>
      </trkpt>
      <trkpt lat="48.86356" lon="2.25811">
        <ele>47.599998474121</ele>
        <time>2016-07-18T19:32:48.000Z</time>
      </trkpt>
      <trkpt lat="48.86374" lon="2.25819">
        <ele>47.400001525879</ele>
        <time>2016-07-18T19:32:51.000Z</time>
      </trkpt>
      <trkpt lat="48.86392" lon="2.25828">
        <ele>47.200000762939</ele>
        <time>2016-07-18T19:32:54.000Z</time>
      </trkpt>
      <trkpt lat="48.8641" lon="2.2584">
        <ele>46.799999237061</ele>
        <time>2016-07-18T19:32:57.000Z</time>
      </trkpt>
      <trkpt lat="48.86428" lon="2.25854">
        <ele>46.599998474121</ele>
        <time>2016-07-18T19:33:00.000Z</time>
      </trkpt>
      <trkpt lat="48.86446" lon="2.25868">
        <ele>46.400001525879</ele>
        <time>2016-07-18T19:33:03.000Z</time>
      </trkpt>
      <trkpt lat="48.86463" lon="2.25883">
        <ele>46.400001525879</ele>
        <time>2016-07-18T19:33:06.000Z</time>
      </trkpt>
      <trkpt lat="48.86473" lon="2.25892">
        <ele>46.400001525879</ele>
        <time>2016-07-18T19:33:08.000Z</time>
      </trkpt>
      <trkpt lat="48.86482" lon="2.25905">
        <ele>46.400001525879</ele>
        <time>2016-07-18T19:33:10.000Z</time>
      </trkpt>
      <trkpt lat="48.86499" lon="2.25929">
        <ele>46.400001525879</ele>
        <time>2016-07-18T19:33:14.000Z</time>
      </trkpt>
      <trkpt lat="48.86516" lon="2.25951">
        <ele>46.599998474121</ele>
        <time>2016-07-18T19:33:18.000Z</time>
      </trkpt>
      <trkpt lat="48.86533" lon="2.25974">
        <ele>46.599998474121</ele>
        <time>2016-07-18T19:33:22.000Z</time>
      </trkpt>
      <trkpt lat="48.86543" lon="2.2599">
        <ele>46.400001525879</ele>
        <time>2016-07-18T19:33:25.000Z</time>
      </trkpt>
      <trkpt lat="48.86557" lon="2.26011">
        <ele>47</ele>
        <time>2016-07-18T19:33:29.000Z</time>
      </trkpt>
      <trkpt lat="48.86573" lon="2.26034">
        <ele>47.599998474121</ele>
        <time>2016-07-18T19:33:34.000Z</time>
      </trkpt>
      <trkpt lat="48.86583" lon="2.26051">
        <ele>48.200000762939</ele>
        <time>2016-07-18T19:33:38.000Z</time>
      </trkpt>
      <trkpt lat="48.86596" lon="2.26067">
        <ele>48.599998474121</ele>
        <time>2016-07-18T19:33:43.000Z</time>
      </trkpt>
      <trkpt lat="48.86601" lon="2.26076">
        <ele>49</ele>
        <time>2016-07-18T19:33:46.000Z</time>
      </trkpt>
      <trkpt lat="48.86611" lon="2.26087">
        <ele>49.400001525879</ele>
        <time>2016-07-18T19:33:50.000Z</time>
      </trkpt>
      <trkpt lat="48.86625" lon="2.26106">
        <ele>50.200000762939</ele>
        <time>2016-07-18T19:33:55.000Z</time>
      </trkpt>
      <trkpt lat="48.86638" lon="2.26127">
        <ele>51</ele>
        <time>2016-07-18T19:34:00.000Z</time>
      </trkpt>
      <trkpt lat="48.86654" lon="2.26144">
        <ele>51.799999237061</ele>
        <time>2016-07-18T19:34:05.000Z</time>
      </trkpt>
      <trkpt lat="48.8667" lon="2.26161">
        <ele>52.400001525879</ele>
        <time>2016-07-18T19:34:10.000Z</time>
      </trkpt>
      <trkpt lat="48.86678" lon="2.26169">
        <ele>52.200000762939</ele>
        <time>2016-07-18T19:34:13.000Z</time>
      </trkpt>
      <trkpt lat="48.86694" lon="2.26184">
        <ele>51.799999237061</ele>
        <time>2016-07-18T19:34:18.000Z</time>
      </trkpt>
      <trkpt lat="48.8671" lon="2.26196">
        <ele>51</ele>
        <time>2016-07-18T19:34:22.000Z</time>
      </trkpt>
      <trkpt lat="48.8673" lon="2.26207">
        <ele>50</ele>
        <time>2016-07-18T19:34:26.000Z</time>
      </trkpt>
      <trkpt lat="48.8675" lon="2.26218">
        <ele>49</ele>
        <time>2016-07-18T19:34:31.000Z</time>
      </trkpt>
      <trkpt lat="48.86769" lon="2.26234">
        <ele>48</ele>
        <time>2016-07-18T19:34:36.000Z</time>
      </trkpt>
      <trkpt lat="48.86786" lon="2.2625">
        <ele>48.599998474121</ele>
        <time>2016-07-18T19:34:40.000Z</time>
      </trkpt>
      <trkpt lat="48.86794" lon="2.26259">
        <ele>49.200000762939</ele>
        <time>2016-07-18T19:34:42.000Z</time>
      </trkpt>
      <trkpt lat="48.86808" lon="2.2628">
        <ele>50.400001525879</ele>
        <time>2016-07-18T19:34:46.000Z</time>
      </trkpt>
      <trkpt lat="48.86821" lon="2.26307">
        <ele>51.400001525879</ele>
        <time>2016-07-18T19:34:51.000Z</time>
      </trkpt>
      <trkpt lat="48.86829" lon="2.26323">
        <ele>51.799999237061</ele>
        <time>2016-07-18T19:34:54.000Z</time>
      </trkpt>
      <trkpt lat="48.86837" lon="2.26353">
        <ele>51.599998474121</ele>
        <time>2016-07-18T19:34:59.000Z</time>
      </trkpt>
      <trkpt lat="48.86839" lon="2.26366">
        <ele>51.200000762939</ele>
        <time>2016-07-18T19:35:01.000Z</time>
      </trkpt>
      <trkpt lat="48.86842" lon="2.26393">
        <ele>50.599998474121</ele>
        <time>2016-07-18T19:35:05.000Z</time>
      </trkpt>
      <trkpt lat="48.86846" lon="2.2642">
        <ele>50.400001525879</ele>
        <time>2016-07-18T19:35:09.000Z</time>
      </trkpt>
      <trkpt lat="48.86849" lon="2.26453">
        <ele>48</ele>
        <time>2016-07-18T19:35:14.000Z</time>
      </trkpt>
      <trkpt lat="48.86848" lon="2.26483">
        <ele>45.799999237061</ele>
        <time>2016-07-18T19:35:19.000Z</time>
      </trkpt>
      <trkpt lat="48.86842" lon="2.2651">
        <ele>45.599998474121</ele>
        <time>2016-07-18T19:35:24.000Z</time>
      </trkpt>
      <trkpt lat="48.86841" lon="2.26518">
        <ele>45.799999237061</ele>
        <time>2016-07-18T19:35:26.000Z</time>
      </trkpt>
      <trkpt lat="48.86839" lon="2.26529">
        <ele>45.799999237061</ele>
        <time>2016-07-18T19:36:53.000Z</time>
      </trkpt>
      <trkpt lat="48.86826" lon="2.26549">
        <ele>46.400001525879</ele>
        <time>2016-07-18T19:37:04.000Z</time>
      </trkpt>
      <trkpt lat="48.8681" lon="2.26565">
        <ele>46.400001525879</ele>
        <time>2016-07-18T19:37:12.000Z</time>
      </trkpt>
      <trkpt lat="48.8679" lon="2.2657">
        <ele>46.799999237061</ele>
        <time>2016-07-18T19:37:19.000Z</time>
      </trkpt>
      <trkpt lat="48.86773" lon="2.26562">
        <ele>47.400001525879</ele>
        <time>2016-07-18T19:37:25.000Z</time>
      </trkpt>
      <trkpt lat="48.86758" lon="2.26547">
        <ele>47.599998474121</ele>
        <time>2016-07-18T19:37:29.000Z</time>
      </trkpt>
      <trkpt lat="48.8674" lon="2.26532">
        <ele>47.799999237061</ele>
        <time>2016-07-18T19:37:34.000Z</time>
      </trkpt>
      <trkpt lat="48.86722" lon="2.26518">
        <ele>47.799999237061</ele>
        <time>2016-07-18T19:37:39.000Z</time>
      </trkpt>
      <trkpt lat="48.86702" lon="2.26503">
        <ele>48</ele>
        <time>2016-07-18T19:37:44.000Z</time>
      </trkpt>
      <trkpt lat="48.86685" lon="2.26485">
        <ele>47.200000762939</ele>
        <time>2016-07-18T19:37:49.000Z</time>
      </trkpt>
      <trkpt lat="48.86669" lon="2.26468">
        <ele>46.200000762939</ele>
        <time>2016-07-18T19:37:53.000Z</time>
      </trkpt>
      <trkpt lat="48.86655" lon="2.26451">
        <ele>45.200000762939</ele>
        <time>2016-07-18T19:37:57.000Z</time>
      </trkpt>
      <trkpt lat="48.86643" lon="2.26426">
        <ele>43.400001525879</ele>
        <time>2016-07-18T19:38:02.000Z</time>
      </trkpt>
      <trkpt lat="48.86632" lon="2.26401">
        <ele>42.599998474121</ele>
        <time>2016-07-18T19:38:07.000Z</time>
      </trkpt>
      <trkpt lat="48.86619" lon="2.26376">
        <ele>42.400001525879</ele>
        <time>2016-07-18T19:38:12.000Z</time>
      </trkpt>
      <trkpt lat="48.86606" lon="2.26358">
        <ele>42.400001525879</ele>
        <time>2016-07-18T19:38:16.000Z</time>
      </trkpt>
      <trkpt lat="48.86589" lon="2.2634">
        <ele>43</ele>
        <time>2016-07-18T19:38:21.000Z</time>
      </trkpt>
      <trkpt lat="48.86578" lon="2.26329">
        <ele>43.400001525879</ele>
        <time>2016-07-18T19:38:24.000Z</time>
      </trkpt>
      <trkpt lat="48.86561" lon="2.26318">
        <ele>44.599998474121</ele>
        <time>2016-07-18T19:38:29.000Z</time>
      </trkpt>
      <trkpt lat="48.86556" lon="2.26315">
        <ele>45</ele>
        <time>2016-07-18T19:38:31.000Z</time>
      </trkpt>
      <trkpt lat="48.86555" lon="2.26322">
        <ele>44.799999237061</ele>
        <time>2016-07-18T19:38:38.000Z</time>
      </trkpt>
      <trkpt lat="48.8656" lon="2.26323">
        <ele>44.400001525879</ele>
        <time>2016-07-18T19:38:41.000Z</time>
      </trkpt>
      <trkpt lat="48.86573" lon="2.2632">
        <ele>44</ele>
        <time>2016-07-18T19:40:10.000Z</time>
      </trkpt>
      <trkpt lat="48.86554" lon="2.26316">
        <ele>45</ele>
        <time>2016-07-18T19:40:33.000Z</time>
      </trkpt>
      <trkpt lat="48.86533" lon="2.26309">
        <ele>46.200000762939</ele>
        <time>2016-07-18T19:40:40.000Z</time>
      </trkpt>
      <trkpt lat="48.86513" lon="2.26301">
        <ele>47</ele>
        <time>2016-07-18T19:40:46.000Z</time>
      </trkpt>
      <trkpt lat="48.86495" lon="2.26294">
        <ele>47.200000762939</ele>
        <time>2016-07-18T19:40:51.000Z</time>
      </trkpt>
      <trkpt lat="48.86478" lon="2.26285">
        <ele>47.599998474121</ele>
        <time>2016-07-18T19:40:56.000Z</time>
      </trkpt>
      <trkpt lat="48.86463" lon="2.2627">
        <ele>48.200000762939</ele>
        <time>2016-07-18T19:41:01.000Z</time>
      </trkpt>
      <trkpt lat="48.86446" lon="2.26252">
        <ele>48.799999237061</ele>
        <time>2016-07-18T19:41:06.000Z</time>
      </trkpt>
      <trkpt lat="48.86431" lon="2.26236">
        <ele>48.799999237061</ele>
        <time>2016-07-18T19:41:11.000Z</time>
      </trkpt>
      <trkpt lat="48.86416" lon="2.26221">
        <ele>48.599998474121</ele>
        <time>2016-07-18T19:41:16.000Z</time>
      </trkpt>
      <trkpt lat="48.864" lon="2.26207">
        <ele>48.599998474121</ele>
        <time>2016-07-18T19:41:21.000Z</time>
      </trkpt>
      <trkpt lat="48.86382" lon="2.26194">
        <ele>48.400001525879</ele>
        <time>2016-07-18T19:41:26.000Z</time>
      </trkpt>
      <trkpt lat="48.86363" lon="2.26187">
        <ele>48.200000762939</ele>
        <time>2016-07-18T19:41:31.000Z</time>
      </trkpt>
      <trkpt lat="48.86344" lon="2.26185">
        <ele>48.799999237061</ele>
        <time>2016-07-18T19:41:36.000Z</time>
      </trkpt>
      <trkpt lat="48.86326" lon="2.2619">
        <ele>49.799999237061</ele>
        <time>2016-07-18T19:41:41.000Z</time>
      </trkpt>
      <trkpt lat="48.86306" lon="2.26196">
        <ele>50.799999237061</ele>
        <time>2016-07-18T19:41:48.000Z</time>
      </trkpt>
      <trkpt lat="48.86285" lon="2.26202">
        <ele>52.200000762939</ele>
        <time>2016-07-18T19:41:54.000Z</time>
      </trkpt>
      <trkpt lat="48.86264" lon="2.26208">
        <ele>52.599998474121</ele>
        <time>2016-07-18T19:41:59.000Z</time>
      </trkpt>
      <trkpt lat="48.86244" lon="2.26203">
        <ele>51.599998474121</ele>
        <time>2016-07-18T19:42:04.000Z</time>
      </trkpt>
      <trkpt lat="48.86224" lon="2.26192">
        <ele>50.400001525879</ele>
        <time>2016-07-18T19:42:09.000Z</time>
      </trkpt>
      <trkpt lat="48.86206" lon="2.26179">
        <ele>49.200000762939</ele>
        <time>2016-07-18T19:42:14.000Z</time>
      </trkpt>
      <trkpt lat="48.862" lon="2.26174">
        <ele>48.799999237061</ele>
        <time>2016-07-18T19:42:17.000Z</time>
      </trkpt>
      <trkpt lat="48.86189" lon="2.26166">
        <ele>48</ele>
        <time>2016-07-18T19:42:46.000Z</time>
      </trkpt>
      <trkpt lat="48.86184" lon="2.26162">
        <ele>48.200000762939</ele>
        <time>2016-07-18T19:44:02.000Z</time>
      </trkpt>
      <trkpt lat="48.8617" lon="2.26143">
        <ele>48.599998474121</ele>
        <time>2016-07-18T19:44:08.000Z</time>
      </trkpt>
      <trkpt lat="48.86157" lon="2.26122">
        <ele>49.200000762939</ele>
        <time>2016-07-18T19:44:13.000Z</time>
      </trkpt>
      <trkpt lat="48.86142" lon="2.26099">
        <ele>49.599998474121</ele>
        <time>2016-07-18T19:44:18.000Z</time>
      </trkpt>
      <trkpt lat="48.86126" lon="2.26077">
        <ele>50.200000762939</ele>
        <time>2016-07-18T19:44:23.000Z</time>
      </trkpt>
      <trkpt lat="48.86111" lon="2.26061">
        <ele>50.799999237061</ele>
        <time>2016-07-18T19:44:27.000Z</time>
      </trkpt>
      <trkpt lat="48.86097" lon="2.26041">
        <ele>50.799999237061</ele>
        <time>2016-07-18T19:44:31.000Z</time>
      </trkpt>
      <trkpt lat="48.8608" lon="2.26022">
        <ele>50.599998474121</ele>
        <time>2016-07-18T19:44:35.000Z</time>
      </trkpt>
      <trkpt lat="48.8606" lon="2.26006">
        <ele>50.400001525879</ele>
        <time>2016-07-18T19:44:39.000Z</time>
      </trkpt>
      <trkpt lat="48.86039" lon="2.25992">
        <ele>50.200000762939</ele>
        <time>2016-07-18T19:44:43.000Z</time>
      </trkpt>
      <trkpt lat="48.86021" lon="2.25984">
        <ele>50.200000762939</ele>
        <time>2016-07-18T19:44:46.000Z</time>
      </trkpt>
      <trkpt lat="48.86004" lon="2.25975">
        <ele>50.200000762939</ele>
        <time>2016-07-18T19:44:49.000Z</time>
      </trkpt>
      <trkpt lat="48.85986" lon="2.25967">
        <ele>50.599998474121</ele>
        <time>2016-07-18T19:44:52.000Z</time>
      </trkpt>
      <trkpt lat="48.85964" lon="2.25955">
        <ele>51</ele>
        <time>2016-07-18T19:44:56.000Z</time>
      </trkpt>
      <trkpt lat="48.85941" lon="2.25948">
        <ele>51.400001525879</ele>
        <time>2016-07-18T19:45:00.000Z</time>
      </trkpt>
      <trkpt lat="48.85921" lon="2.25936">
        <ele>51.599998474121</ele>
        <time>2016-07-18T19:45:04.000Z</time>
      </trkpt>
      <trkpt lat="48.859" lon="2.25923">
        <ele>51.599998474121</ele>
        <time>2016-07-18T19:45:08.000Z</time>
      </trkpt>
      <trkpt lat="48.8588" lon="2.25909">
        <ele>51.599998474121</ele>
        <time>2016-07-18T19:45:12.000Z</time>
      </trkpt>
      <trkpt lat="48.85872" lon="2.25903">
        <ele>51.599998474121</ele>
        <time>2016-07-18T19:45:14.000Z</time>
      </trkpt>
      <trkpt lat="48.85861" lon="2.25893">
        <ele>51.799999237061</ele>
        <time>2016-07-18T19:45:17.000Z</time>
      </trkpt>
      <trkpt lat="48.85851" lon="2.25887">
        <ele>52</ele>
        <time>2016-07-18T19:45:20.000Z</time>
      </trkpt>
      <trkpt lat="48.85846" lon="2.2591">
        <ele>52</ele>
        <time>2016-07-18T19:45:29.000Z</time>
      </trkpt>
      <trkpt lat="48.85846" lon="2.25932">
        <ele>51.799999237061</ele>
        <time>2016-07-18T19:45:36.000Z</time>
      </trkpt>
      <trkpt lat="48.85848" lon="2.25963">
        <ele>51.799999237061</ele>
        <time>2016-07-18T19:45:44.000Z</time>
      </trkpt>
      <trkpt lat="48.8585" lon="2.25992">
        <ele>51.799999237061</ele>
        <time>2016-07-18T19:45:50.000Z</time>
      </trkpt>
      <trkpt lat="48.85848" lon="2.26022">
        <ele>51.400001525879</ele>
        <time>2016-07-18T19:45:55.000Z</time>
      </trkpt>
      <trkpt lat="48.85846" lon="2.26052">
        <ele>51</ele>
        <time>2016-07-18T19:46:01.000Z</time>
      </trkpt>
      <trkpt lat="48.85842" lon="2.2608">
        <ele>51.200000762939</ele>
        <time>2016-07-18T19:46:29.000Z</time>
      </trkpt>
      <trkpt lat="48.85832" lon="2.26106">
        <ele>50.599998474121</ele>
        <time>2016-07-18T19:46:38.000Z</time>
      </trkpt>
      <trkpt lat="48.85825" lon="2.26131">
        <ele>50.200000762939</ele>
        <time>2016-07-18T19:46:42.000Z</time>
      </trkpt>
      <trkpt lat="48.85817" lon="2.26162">
        <ele>52.200000762939</ele>
        <time>2016-07-18T19:46:47.000Z</time>
      </trkpt>
      <trkpt lat="48.8581" lon="2.26192">
        <ele>52.799999237061</ele>
        <time>2016-07-18T19:46:52.000Z</time>
      </trkpt>
      <trkpt lat="48.85803" lon="2.26218">
        <ele>53.200000762939</ele>
        <time>2016-07-18T19:46:56.000Z</time>
      </trkpt>
      <trkpt lat="48.85801" lon="2.26224">
        <ele>53.200000762939</ele>
        <time>2016-07-18T19:46:57.000Z</time>
      </trkpt>
      <trkpt lat="48.85793" lon="2.26254">
        <ele>54</ele>
        <time>2016-07-18T19:47:02.000Z</time>
      </trkpt>
      <trkpt lat="48.85787" lon="2.26281">
        <ele>54.400001525879</ele>
        <time>2016-07-18T19:47:08.000Z</time>
      </trkpt>
      <trkpt lat="48.85786" lon="2.26284">
        <ele>54.400001525879</ele>
        <time>2016-07-18T19:47:09.000Z</time>
      </trkpt>
      <trkpt lat="48.85782" lon="2.26291">
        <ele>54.400001525879</ele>
        <time>2016-07-18T19:47:12.000Z</time>
      </trkpt>
      <trkpt lat="48.85775" lon="2.26313">
        <ele>54.200000762939</ele>
        <time>2016-07-18T19:47:17.000Z</time>
      </trkpt>
      <trkpt lat="48.85767" lon="2.2634">
        <ele>54.400001525879</ele>
        <time>2016-07-18T19:47:22.000Z</time>
      </trkpt>
      <trkpt lat="48.85757" lon="2.26367">
        <ele>55</ele>
        <time>2016-07-18T19:47:27.000Z</time>
      </trkpt>
      <trkpt lat="48.85749" lon="2.26397">
        <ele>56.200000762939</ele>
        <time>2016-07-18T19:47:32.000Z</time>
      </trkpt>
      <trkpt lat="48.8574" lon="2.26426">
        <ele>57.799999237061</ele>
        <time>2016-07-18T19:47:37.000Z</time>
      </trkpt>
      <trkpt lat="48.85734" lon="2.26454">
        <ele>58.799999237061</ele>
        <time>2016-07-18T19:47:43.000Z</time>
      </trkpt>
      <trkpt lat="48.85731" lon="2.26468">
        <ele>58.799999237061</ele>
        <time>2016-07-18T19:48:32.000Z</time>
      </trkpt>
      <trkpt lat="48.85724" lon="2.26493">
        <ele>58.599998474121</ele>
        <time>2016-07-18T19:48:38.000Z</time>
      </trkpt>
      <trkpt lat="48.85719" lon="2.26526">
        <ele>60.400001525879</ele>
        <time>2016-07-18T19:48:44.000Z</time>
      </trkpt>
      <trkpt lat="48.85711" lon="2.26555">
        <ele>61</ele>
        <time>2016-07-18T19:48:50.000Z</time>
      </trkpt>
      <trkpt lat="48.85702" lon="2.26585">
        <ele>61.200000762939</ele>
        <time>2016-07-18T19:48:55.000Z</time>
      </trkpt>
      <trkpt lat="48.85696" lon="2.26615">
        <ele>61.400001525879</ele>
        <time>2016-07-18T19:48:59.000Z</time>
      </trkpt>
      <trkpt lat="48.85696" lon="2.26645">
        <ele>61.799999237061</ele>
        <time>2016-07-18T19:49:03.000Z</time>
      </trkpt>
      <trkpt lat="48.85704" lon="2.26674">
        <ele>61.400001525879</ele>
        <time>2016-07-18T19:49:07.000Z</time>
      </trkpt>
      <trkpt lat="48.85717" lon="2.26704">
        <ele>60.799999237061</ele>
        <time>2016-07-18T19:49:11.000Z</time>
      </trkpt>
      <trkpt lat="48.8573" lon="2.26734">
        <ele>60.599998474121</ele>
        <time>2016-07-18T19:49:15.000Z</time>
      </trkpt>
      <trkpt lat="48.85742" lon="2.26765">
        <ele>60</ele>
        <time>2016-07-18T19:49:19.000Z</time>
      </trkpt>
      <trkpt lat="48.85751" lon="2.2679">
        <ele>59.200000762939</ele>
        <time>2016-07-18T19:49:22.000Z</time>
      </trkpt>
      <trkpt lat="48.85761" lon="2.26812">
        <ele>58.200000762939</ele>
        <time>2016-07-18T19:49:25.000Z</time>
      </trkpt>
      <trkpt lat="48.85763" lon="2.2682">
        <ele>58</ele>
        <time>2016-07-18T19:49:26.000Z</time>
      </trkpt>
      <trkpt lat="48.85773" lon="2.26849">
        <ele>57.200000762939</ele>
        <time>2016-07-18T19:49:30.000Z</time>
      </trkpt>
      <trkpt lat="48.85781" lon="2.26878">
        <ele>57.200000762939</ele>
        <time>2016-07-18T19:49:34.000Z</time>
      </trkpt>
      <trkpt lat="48.85789" lon="2.26907">
        <ele>57.200000762939</ele>
        <time>2016-07-18T19:49:38.000Z</time>
      </trkpt>
      <trkpt lat="48.85798" lon="2.26937">
        <ele>56.799999237061</ele>
        <time>2016-07-18T19:49:42.000Z</time>
      </trkpt>
      <trkpt lat="48.85809" lon="2.26961">
        <ele>56.400001525879</ele>
        <time>2016-07-18T19:49:46.000Z</time>
      </trkpt>
      <trkpt lat="48.85819" lon="2.2699">
        <ele>56.200000762939</ele>
        <time>2016-07-18T19:49:50.000Z</time>
      </trkpt>
      <trkpt lat="48.85827" lon="2.27018">
        <ele>56.799999237061</ele>
        <time>2016-07-18T19:49:54.000Z</time>
      </trkpt>
      <trkpt lat="48.8583" lon="2.27037">
        <ele>57.599998474121</ele>
        <time>2016-07-18T19:49:59.000Z</time>
      </trkpt>
      <trkpt lat="48.85827" lon="2.27066">
        <ele>58.400001525879</ele>
        <time>2016-07-18T19:50:06.000Z</time>
      </trkpt>
      <trkpt lat="48.85826" lon="2.27094">
        <ele>58.799999237061</ele>
        <time>2016-07-18T19:50:12.000Z</time>
      </trkpt>
      <trkpt lat="48.85824" lon="2.27122">
        <ele>59.400001525879</ele>
        <time>2016-07-18T19:50:17.000Z</time>
      </trkpt>
      <trkpt lat="48.85821" lon="2.2715">
        <ele>58.799999237061</ele>
        <time>2016-07-18T19:50:22.000Z</time>
      </trkpt>
      <trkpt lat="48.85817" lon="2.2718">
        <ele>59.200000762939</ele>
        <time>2016-07-18T19:50:28.000Z</time>
      </trkpt>
      <trkpt lat="48.85819" lon="2.2721">
        <ele>61</ele>
        <time>2016-07-18T19:50:33.000Z</time>
      </trkpt>
      <trkpt lat="48.85818" lon="2.2724">
        <ele>63.200000762939</ele>
        <time>2016-07-18T19:50:39.000Z</time>
      </trkpt>
      <trkpt lat="48.8581" lon="2.2727">
        <ele>64</ele>
        <time>2016-07-18T19:50:46.000Z</time>
      </trkpt>
      <trkpt lat="48.85809" lon="2.27302">
        <ele>65.400001525879</ele>
        <time>2016-07-18T19:50:52.000Z</time>
      </trkpt>
      <trkpt lat="48.8581" lon="2.27332">
        <ele>67.199996948242</ele>
        <time>2016-07-18T19:50:58.000Z</time>
      </trkpt>
      <trkpt lat="48.8581" lon="2.27362">
        <ele>68.599998474121</ele>
        <time>2016-07-18T19:51:03.000Z</time>
      </trkpt>
      <trkpt lat="48.85809" lon="2.27392">
        <ele>69</ele>
        <time>2016-07-18T19:51:08.000Z</time>
      </trkpt>
      <trkpt lat="48.85812" lon="2.2742">
        <ele>69.199996948242</ele>
        <time>2016-07-18T19:51:14.000Z</time>
      </trkpt>
      <trkpt lat="48.85815" lon="2.27424">
        <ele>69.199996948242</ele>
        <time>2016-07-18T19:51:17.000Z</time>
      </trkpt>
      <trkpt lat="48.85825" lon="2.27441">
        <ele>68.800003051758</ele>
        <time>2016-07-18T19:51:38.000Z</time>
      </trkpt>
      <trkpt lat="48.85831" lon="2.27471">
        <ele>68</ele>
        <time>2016-07-18T19:51:45.000Z</time>
      </trkpt>
      <trkpt lat="48.85827" lon="2.27481">
        <ele>67.599998474121</ele>
        <time>2016-07-18T19:51:49.000Z</time>
      </trkpt>
      <trkpt lat="48.85805" lon="2.27474">
        <ele>67.400001525879</ele>
        <time>2016-07-18T19:51:54.000Z</time>
      </trkpt>
      <trkpt lat="48.85784" lon="2.27469">
        <ele>67</ele>
        <time>2016-07-18T19:51:59.000Z</time>
      </trkpt>
      <trkpt lat="48.85764" lon="2.27469">
        <ele>66.199996948242</ele>
        <time>2016-07-18T19:52:03.000Z</time>
      </trkpt>
      <trkpt lat="48.85741" lon="2.2747">
        <ele>65.199996948242</ele>
        <time>2016-07-18T19:52:07.000Z</time>
      </trkpt>
      <trkpt lat="48.85722" lon="2.2747">
        <ele>64.400001525879</ele>
        <time>2016-07-18T19:52:10.000Z</time>
      </trkpt>
      <trkpt lat="48.85704" lon="2.2747">
        <ele>63.799999237061</ele>
        <time>2016-07-18T19:52:13.000Z</time>
      </trkpt>
      <trkpt lat="48.85686" lon="2.2747">
        <ele>63</ele>
        <time>2016-07-18T19:52:16.000Z</time>
      </trkpt>
      <trkpt lat="48.85676" lon="2.27471">
        <ele>62.200000762939</ele>
        <time>2016-07-18T19:52:18.000Z</time>
      </trkpt>
      <trkpt lat="48.8566" lon="2.27474">
        <ele>61</ele>
        <time>2016-07-18T19:52:22.000Z</time>
      </trkpt>
      <trkpt lat="48.85655" lon="2.27472">
        <ele>60.799999237061</ele>
        <time>2016-07-18T19:52:24.000Z</time>
      </trkpt>
      <trkpt lat="48.8564" lon="2.27476">
        <ele>60.200000762939</ele>
        <time>2016-07-18T19:52:44.000Z</time>
      </trkpt>
      <trkpt lat="48.85621" lon="2.27487">
        <ele>59.400001525879</ele>
        <time>2016-07-18T19:52:49.000Z</time>
      </trkpt>
      <trkpt lat="48.85599" lon="2.27498">
        <ele>58.799999237061</ele>
        <time>2016-07-18T19:52:53.000Z</time>
      </trkpt>
      <trkpt lat="48.8558" lon="2.27503">
        <ele>57.799999237061</ele>
        <time>2016-07-18T19:52:56.000Z</time>
      </trkpt>
      <trkpt lat="48.85556" lon="2.2751">
        <ele>57</ele>
        <time>2016-07-18T19:53:00.000Z</time>
      </trkpt>
      <trkpt lat="48.85538" lon="2.27515">
        <ele>56.200000762939</ele>
        <time>2016-07-18T19:53:03.000Z</time>
      </trkpt>
      <trkpt lat="48.85519" lon="2.27525">
        <ele>54.599998474121</ele>
        <time>2016-07-18T19:53:07.000Z</time>
      </trkpt>
      <trkpt lat="48.85501" lon="2.27532">
        <ele>53.200000762939</ele>
        <time>2016-07-18T19:53:10.000Z</time>
      </trkpt>
      <trkpt lat="48.85482" lon="2.27535">
        <ele>51.599998474121</ele>
        <time>2016-07-18T19:53:13.000Z</time>
      </trkpt>
      <trkpt lat="48.85461" lon="2.27538">
        <ele>50.400001525879</ele>
        <time>2016-07-18T19:53:16.000Z</time>
      </trkpt>
      <trkpt lat="48.85438" lon="2.27542">
        <ele>49</ele>
        <time>2016-07-18T19:53:20.000Z</time>
      </trkpt>
      <trkpt lat="48.85418" lon="2.27551">
        <ele>47.799999237061</ele>
        <time>2016-07-18T19:53:23.000Z</time>
      </trkpt>
      <trkpt lat="48.85399" lon="2.27556">
        <ele>46.599998474121</ele>
        <time>2016-07-18T19:53:26.000Z</time>
      </trkpt>
      <trkpt lat="48.85378" lon="2.2756">
        <ele>45.200000762939</ele>
        <time>2016-07-18T19:53:30.000Z</time>
      </trkpt>
      <trkpt lat="48.85356" lon="2.27565">
        <ele>43.599998474121</ele>
        <time>2016-07-18T19:53:35.000Z</time>
      </trkpt>
      <trkpt lat="48.85333" lon="2.27567">
        <ele>42.599998474121</ele>
        <time>2016-07-18T19:53:39.000Z</time>
      </trkpt>
      <trkpt lat="48.85323" lon="2.27571">
        <ele>42</ele>
        <time>2016-07-18T19:53:41.000Z</time>
      </trkpt>
      <trkpt lat="48.85316" lon="2.27578">
        <ele>41.599998474121</ele>
        <time>2016-07-18T19:53:43.000Z</time>
      </trkpt>
      <trkpt lat="48.85297" lon="2.27583">
        <ele>40.400001525879</ele>
        <time>2016-07-18T19:53:47.000Z</time>
      </trkpt>
      <trkpt lat="48.85292" lon="2.27583">
        <ele>40.200000762939</ele>
        <time>2016-07-18T19:53:48.000Z</time>
      </trkpt>
      <trkpt lat="48.85276" lon="2.27587">
        <ele>39.200000762939</ele>
        <time>2016-07-18T19:53:51.000Z</time>
      </trkpt>
      <trkpt lat="48.85262" lon="2.27612">
        <ele>39.799999237061</ele>
        <time>2016-07-18T19:53:55.000Z</time>
      </trkpt>
      <trkpt lat="48.85258" lon="2.27618">
        <ele>40</ele>
        <time>2016-07-18T19:53:56.000Z</time>
      </trkpt>
      <trkpt lat="48.85244" lon="2.27634">
        <ele>40.599998474121</ele>
        <time>2016-07-18T19:54:03.000Z</time>
      </trkpt>
      <trkpt lat="48.85262" lon="2.27638">
        <ele>40</ele>
        <time>2016-07-18T19:54:20.000Z</time>
      </trkpt>
      <trkpt lat="48.85274" lon="2.27613">
        <ele>39.400001525879</ele>
        <time>2016-07-18T19:54:29.000Z</time>
      </trkpt>
      <trkpt lat="48.85275" lon="2.27612">
        <ele>39.599998474121</ele>
        <time>2016-07-18T19:54:30.000Z</time>
      </trkpt>
      <trkpt lat="48.85285" lon="2.27605">
        <ele>40</ele>
        <time>2016-07-18T19:54:44.000Z</time>
      </trkpt>
      <trkpt lat="48.85283" lon="2.27602">
        <ele>39.799999237061</ele>
        <time>2016-07-18T19:54:48.000Z</time>
      </trkpt>
      <trkpt lat="48.85281" lon="2.27596">
        <ele>39.599998474121</ele>
        <time>2016-07-18T19:54:53.000Z</time>
      </trkpt>
      <trkpt lat="48.85284" lon="2.27587">
        <ele>39.799999237061</ele>
        <time>2016-07-18T19:55:04.000Z</time>
      </trkpt>
      <trkpt lat="48.8529" lon="2.27596">
        <ele>40</ele>
        <time>2016-07-18T19:55:35.000Z</time>
      </trkpt>
      <trkpt lat="48.85289" lon="2.276">
        <ele>40</ele>
        <time>2016-07-18T19:55:38.000Z</time>
      </trkpt>
      <trkpt lat="48.85295" lon="2.27613">
        <ele>40.400001525879</ele>
        <time>2016-07-18T19:56:00.000Z</time>
      </trkpt>
      <trkpt lat="48.8531" lon="2.27631">
        <ele>41.400001525879</ele>
        <time>2016-07-18T19:56:07.000Z</time>
      </trkpt>
      <trkpt lat="48.85324" lon="2.27656">
        <ele>42.400001525879</ele>
        <time>2016-07-18T19:56:14.000Z</time>
      </trkpt>
      <trkpt lat="48.85334" lon="2.27686">
        <ele>43.599998474121</ele>
        <time>2016-07-18T19:56:20.000Z</time>
      </trkpt>
      <trkpt lat="48.85346" lon="2.27711">
        <ele>44.599998474121</ele>
        <time>2016-07-18T19:56:27.000Z</time>
      </trkpt>
      <trkpt lat="48.85357" lon="2.27736">
        <ele>45.799999237061</ele>
        <time>2016-07-18T19:56:36.000Z</time>
      </trkpt>
      <trkpt lat="48.85372" lon="2.27755">
        <ele>47.799999237061</ele>
        <time>2016-07-18T19:56:44.000Z</time>
      </trkpt>
      <trkpt lat="48.85387" lon="2.27769">
        <ele>49.599998474121</ele>
        <time>2016-07-18T19:56:50.000Z</time>
      </trkpt>
      <trkpt lat="48.85398" lon="2.27791">
        <ele>50.400001525879</ele>
        <time>2016-07-18T19:56:57.000Z</time>
      </trkpt>
      <trkpt lat="48.85414" lon="2.27808">
        <ele>52.200000762939</ele>
        <time>2016-07-18T19:57:05.000Z</time>
      </trkpt>
      <trkpt lat="48.85426" lon="2.27828">
        <ele>53.400001525879</ele>
        <time>2016-07-18T19:57:15.000Z</time>
      </trkpt>
      <trkpt lat="48.85434" lon="2.27832">
        <ele>54.200000762939</ele>
        <time>2016-07-18T19:57:22.000Z</time>
      </trkpt>
      <trkpt lat="48.85445" lon="2.27855">
        <ele>54.599998474121</ele>
        <time>2016-07-18T19:57:35.000Z</time>
      </trkpt>
      <trkpt lat="48.85456" lon="2.27881">
        <ele>55.200000762939</ele>
        <time>2016-07-18T19:57:44.000Z</time>
      </trkpt>
      <trkpt lat="48.85464" lon="2.27907">
        <ele>55.200000762939</ele>
        <time>2016-07-18T19:57:50.000Z</time>
      </trkpt>
      <trkpt lat="48.85466" lon="2.27936">
        <ele>54.200000762939</ele>
        <time>2016-07-18T19:57:56.000Z</time>
      </trkpt>
      <trkpt lat="48.85468" lon="2.27963">
        <ele>54.200000762939</ele>
        <time>2016-07-18T19:58:00.000Z</time>
      </trkpt>
      <trkpt lat="48.85468" lon="2.27995">
        <ele>54.200000762939</ele>
        <time>2016-07-18T19:58:05.000Z</time>
      </trkpt>
      <trkpt lat="48.85466" lon="2.28023">
        <ele>52.200000762939</ele>
        <time>2016-07-18T19:58:10.000Z</time>
      </trkpt>
      <trkpt lat="48.85464" lon="2.28052">
        <ele>53.200000762939</ele>
        <time>2016-07-18T19:58:15.000Z</time>
      </trkpt>
      <trkpt lat="48.85471" lon="2.2808">
        <ele>54.400001525879</ele>
        <time>2016-07-18T19:58:20.000Z</time>
      </trkpt>
      <trkpt lat="48.85477" lon="2.28112">
        <ele>50.200000762939</ele>
        <time>2016-07-18T19:58:24.000Z</time>
      </trkpt>
      <trkpt lat="48.85482" lon="2.28142">
        <ele>45.799999237061</ele>
        <time>2016-07-18T19:58:28.000Z</time>
      </trkpt>
      <trkpt lat="48.85485" lon="2.28151">
        <ele>44.400001525879</ele>
        <time>2016-07-18T19:58:30.000Z</time>
      </trkpt>
      <trkpt lat="48.85496" lon="2.2818">
        <ele>42.599998474121</ele>
        <time>2016-07-18T19:58:37.000Z</time>
      </trkpt>
      <trkpt lat="48.85506" lon="2.28204">
        <ele>42.400001525879</ele>
        <time>2016-07-18T19:58:43.000Z</time>
      </trkpt>
      <trkpt lat="48.85517" lon="2.28226">
        <ele>42.200000762939</ele>
        <time>2016-07-18T19:58:51.000Z</time>
      </trkpt>
      <trkpt lat="48.85529" lon="2.28246">
        <ele>42.200000762939</ele>
        <time>2016-07-18T19:59:00.000Z</time>
      </trkpt>
      <trkpt lat="48.8553" lon="2.28247">
        <ele>42.400001525879</ele>
        <time>2016-07-18T19:59:01.000Z</time>
      </trkpt>
      <trkpt lat="48.85531" lon="2.2823">
        <ele>42.799999237061</ele>
        <time>2016-07-18T19:59:07.000Z</time>
      </trkpt>
      <trkpt lat="48.85543" lon="2.28208">
        <ele>43.799999237061</ele>
        <time>2016-07-18T19:59:14.000Z</time>
      </trkpt>
      <trkpt lat="48.85559" lon="2.28194">
        <ele>45.799999237061</ele>
        <time>2016-07-18T19:59:21.000Z</time>
      </trkpt>
      <trkpt lat="48.85561" lon="2.28195">
        <ele>46</ele>
        <time>2016-07-18T19:59:22.000Z</time>
      </trkpt>
      <trkpt lat="48.85576" lon="2.28212">
        <ele>46</ele>
        <time>2016-07-18T19:59:29.000Z</time>
      </trkpt>
      <trkpt lat="48.85579" lon="2.28215">
        <ele>46</ele>
        <time>2016-07-18T19:59:30.000Z</time>
      </trkpt>
      <trkpt lat="48.85592" lon="2.28239">
        <ele>45.599998474121</ele>
        <time>2016-07-18T19:59:35.000Z</time>
      </trkpt>
      <trkpt lat="48.85607" lon="2.28263">
        <ele>45.400001525879</ele>
        <time>2016-07-18T19:59:41.000Z</time>
      </trkpt>
      <trkpt lat="48.85621" lon="2.28283">
        <ele>47.200000762939</ele>
        <time>2016-07-18T19:59:47.000Z</time>
      </trkpt>
      <trkpt lat="48.8564" lon="2.28298">
        <ele>50</ele>
        <time>2016-07-18T19:59:53.000Z</time>
      </trkpt>
      <trkpt lat="48.8566" lon="2.28305">
        <ele>53.400001525879</ele>
        <time>2016-07-18T19:59:59.000Z</time>
      </trkpt>
      <trkpt lat="48.85668" lon="2.2831">
        <ele>54.799999237061</ele>
        <time>2016-07-18T20:00:02.000Z</time>
      </trkpt>
      <trkpt lat="48.85659" lon="2.28336">
        <ele>51</ele>
        <time>2016-07-18T20:00:09.000Z</time>
      </trkpt>
      <trkpt lat="48.85656" lon="2.28364">
        <ele>45.200000762939</ele>
        <time>2016-07-18T20:00:12.000Z</time>
      </trkpt>
      <trkpt lat="48.85662" lon="2.28392">
        <ele>41.799999237061</ele>
        <time>2016-07-18T20:00:18.000Z</time>
      </trkpt>
      <trkpt lat="48.85668" lon="2.28398">
        <ele>41.799999237061</ele>
        <time>2016-07-18T20:00:24.000Z</time>
      </trkpt>
      <trkpt lat="48.85675" lon="2.28412">
        <ele>41.599998474121</ele>
        <time>2016-07-18T20:00:30.000Z</time>
      </trkpt>
      <trkpt lat="48.8569" lon="2.28436">
        <ele>43.200000762939</ele>
        <time>2016-07-18T20:00:41.000Z</time>
      </trkpt>
      <trkpt lat="48.85702" lon="2.28461">
        <ele>45.599998474121</ele>
        <time>2016-07-18T20:00:52.000Z</time>
      </trkpt>
      <trkpt lat="48.85706" lon="2.28462">
        <ele>46</ele>
        <time>2016-07-18T20:00:56.000Z</time>
      </trkpt>
      <trkpt lat="48.85718" lon="2.28473">
        <ele>47.599998474121</ele>
        <time>2016-07-18T20:01:00.000Z</time>
      </trkpt>
      <trkpt lat="48.8572" lon="2.28473">
        <ele>47.799999237061</ele>
        <time>2016-07-18T20:01:02.000Z</time>
      </trkpt>
      <trkpt lat="48.85736" lon="2.28458">
        <ele>49</ele>
        <time>2016-07-18T20:01:35.000Z</time>
      </trkpt>
      <trkpt lat="48.85736" lon="2.28444">
        <ele>50.599998474121</ele>
        <time>2016-07-18T20:01:41.000Z</time>
      </trkpt>
      <trkpt lat="48.85745" lon="2.2844">
        <ele>53.200000762939</ele>
        <time>2016-07-18T20:01:55.000Z</time>
      </trkpt>
      <trkpt lat="48.85745" lon="2.2843">
        <ele>54.200000762939</ele>
        <time>2016-07-18T20:02:00.000Z</time>
      </trkpt>
      <trkpt lat="48.8575" lon="2.28433">
        <ele>55.200000762939</ele>
        <time>2016-07-18T20:02:03.000Z</time>
      </trkpt>
      <trkpt lat="48.85761" lon="2.28439">
        <ele>57.400001525879</ele>
        <time>2016-07-18T20:02:12.000Z</time>
      </trkpt>
      <trkpt lat="48.8577" lon="2.28449">
        <ele>58.599998474121</ele>
        <time>2016-07-18T20:02:16.000Z</time>
      </trkpt>
      <trkpt lat="48.85775" lon="2.28457">
        <ele>58.599998474121</ele>
        <time>2016-07-18T20:02:21.000Z</time>
      </trkpt>
      <trkpt lat="48.85759" lon="2.28432">
        <ele>57.400001525879</ele>
        <time>2016-07-18T20:02:26.000Z</time>
      </trkpt>
      <trkpt lat="48.85753" lon="2.2842">
        <ele>57.200000762939</ele>
        <time>2016-07-18T20:02:28.000Z</time>
      </trkpt>
      <trkpt lat="48.85755" lon="2.28411">
        <ele>58.799999237061</ele>
        <time>2016-07-18T20:02:36.000Z</time>
      </trkpt>
      <trkpt lat="48.85767" lon="2.284">
        <ele>63.599998474121</ele>
        <time>2016-07-18T20:02:45.000Z</time>
      </trkpt>
      <trkpt lat="48.85772" lon="2.28395">
        <ele>65.199996948242</ele>
        <time>2016-07-18T20:02:56.000Z</time>
      </trkpt>
      <trkpt lat="48.85775" lon="2.28406">
        <ele>64</ele>
        <time>2016-07-18T20:03:12.000Z</time>
      </trkpt>
      <trkpt lat="48.85778" lon="2.28398">
        <ele>65.199996948242</ele>
        <time>2016-07-18T20:03:33.000Z</time>
      </trkpt>
      <trkpt lat="48.85774" lon="2.28383">
        <ele>67</ele>
        <time>2016-07-18T20:03:51.000Z</time>
      </trkpt>
      <trkpt lat="48.85769" lon="2.28378">
        <ele>67</ele>
        <time>2016-07-18T20:04:01.000Z</time>
      </trkpt>
      <trkpt lat="48.85772" lon="2.28388">
        <ele>66.199996948242</ele>
        <time>2016-07-18T20:04:42.000Z</time>
      </trkpt>
      <trkpt lat="48.85787" lon="2.28405">
        <ele>64.800003051758</ele>
        <time>2016-07-18T20:05:04.000Z</time>
      </trkpt>
      <trkpt lat="48.85805" lon="2.28418">
        <ele>64.400001525879</ele>
        <time>2016-07-18T20:05:09.000Z</time>
      </trkpt>
      <trkpt lat="48.85822" lon="2.28431">
        <ele>64.800003051758</ele>
        <time>2016-07-18T20:05:13.000Z</time>
      </trkpt>
      <trkpt lat="48.85839" lon="2.28442">
        <ele>65.199996948242</ele>
        <time>2016-07-18T20:05:17.000Z</time>
      </trkpt>
      <trkpt lat="48.8586" lon="2.2845">
        <ele>66</ele>
        <time>2016-07-18T20:05:23.000Z</time>
      </trkpt>
      <trkpt lat="48.85876" lon="2.28462">
        <ele>67</ele>
        <time>2016-07-18T20:05:29.000Z</time>
      </trkpt>
      <trkpt lat="48.85886" lon="2.28466">
        <ele>67.599998474121</ele>
        <time>2016-07-18T20:05:33.000Z</time>
      </trkpt>
      <trkpt lat="48.85905" lon="2.28479">
        <ele>68.800003051758</ele>
        <time>2016-07-18T20:05:39.000Z</time>
      </trkpt>
      <trkpt lat="48.85922" lon="2.28494">
        <ele>69.599998474121</ele>
        <time>2016-07-18T20:05:45.000Z</time>
      </trkpt>
      <trkpt lat="48.85939" lon="2.28506">
        <ele>70.800003051758</ele>
        <time>2016-07-18T20:05:49.000Z</time>
      </trkpt>
      <trkpt lat="48.85953" lon="2.28524">
        <ele>71.199996948242</ele>
        <time>2016-07-18T20:05:53.000Z</time>
      </trkpt>
      <trkpt lat="48.85967" lon="2.28546">
        <ele>71.400001525879</ele>
        <time>2016-07-18T20:05:58.000Z</time>
      </trkpt>
      <trkpt lat="48.85987" lon="2.28559">
        <ele>72</ele>
        <time>2016-07-18T20:06:04.000Z</time>
      </trkpt>
      <trkpt lat="48.86008" lon="2.28571">
        <ele>72.599998474121</ele>
        <time>2016-07-18T20:06:07.000Z</time>
      </trkpt>
      <trkpt lat="48.86026" lon="2.28587">
        <ele>72.800003051758</ele>
        <time>2016-07-18T20:06:11.000Z</time>
      </trkpt>
      <trkpt lat="48.86042" lon="2.28599">
        <ele>72.599998474121</ele>
        <time>2016-07-18T20:06:15.000Z</time>
      </trkpt>
      <trkpt lat="48.86062" lon="2.2861">
        <ele>72.800003051758</ele>
        <time>2016-07-18T20:06:21.000Z</time>
      </trkpt>
      <trkpt lat="48.86076" lon="2.28621">
        <ele>72.599998474121</ele>
        <time>2016-07-18T20:06:25.000Z</time>
      </trkpt>
      <trkpt lat="48.86095" lon="2.28637">
        <ele>72.400001525879</ele>
        <time>2016-07-18T20:06:30.000Z</time>
      </trkpt>
      <trkpt lat="48.86113" lon="2.2865">
        <ele>72</ele>
        <time>2016-07-18T20:06:34.000Z</time>
      </trkpt>
      <trkpt lat="48.86133" lon="2.28661">
        <ele>71.199996948242</ele>
        <time>2016-07-18T20:06:38.000Z</time>
      </trkpt>
      <trkpt lat="48.86152" lon="2.28665">
        <ele>70.800003051758</ele>
        <time>2016-07-18T20:06:42.000Z</time>
      </trkpt>
      <trkpt lat="48.86164" lon="2.28659">
        <ele>71.400001525879</ele>
        <time>2016-07-18T20:06:45.000Z</time>
      </trkpt>
      <trkpt lat="48.86176" lon="2.28656">
        <ele>71.599998474121</ele>
        <time>2016-07-18T20:06:48.000Z</time>
      </trkpt>
      <trkpt lat="48.86194" lon="2.28667">
        <ele>70.400001525879</ele>
        <time>2016-07-18T20:06:54.000Z</time>
      </trkpt>
      <trkpt lat="48.86202" lon="2.28679">
        <ele>69.400001525879</ele>
        <time>2016-07-18T20:06:57.000Z</time>
      </trkpt>
      <trkpt lat="48.86215" lon="2.28699">
        <ele>67.599998474121</ele>
        <time>2016-07-18T20:07:02.000Z</time>
      </trkpt>
      <trkpt lat="48.86227" lon="2.28721">
        <ele>65.800003051758</ele>
        <time>2016-07-18T20:07:07.000Z</time>
      </trkpt>
      <trkpt lat="48.86237" lon="2.28743">
        <ele>64</ele>
        <time>2016-07-18T20:07:13.000Z</time>
      </trkpt>
      <trkpt lat="48.86253" lon="2.28759">
        <ele>63.200000762939</ele>
        <time>2016-07-18T20:07:21.000Z</time>
      </trkpt>
      <trkpt lat="48.86258" lon="2.28759">
        <ele>62.799999237061</ele>
        <time>2016-07-18T20:07:27.000Z</time>
      </trkpt>
      <trkpt lat="48.86258" lon="2.28769">
        <ele>63</ele>
        <time>2016-07-18T20:08:06.000Z</time>
      </trkpt>
      <trkpt lat="48.86258" lon="2.28772">
        <ele>63</ele>
        <time>2016-07-18T20:09:47.000Z</time>
      </trkpt>
      <trkpt lat="48.86262" lon="2.28774">
        <ele>62.799999237061</ele>
        <time>2016-07-18T20:10:07.000Z</time>
      </trkpt>
      <trkpt lat="48.86259" lon="2.28778">
        <ele>63</ele>
        <time>2016-07-18T20:10:11.000Z</time>
      </trkpt>
      <trkpt lat="48.8626" lon="2.28781">
        <ele>63</ele>
        <time>2016-07-18T20:11:19.000Z</time>
      </trkpt>
      <trkpt lat="48.86271" lon="2.28784">
        <ele>62.599998474121</ele>
        <time>2016-07-18T20:11:26.000Z</time>
      </trkpt>
      <trkpt lat="48.86278" lon="2.28784">
        <ele>62.799999237061</ele>
        <time>2016-07-18T20:11:30.000Z</time>
      </trkpt>
      <trkpt lat="48.86294" lon="2.28801">
        <ele>64.199996948242</ele>
        <time>2016-07-18T20:11:38.000Z</time>
      </trkpt>
      <trkpt lat="48.86303" lon="2.28816">
        <ele>65</ele>
        <time>2016-07-18T20:11:45.000Z</time>
      </trkpt>
      <trkpt lat="48.86319" lon="2.28813">
        <ele>66.199996948242</ele>
        <time>2016-07-18T20:12:11.000Z</time>
      </trkpt>
      <trkpt lat="48.8632" lon="2.28807">
        <ele>66.199996948242</ele>
        <time>2016-07-18T20:12:16.000Z</time>
      </trkpt>
      <trkpt lat="48.86319" lon="2.28778">
        <ele>65.400001525879</ele>
        <time>2016-07-18T20:12:44.000Z</time>
      </trkpt>
      <trkpt lat="48.86334" lon="2.28758">
        <ele>65.400001525879</ele>
        <time>2016-07-18T20:12:50.000Z</time>
      </trkpt>
      <trkpt lat="48.86353" lon="2.28767">
        <ele>66.599998474121</ele>
        <time>2016-07-18T20:12:56.000Z</time>
      </trkpt>
      <trkpt lat="48.86371" lon="2.2878">
        <ele>68.199996948242</ele>
        <time>2016-07-18T20:13:02.000Z</time>
      </trkpt>
      <trkpt lat="48.86389" lon="2.2879">
        <ele>69.599998474121</ele>
        <time>2016-07-18T20:13:08.000Z</time>
      </trkpt>
      <trkpt lat="48.86407" lon="2.28801">
        <ele>71</ele>
        <time>2016-07-18T20:13:14.000Z</time>
      </trkpt>
      <trkpt lat="48.86428" lon="2.28814">
        <ele>72.800003051758</ele>
        <time>2016-07-18T20:13:20.000Z</time>
      </trkpt>
      <trkpt lat="48.86444" lon="2.28829">
        <ele>73.800003051758</ele>
        <time>2016-07-18T20:13:24.000Z</time>
      </trkpt>
      <trkpt lat="48.86461" lon="2.28845">
        <ele>73.400001525879</ele>
        <time>2016-07-18T20:13:29.000Z</time>
      </trkpt>
      <trkpt lat="48.86479" lon="2.2886">
        <ele>73</ele>
        <time>2016-07-18T20:13:34.000Z</time>
      </trkpt>
      <trkpt lat="48.86495" lon="2.28873">
        <ele>72.599998474121</ele>
        <time>2016-07-18T20:13:38.000Z</time>
      </trkpt>
      <trkpt lat="48.86514" lon="2.28888">
        <ele>72.199996948242</ele>
        <time>2016-07-18T20:13:43.000Z</time>
      </trkpt>
      <trkpt lat="48.86532" lon="2.289">
        <ele>72.199996948242</ele>
        <time>2016-07-18T20:13:48.000Z</time>
      </trkpt>
      <trkpt lat="48.8655" lon="2.28911">
        <ele>72.599998474121</ele>
        <time>2016-07-18T20:13:52.000Z</time>
      </trkpt>
      <trkpt lat="48.8657" lon="2.28925">
        <ele>72.599998474121</ele>
        <time>2016-07-18T20:13:57.000Z</time>
      </trkpt>
      <trkpt lat="48.86588" lon="2.28936">
        <ele>72.400001525879</ele>
        <time>2016-07-18T20:14:01.000Z</time>
      </trkpt>
      <trkpt lat="48.86599" lon="2.28941">
        <ele>72.400001525879</ele>
        <time>2016-07-18T20:14:04.000Z</time>
      </trkpt>
      <trkpt lat="48.86608" lon="2.28947">
        <ele>72.599998474121</ele>
        <time>2016-07-18T20:14:06.000Z</time>
      </trkpt>
      <trkpt lat="48.86626" lon="2.28957">
        <ele>73.199996948242</ele>
        <time>2016-07-18T20:14:10.000Z</time>
      </trkpt>
      <trkpt lat="48.86644" lon="2.2897">
        <ele>74</ele>
        <time>2016-07-18T20:14:15.000Z</time>
      </trkpt>
      <trkpt lat="48.86652" lon="2.28972">
        <ele>74.400001525879</ele>
        <time>2016-07-18T20:14:16.000Z</time>
      </trkpt>
      <trkpt lat="48.86671" lon="2.28978">
        <ele>75.599998474121</ele>
        <time>2016-07-18T20:14:20.000Z</time>
      </trkpt>
      <trkpt lat="48.86678" lon="2.28989">
        <ele>75.599998474121</ele>
        <time>2016-07-18T20:14:25.000Z</time>
      </trkpt>
      <trkpt lat="48.86678" lon="2.28989">
        <ele>75.599998474121</ele>
        <time>2016-07-18T20:14:26.000Z</time>
      </trkpt>
      <trkpt lat="48.86686" lon="2.28995">
        <ele>75.800003051758</ele>
        <time>2016-07-18T20:14:43.000Z</time>
      </trkpt>
      <trkpt lat="48.86705" lon="2.29005">
        <ele>75</ele>
        <time>2016-07-18T20:14:49.000Z</time>
      </trkpt>
      <trkpt lat="48.86724" lon="2.2902">
        <ele>73.400001525879</ele>
        <time>2016-07-18T20:14:53.000Z</time>
      </trkpt>
      <trkpt lat="48.86729" lon="2.29026">
        <ele>73</ele>
        <time>2016-07-18T20:14:54.000Z</time>
      </trkpt>
      <trkpt lat="48.86747" lon="2.29041">
        <ele>71.599998474121</ele>
        <time>2016-07-18T20:14:58.000Z</time>
      </trkpt>
      <trkpt lat="48.86765" lon="2.29059">
        <ele>70.199996948242</ele>
        <time>2016-07-18T20:15:02.000Z</time>
      </trkpt>
      <trkpt lat="48.86783" lon="2.29075">
        <ele>69.199996948242</ele>
        <time>2016-07-18T20:15:06.000Z</time>
      </trkpt>
      <trkpt lat="48.86793" lon="2.29083">
        <ele>69.199996948242</ele>
        <time>2016-07-18T20:15:08.000Z</time>
      </trkpt>
      <trkpt lat="48.86813" lon="2.29094">
        <ele>69.599998474121</ele>
        <time>2016-07-18T20:15:12.000Z</time>
      </trkpt>
      <trkpt lat="48.86834" lon="2.29106">
        <ele>70.199996948242</ele>
        <time>2016-07-18T20:15:16.000Z</time>
      </trkpt>
      <trkpt lat="48.86847" lon="2.29113">
        <ele>70.599998474121</ele>
        <time>2016-07-18T20:15:19.000Z</time>
      </trkpt>
      <trkpt lat="48.86865" lon="2.29123">
        <ele>71</ele>
        <time>2016-07-18T20:15:23.000Z</time>
      </trkpt>
      <trkpt lat="48.86869" lon="2.29127">
        <ele>71.199996948242</ele>
        <time>2016-07-18T20:15:24.000Z</time>
      </trkpt>
      <trkpt lat="48.86886" lon="2.29141">
        <ele>72</ele>
        <time>2016-07-18T20:15:28.000Z</time>
      </trkpt>
      <trkpt lat="48.86891" lon="2.29145">
        <ele>72.199996948242</ele>
        <time>2016-07-18T20:15:29.000Z</time>
      </trkpt>
      <trkpt lat="48.8691" lon="2.29159">
        <ele>72.800003051758</ele>
        <time>2016-07-18T20:15:33.000Z</time>
      </trkpt>
      <trkpt lat="48.86919" lon="2.29166">
        <ele>73</ele>
        <time>2016-07-18T20:15:35.000Z</time>
      </trkpt>
      <trkpt lat="48.86939" lon="2.29181">
        <ele>72.800003051758</ele>
        <time>2016-07-18T20:15:39.000Z</time>
      </trkpt>
      <trkpt lat="48.8696" lon="2.29197">
        <ele>72.599998474121</ele>
        <time>2016-07-18T20:15:43.000Z</time>
      </trkpt>
      <trkpt lat="48.86979" lon="2.29208">
        <ele>72.400001525879</ele>
        <time>2016-07-18T20:15:47.000Z</time>
      </trkpt>
      <trkpt lat="48.86999" lon="2.29219">
        <ele>72.599998474121</ele>
        <time>2016-07-18T20:15:51.000Z</time>
      </trkpt>
      <trkpt lat="48.87018" lon="2.2923">
        <ele>72.800003051758</ele>
        <time>2016-07-18T20:15:55.000Z</time>
      </trkpt>
      <trkpt lat="48.87038" lon="2.29245">
        <ele>73</ele>
        <time>2016-07-18T20:15:59.000Z</time>
      </trkpt>
      <trkpt lat="48.87058" lon="2.29255">
        <ele>73.599998474121</ele>
        <time>2016-07-18T20:16:03.000Z</time>
      </trkpt>
      <trkpt lat="48.87078" lon="2.29267">
        <ele>74.400001525879</ele>
        <time>2016-07-18T20:16:07.000Z</time>
      </trkpt>
      <trkpt lat="48.87096" lon="2.29281">
        <ele>74.800003051758</ele>
        <time>2016-07-18T20:16:11.000Z</time>
      </trkpt>
      <trkpt lat="48.87112" lon="2.29299">
        <ele>74.199996948242</ele>
        <time>2016-07-18T20:16:15.000Z</time>
      </trkpt>
      <trkpt lat="48.87131" lon="2.29317">
        <ele>72.199996948242</ele>
        <time>2016-07-18T20:16:19.000Z</time>
      </trkpt>
      <trkpt lat="48.87146" lon="2.29334">
        <ele>70.599998474121</ele>
        <time>2016-07-18T20:16:22.000Z</time>
      </trkpt>
      <trkpt lat="48.87164" lon="2.29346">
        <ele>69.199996948242</ele>
        <time>2016-07-18T20:16:25.000Z</time>
      </trkpt>
      <trkpt lat="48.8718" lon="2.2936">
        <ele>67.800003051758</ele>
        <time>2016-07-18T20:16:28.000Z</time>
      </trkpt>
      <trkpt lat="48.872" lon="2.29374">
        <ele>66.800003051758</ele>
        <time>2016-07-18T20:16:31.000Z</time>
      </trkpt>
      <trkpt lat="48.87214" lon="2.29385">
        <ele>66.400001525879</ele>
        <time>2016-07-18T20:16:34.000Z</time>
      </trkpt>
      <trkpt lat="48.87227" lon="2.29393">
        <ele>66</ele>
        <time>2016-07-18T20:16:37.000Z</time>
      </trkpt>
      <trkpt lat="48.87233" lon="2.29412">
        <ele>65.599998474121</ele>
        <time>2016-07-18T20:16:42.000Z</time>
      </trkpt>
      <trkpt lat="48.87233" lon="2.29413">
        <ele>65.400001525879</ele>
        <time>2016-07-18T20:16:43.000Z</time>
      </trkpt>
      <trkpt lat="48.87237" lon="2.29434">
        <ele>65</ele>
        <time>2016-07-18T20:17:11.000Z</time>
      </trkpt>
      <trkpt lat="48.87241" lon="2.29464">
        <ele>64.199996948242</ele>
        <time>2016-07-18T20:17:16.000Z</time>
      </trkpt>
      <trkpt lat="48.87243" lon="2.29495">
        <ele>64</ele>
        <time>2016-07-18T20:17:21.000Z</time>
      </trkpt>
      <trkpt lat="48.87235" lon="2.29509">
        <ele>64</ele>
        <time>2016-07-18T20:17:25.000Z</time>
      </trkpt>
      <trkpt lat="48.87229" lon="2.29509">
        <ele>64.199996948242</ele>
        <time>2016-07-18T20:17:30.000Z</time>
      </trkpt>
      <trkpt lat="48.87226" lon="2.29538">
        <ele>63.799999237061</ele>
        <time>2016-07-18T20:18:06.000Z</time>
      </trkpt>
      <trkpt lat="48.87233" lon="2.29566">
        <ele>63.400001525879</ele>
        <time>2016-07-18T20:18:12.000Z</time>
      </trkpt>
      <trkpt lat="48.87241" lon="2.29591">
        <ele>63.400001525879</ele>
        <time>2016-07-18T20:18:17.000Z</time>
      </trkpt>
      <trkpt lat="48.87246" lon="2.29613">
        <ele>64.199996948242</ele>
        <time>2016-07-18T20:18:24.000Z</time>
      </trkpt>
      <trkpt lat="48.87253" lon="2.29628">
        <ele>64.599998474121</ele>
        <time>2016-07-18T20:18:28.000Z</time>
      </trkpt>
      <trkpt lat="48.87258" lon="2.29639">
        <ele>64.599998474121</ele>
        <time>2016-07-18T20:19:05.000Z</time>
      </trkpt>
      <trkpt lat="48.87271" lon="2.29661">
        <ele>65</ele>
        <time>2016-07-18T20:19:14.000Z</time>
      </trkpt>
      <trkpt lat="48.87281" lon="2.29679">
        <ele>65.199996948242</ele>
        <time>2016-07-18T20:19:25.000Z</time>
      </trkpt>
      <trkpt lat="48.87285" lon="2.29676">
        <ele>64.800003051758</ele>
        <time>2016-07-18T20:19:28.000Z</time>
      </trkpt>
      <trkpt lat="48.87287" lon="2.29682">
        <ele>65</ele>
        <time>2016-07-18T20:20:17.000Z</time>
      </trkpt>
      <trkpt lat="48.87281" lon="2.29709">
        <ele>67</ele>
        <time>2016-07-18T20:20:25.000Z</time>
      </trkpt>
      <trkpt lat="48.87271" lon="2.29736">
        <ele>69.400001525879</ele>
        <time>2016-07-18T20:20:31.000Z</time>
      </trkpt>
      <trkpt lat="48.87265" lon="2.29764">
        <ele>69.400001525879</ele>
        <time>2016-07-18T20:20:36.000Z</time>
      </trkpt>
      <trkpt lat="48.87259" lon="2.29794">
        <ele>68.400001525879</ele>
        <time>2016-07-18T20:20:42.000Z</time>
      </trkpt>
      <trkpt lat="48.87255" lon="2.29822">
        <ele>67.800003051758</ele>
        <time>2016-07-18T20:20:50.000Z</time>
      </trkpt>
      <trkpt lat="48.87254" lon="2.29856">
        <ele>66.400001525879</ele>
        <time>2016-07-18T20:20:56.000Z</time>
      </trkpt>
      <trkpt lat="48.87249" lon="2.29886">
        <ele>65.199996948242</ele>
        <time>2016-07-18T20:21:01.000Z</time>
      </trkpt>
      <trkpt lat="48.87243" lon="2.29912">
        <ele>63.799999237061</ele>
        <time>2016-07-18T20:21:07.000Z</time>
      </trkpt>
      <trkpt lat="48.8724" lon="2.29913">
        <ele>63.799999237061</ele>
        <time>2016-07-18T20:21:10.000Z</time>
      </trkpt>
      <trkpt lat="48.87238" lon="2.29919">
        <ele>63.799999237061</ele>
        <time>2016-07-18T20:21:14.000Z</time>
      </trkpt>
      <trkpt lat="48.87236" lon="2.29946">
        <ele>63.400001525879</ele>
        <time>2016-07-18T20:21:21.000Z</time>
      </trkpt>
      <trkpt lat="48.87231" lon="2.29977">
        <ele>62.400001525879</ele>
        <time>2016-07-18T20:21:27.000Z</time>
      </trkpt>
      <trkpt lat="48.87226" lon="2.30005">
        <ele>61.799999237061</ele>
        <time>2016-07-18T20:21:32.000Z</time>
      </trkpt>
      <trkpt lat="48.87213" lon="2.3003">
        <ele>61.599998474121</ele>
        <time>2016-07-18T20:21:38.000Z</time>
      </trkpt>
      <trkpt lat="48.87209" lon="2.30061">
        <ele>59.799999237061</ele>
        <time>2016-07-18T20:21:46.000Z</time>
      </trkpt>
      <trkpt lat="48.87183" lon="2.30075">
        <ele>57.400001525879</ele>
        <time>2016-07-18T20:21:52.000Z</time>
      </trkpt>
      <trkpt lat="48.87178" lon="2.30083">
        <ele>57.200000762939</ele>
        <time>2016-07-18T20:21:54.000Z</time>
      </trkpt>
      <trkpt lat="48.87169" lon="2.30094">
        <ele>57.200000762939</ele>
        <time>2016-07-18T20:21:58.000Z</time>
      </trkpt>
      <trkpt lat="48.87162" lon="2.30122">
        <ele>56.599998474121</ele>
        <time>2016-07-18T20:22:04.000Z</time>
      </trkpt>
      <trkpt lat="48.87159" lon="2.30153">
        <ele>54.799999237061</ele>
        <time>2016-07-18T20:22:09.000Z</time>
      </trkpt>
      <trkpt lat="48.87152" lon="2.30185">
        <ele>53.599998474121</ele>
        <time>2016-07-18T20:22:14.000Z</time>
      </trkpt>
      <trkpt lat="48.87145" lon="2.30213">
        <ele>53.599998474121</ele>
        <time>2016-07-18T20:22:19.000Z</time>
      </trkpt>
      <trkpt lat="48.87135" lon="2.30232">
        <ele>53.599998474121</ele>
        <time>2016-07-18T20:22:27.000Z</time>
      </trkpt>
      <trkpt lat="48.87132" lon="2.30246">
        <ele>53.599998474121</ele>
        <time>2016-07-18T20:22:34.000Z</time>
      </trkpt>
      <trkpt lat="48.87125" lon="2.30251">
        <ele>53.599998474121</ele>
        <time>2016-07-18T20:22:48.000Z</time>
      </trkpt>
      <trkpt lat="48.87124" lon="2.30258">
        <ele>53.799999237061</ele>
        <time>2016-07-18T20:22:51.000Z</time>
      </trkpt>
      <trkpt lat="48.87122" lon="2.30266">
        <ele>53.799999237061</ele>
        <time>2016-07-18T20:22:55.000Z</time>
      </trkpt>
      <trkpt lat="48.87122" lon="2.30267">
        <ele>53.799999237061</ele>
        <time>2016-07-18T20:22:56.000Z</time>
      </trkpt>
      <trkpt lat="48.87114" lon="2.30292">
        <ele>54.200000762939</ele>
        <time>2016-07-18T20:23:40.000Z</time>
      </trkpt>
      <trkpt lat="48.87111" lon="2.3032">
        <ele>54.799999237061</ele>
        <time>2016-07-18T20:23:48.000Z</time>
      </trkpt>
      <trkpt lat="48.871" lon="2.30343">
        <ele>55</ele>
        <time>2016-07-18T20:23:55.000Z</time>
      </trkpt>
      <trkpt lat="48.87092" lon="2.30369">
        <ele>55</ele>
        <time>2016-07-18T20:24:00.000Z</time>
      </trkpt>
      <trkpt lat="48.87085" lon="2.30395">
        <ele>55</ele>
        <time>2016-07-18T20:24:04.000Z</time>
      </trkpt>
      <trkpt lat="48.87079" lon="2.30422">
        <ele>55</ele>
        <time>2016-07-18T20:24:08.000Z</time>
      </trkpt>
      <trkpt lat="48.8707" lon="2.30452">
        <ele>54</ele>
        <time>2016-07-18T20:24:13.000Z</time>
      </trkpt>
      <trkpt lat="48.87058" lon="2.3048">
        <ele>52.400001525879</ele>
        <time>2016-07-18T20:24:18.000Z</time>
      </trkpt>
      <trkpt lat="48.8705" lon="2.30506">
        <ele>51.200000762939</ele>
        <time>2016-07-18T20:24:23.000Z</time>
      </trkpt>
      <trkpt lat="48.87045" lon="2.30535">
        <ele>50.200000762939</ele>
        <time>2016-07-18T20:24:29.000Z</time>
      </trkpt>
      <trkpt lat="48.87038" lon="2.30562">
        <ele>48.599998474121</ele>
        <time>2016-07-18T20:24:36.000Z</time>
      </trkpt>
      <trkpt lat="48.87028" lon="2.30587">
        <ele>47.200000762939</ele>
        <time>2016-07-18T20:24:45.000Z</time>
      </trkpt>
      <trkpt lat="48.87022" lon="2.30603">
        <ele>48.200000762939</ele>
        <time>2016-07-18T20:24:50.000Z</time>
      </trkpt>
      <trkpt lat="48.87023" lon="2.30613">
        <ele>48.599998474121</ele>
        <time>2016-07-18T20:24:56.000Z</time>
      </trkpt>
      <trkpt lat="48.87012" lon="2.30639">
        <ele>50.400001525879</ele>
        <time>2016-07-18T20:25:06.000Z</time>
      </trkpt>
      <trkpt lat="48.87002" lon="2.30666">
        <ele>50.799999237061</ele>
        <time>2016-07-18T20:25:14.000Z</time>
      </trkpt>
      <trkpt lat="48.86992" lon="2.30688">
        <ele>50.400001525879</ele>
        <time>2016-07-18T20:25:20.000Z</time>
      </trkpt>
      <trkpt lat="48.86983" lon="2.30711">
        <ele>49.599998474121</ele>
        <time>2016-07-18T20:25:25.000Z</time>
      </trkpt>
      <trkpt lat="48.8698" lon="2.30723">
        <ele>48.400001525879</ele>
        <time>2016-07-18T20:25:27.000Z</time>
      </trkpt>
      <trkpt lat="48.8697" lon="2.30749">
        <ele>45.400001525879</ele>
        <time>2016-07-18T20:25:32.000Z</time>
      </trkpt>
      <trkpt lat="48.86964" lon="2.30765">
        <ele>43.599998474121</ele>
        <time>2016-07-18T20:25:36.000Z</time>
      </trkpt>
      <trkpt lat="48.86952" lon="2.30788">
        <ele>43.200000762939</ele>
        <time>2016-07-18T20:25:43.000Z</time>
      </trkpt>
      <trkpt lat="48.86949" lon="2.30814">
        <ele>43.200000762939</ele>
        <time>2016-07-18T20:25:49.000Z</time>
      </trkpt>
      <trkpt lat="48.86942" lon="2.3084">
        <ele>43</ele>
        <time>2016-07-18T20:25:54.000Z</time>
      </trkpt>
      <trkpt lat="48.86931" lon="2.3086">
        <ele>43.200000762939</ele>
        <time>2016-07-18T20:26:01.000Z</time>
      </trkpt>
      <trkpt lat="48.86916" lon="2.30877">
        <ele>43.200000762939</ele>
        <time>2016-07-18T20:26:43.000Z</time>
      </trkpt>
      <trkpt lat="48.86914" lon="2.30892">
        <ele>43.200000762939</ele>
        <time>2016-07-18T20:26:48.000Z</time>
      </trkpt>
      <trkpt lat="48.86928" lon="2.30903">
        <ele>43.200000762939</ele>
        <time>2016-07-18T20:26:57.000Z</time>
      </trkpt>
      <trkpt lat="48.86939" lon="2.30926">
        <ele>43.200000762939</ele>
        <time>2016-07-18T20:27:05.000Z</time>
      </trkpt>
      <trkpt lat="48.86949" lon="2.30956">
        <ele>43.799999237061</ele>
        <time>2016-07-18T20:27:13.000Z</time>
      </trkpt>
      <trkpt lat="48.86959" lon="2.30979">
        <ele>44.400001525879</ele>
        <time>2016-07-18T20:27:22.000Z</time>
      </trkpt>
      <trkpt lat="48.86959" lon="2.30988">
        <ele>44.599998474121</ele>
        <time>2016-07-18T20:27:25.000Z</time>
      </trkpt>
      <trkpt lat="48.8696" lon="2.31009">
        <ele>44.799999237061</ele>
        <time>2016-07-18T20:27:29.000Z</time>
      </trkpt>
      <trkpt lat="48.86958" lon="2.31035">
        <ele>44.799999237061</ele>
        <time>2016-07-18T20:27:34.000Z</time>
      </trkpt>
      <trkpt lat="48.86957" lon="2.3105">
        <ele>44.799999237061</ele>
        <time>2016-07-18T20:27:41.000Z</time>
      </trkpt>
      <trkpt lat="48.86954" lon="2.31079">
        <ele>44.799999237061</ele>
        <time>2016-07-18T20:27:49.000Z</time>
      </trkpt>
      <trkpt lat="48.86954" lon="2.31086">
        <ele>44.599998474121</ele>
        <time>2016-07-18T20:27:53.000Z</time>
      </trkpt>
      <trkpt lat="48.86952" lon="2.31111">
        <ele>43.200000762939</ele>
        <time>2016-07-18T20:28:15.000Z</time>
      </trkpt>
      <trkpt lat="48.86961" lon="2.31137">
        <ele>42.400001525879</ele>
        <time>2016-07-18T20:28:22.000Z</time>
      </trkpt>
      <trkpt lat="48.8697" lon="2.31164">
        <ele>41.599998474121</ele>
        <time>2016-07-18T20:28:28.000Z</time>
      </trkpt>
      <trkpt lat="48.86981" lon="2.31189">
        <ele>41.799999237061</ele>
        <time>2016-07-18T20:28:33.000Z</time>
      </trkpt>
      <trkpt lat="48.86993" lon="2.31216">
        <ele>42.200000762939</ele>
        <time>2016-07-18T20:28:38.000Z</time>
      </trkpt>
      <trkpt lat="48.87005" lon="2.31243">
        <ele>42</ele>
        <time>2016-07-18T20:28:43.000Z</time>
      </trkpt>
      <trkpt lat="48.87019" lon="2.31268">
        <ele>43.400001525879</ele>
        <time>2016-07-18T20:28:47.000Z</time>
      </trkpt>
      <trkpt lat="48.87034" lon="2.31294">
        <ele>43.799999237061</ele>
        <time>2016-07-18T20:28:51.000Z</time>
      </trkpt>
      <trkpt lat="48.87049" lon="2.31318">
        <ele>43.400001525879</ele>
        <time>2016-07-18T20:28:56.000Z</time>
      </trkpt>
      <trkpt lat="48.87059" lon="2.31326">
        <ele>43.200000762939</ele>
        <time>2016-07-18T20:28:58.000Z</time>
      </trkpt>
      <trkpt lat="48.8708" lon="2.31344">
        <ele>43</ele>
        <time>2016-07-18T20:29:02.000Z</time>
      </trkpt>
      <trkpt lat="48.87099" lon="2.31361">
        <ele>43</ele>
        <time>2016-07-18T20:29:06.000Z</time>
      </trkpt>
      <trkpt lat="48.87115" lon="2.31381">
        <ele>43</ele>
        <time>2016-07-18T20:29:10.000Z</time>
      </trkpt>
      <trkpt lat="48.87133" lon="2.31392">
        <ele>42.799999237061</ele>
        <time>2016-07-18T20:29:13.000Z</time>
      </trkpt>
      <trkpt lat="48.87154" lon="2.31406">
        <ele>42.599998474121</ele>
        <time>2016-07-18T20:29:17.000Z</time>
      </trkpt>
      <trkpt lat="48.87179" lon="2.31417">
        <ele>42.400001525879</ele>
        <time>2016-07-18T20:29:29.000Z</time>
      </trkpt>
      <trkpt lat="48.87182" lon="2.31419">
        <ele>42.400001525879</ele>
        <time>2016-07-18T20:29:30.000Z</time>
      </trkpt>
      <trkpt lat="48.872" lon="2.31427">
        <ele>42.400001525879</ele>
        <time>2016-07-18T20:29:35.000Z</time>
      </trkpt>
      <trkpt lat="48.8722" lon="2.31438">
        <ele>42.599998474121</ele>
        <time>2016-07-18T20:29:40.000Z</time>
      </trkpt>
      <trkpt lat="48.8724" lon="2.31449">
        <ele>43</ele>
        <time>2016-07-18T20:29:45.000Z</time>
      </trkpt>
      <trkpt lat="48.87257" lon="2.31465">
        <ele>43.400001525879</ele>
        <time>2016-07-18T20:29:50.000Z</time>
      </trkpt>
      <trkpt lat="48.8727" lon="2.31487">
        <ele>43.799999237061</ele>
        <time>2016-07-18T20:29:54.000Z</time>
      </trkpt>
      <trkpt lat="48.8728" lon="2.31516">
        <ele>44.400001525879</ele>
        <time>2016-07-18T20:29:58.000Z</time>
      </trkpt>
      <trkpt lat="48.87285" lon="2.3154">
        <ele>44.799999237061</ele>
        <time>2016-07-18T20:30:02.000Z</time>
      </trkpt>
      <trkpt lat="48.87289" lon="2.31568">
        <ele>45.200000762939</ele>
        <time>2016-07-18T20:30:09.000Z</time>
      </trkpt>
      <trkpt lat="48.87294" lon="2.31597">
        <ele>44.599998474121</ele>
        <time>2016-07-18T20:30:14.000Z</time>
      </trkpt>
      <trkpt lat="48.873" lon="2.31624">
        <ele>44</ele>
        <time>2016-07-18T20:30:18.000Z</time>
      </trkpt>
      <trkpt lat="48.87307" lon="2.31653">
        <ele>43.200000762939</ele>
        <time>2016-07-18T20:30:22.000Z</time>
      </trkpt>
      <trkpt lat="48.87311" lon="2.31675">
        <ele>42.799999237061</ele>
        <time>2016-07-18T20:30:25.000Z</time>
      </trkpt>
      <trkpt lat="48.87313" lon="2.3171">
        <ele>42.599998474121</ele>
        <time>2016-07-18T20:30:29.000Z</time>
      </trkpt>
      <trkpt lat="48.87319" lon="2.31741">
        <ele>42.799999237061</ele>
        <time>2016-07-18T20:30:33.000Z</time>
      </trkpt>
      <trkpt lat="48.87324" lon="2.31768">
        <ele>43.200000762939</ele>
        <time>2016-07-18T20:30:37.000Z</time>
      </trkpt>
      <trkpt lat="48.87325" lon="2.31786">
        <ele>43.599998474121</ele>
        <time>2016-07-18T20:30:41.000Z</time>
      </trkpt>
      <trkpt lat="48.87324" lon="2.31789">
        <ele>43.799999237061</ele>
        <time>2016-07-18T20:30:44.000Z</time>
      </trkpt>
      <trkpt lat="48.87325" lon="2.31811">
        <ele>44.200000762939</ele>
        <time>2016-07-18T20:31:02.000Z</time>
      </trkpt>
      <trkpt lat="48.8733" lon="2.31837">
        <ele>44.799999237061</ele>
        <time>2016-07-18T20:31:06.000Z</time>
      </trkpt>
      <trkpt lat="48.87331" lon="2.3185">
        <ele>45</ele>
        <time>2016-07-18T20:31:08.000Z</time>
      </trkpt>
      <trkpt lat="48.87336" lon="2.31877">
        <ele>45.599998474121</ele>
        <time>2016-07-18T20:31:13.000Z</time>
      </trkpt>
      <trkpt lat="48.87339" lon="2.31907">
        <ele>45.799999237061</ele>
        <time>2016-07-18T20:31:18.000Z</time>
      </trkpt>
      <trkpt lat="48.87342" lon="2.31936">
        <ele>45.200000762939</ele>
        <time>2016-07-18T20:31:22.000Z</time>
      </trkpt>
      <trkpt lat="48.87344" lon="2.31968">
        <ele>44.400001525879</ele>
        <time>2016-07-18T20:31:27.000Z</time>
      </trkpt>
      <trkpt lat="48.87345" lon="2.32003">
        <ele>43.799999237061</ele>
        <time>2016-07-18T20:31:32.000Z</time>
      </trkpt>
      <trkpt lat="48.87348" lon="2.32031">
        <ele>44.200000762939</ele>
        <time>2016-07-18T20:31:36.000Z</time>
      </trkpt>
      <trkpt lat="48.87347" lon="2.32052">
        <ele>44.400001525879</ele>
        <time>2016-07-18T20:31:39.000Z</time>
      </trkpt>
      <trkpt lat="48.87345" lon="2.32071">
        <ele>44.599998474121</ele>
        <time>2016-07-18T20:31:42.000Z</time>
      </trkpt>
      <trkpt lat="48.87345" lon="2.32101">
        <ele>45.200000762939</ele>
        <time>2016-07-18T20:31:47.000Z</time>
      </trkpt>
      <trkpt lat="48.87346" lon="2.32107">
        <ele>45.400001525879</ele>
        <time>2016-07-18T20:31:48.000Z</time>
      </trkpt>
      <trkpt lat="48.87349" lon="2.3214">
        <ele>45.799999237061</ele>
        <time>2016-07-18T20:31:53.000Z</time>
      </trkpt>
      <trkpt lat="48.87351" lon="2.32168">
        <ele>45.799999237061</ele>
        <time>2016-07-18T20:31:57.000Z</time>
      </trkpt>
      <trkpt lat="48.87351" lon="2.32201">
        <ele>44.799999237061</ele>
        <time>2016-07-18T20:32:02.000Z</time>
      </trkpt>
      <trkpt lat="48.87349" lon="2.32229">
        <ele>43.799999237061</ele>
        <time>2016-07-18T20:32:07.000Z</time>
      </trkpt>
      <trkpt lat="48.87349" lon="2.32256">
        <ele>43.400001525879</ele>
        <time>2016-07-18T20:32:11.000Z</time>
      </trkpt>
      <trkpt lat="48.87354" lon="2.32286">
        <ele>43.200000762939</ele>
        <time>2016-07-18T20:32:15.000Z</time>
      </trkpt>
      <trkpt lat="48.87354" lon="2.32294">
        <ele>43.200000762939</ele>
        <time>2016-07-18T20:32:16.000Z</time>
      </trkpt>
      <trkpt lat="48.87354" lon="2.32318">
        <ele>43.200000762939</ele>
        <time>2016-07-18T20:32:19.000Z</time>
      </trkpt>
      <trkpt lat="48.87351" lon="2.32346">
        <ele>43.599998474121</ele>
        <time>2016-07-18T20:32:23.000Z</time>
      </trkpt>
      <trkpt lat="48.87349" lon="2.32364">
        <ele>44.200000762939</ele>
        <time>2016-07-18T20:32:26.000Z</time>
      </trkpt>
      <trkpt lat="48.8735" lon="2.32396">
        <ele>45</ele>
        <time>2016-07-18T20:32:30.000Z</time>
      </trkpt>
      <trkpt lat="48.87346" lon="2.3243">
        <ele>45.799999237061</ele>
        <time>2016-07-18T20:32:35.000Z</time>
      </trkpt>
      <trkpt lat="48.87345" lon="2.32437">
        <ele>46</ele>
        <time>2016-07-18T20:32:36.000Z</time>
      </trkpt>
      <trkpt lat="48.87343" lon="2.32467">
        <ele>46.799999237061</ele>
        <time>2016-07-18T20:32:40.000Z</time>
      </trkpt>
      <trkpt lat="48.87343" lon="2.32499">
        <ele>47.400001525879</ele>
        <time>2016-07-18T20:32:44.000Z</time>
      </trkpt>
      <trkpt lat="48.87338" lon="2.32529">
        <ele>48.599998474121</ele>
        <time>2016-07-18T20:32:48.000Z</time>
      </trkpt>
      <trkpt lat="48.87336" lon="2.32535">
        <ele>48.799999237061</ele>
        <time>2016-07-18T20:32:49.000Z</time>
      </trkpt>
      <trkpt lat="48.87334" lon="2.32565">
        <ele>49.599998474121</ele>
        <time>2016-07-18T20:32:53.000Z</time>
      </trkpt>
      <trkpt lat="48.87334" lon="2.32594">
        <ele>49.200000762939</ele>
        <time>2016-07-18T20:32:57.000Z</time>
      </trkpt>
      <trkpt lat="48.87334" lon="2.32601">
        <ele>49</ele>
        <time>2016-07-18T20:32:58.000Z</time>
      </trkpt>
      <trkpt lat="48.8733" lon="2.32632">
        <ele>48.200000762939</ele>
        <time>2016-07-18T20:33:03.000Z</time>
      </trkpt>
      <trkpt lat="48.87327" lon="2.32643">
        <ele>48.200000762939</ele>
        <time>2016-07-18T20:33:05.000Z</time>
      </trkpt>
      <trkpt lat="48.87321" lon="2.32654">
        <ele>48.400001525879</ele>
        <time>2016-07-18T20:33:08.000Z</time>
      </trkpt>
      <trkpt lat="48.87314" lon="2.32664">
        <ele>48.599998474121</ele>
        <time>2016-07-18T20:33:11.000Z</time>
      </trkpt>
      <trkpt lat="48.87314" lon="2.32692">
        <ele>48.599998474121</ele>
        <time>2016-07-18T20:33:17.000Z</time>
      </trkpt>
      <trkpt lat="48.87313" lon="2.32703">
        <ele>48.599998474121</ele>
        <time>2016-07-18T20:33:19.000Z</time>
      </trkpt>
      <trkpt lat="48.87312" lon="2.32732">
        <ele>49.599998474121</ele>
        <time>2016-07-18T20:33:24.000Z</time>
      </trkpt>
      <trkpt lat="48.87309" lon="2.32763">
        <ele>50.200000762939</ele>
        <time>2016-07-18T20:33:29.000Z</time>
      </trkpt>
      <trkpt lat="48.87307" lon="2.32794">
        <ele>50</ele>
        <time>2016-07-18T20:33:34.000Z</time>
      </trkpt>
      <trkpt lat="48.87303" lon="2.32823">
        <ele>49.400001525879</ele>
        <time>2016-07-18T20:33:40.000Z</time>
      </trkpt>
      <trkpt lat="48.87297" lon="2.32852">
        <ele>50</ele>
        <time>2016-07-18T20:33:46.000Z</time>
      </trkpt>
      <trkpt lat="48.87298" lon="2.32884">
        <ele>50</ele>
        <time>2016-07-18T20:33:51.000Z</time>
      </trkpt>
      <trkpt lat="48.87302" lon="2.32914">
        <ele>50</ele>
        <time>2016-07-18T20:33:55.000Z</time>
      </trkpt>
      <trkpt lat="48.87305" lon="2.32947">
        <ele>48.799999237061</ele>
        <time>2016-07-18T20:34:00.000Z</time>
      </trkpt>
      <trkpt lat="48.87303" lon="2.32977">
        <ele>47.799999237061</ele>
        <time>2016-07-18T20:34:04.000Z</time>
      </trkpt>
      <trkpt lat="48.87302" lon="2.33008">
        <ele>46.799999237061</ele>
        <time>2016-07-18T20:34:08.000Z</time>
      </trkpt>
      <trkpt lat="48.87296" lon="2.33036">
        <ele>46</ele>
        <time>2016-07-18T20:34:12.000Z</time>
      </trkpt>
      <trkpt lat="48.87297" lon="2.33067">
        <ele>44.599998474121</ele>
        <time>2016-07-18T20:34:17.000Z</time>
      </trkpt>
      <trkpt lat="48.87296" lon="2.33078">
        <ele>44</ele>
        <time>2016-07-18T20:34:20.000Z</time>
      </trkpt>
      <trkpt lat="48.87295" lon="2.33087">
        <ele>44</ele>
        <time>2016-07-18T20:34:23.000Z</time>
      </trkpt>
      <trkpt lat="48.87295" lon="2.33099">
        <ele>44.599998474121</ele>
        <time>2016-07-18T20:34:28.000Z</time>
      </trkpt>
      <trkpt lat="48.87288" lon="2.33122">
        <ele>46.400001525879</ele>
        <time>2016-07-18T20:34:49.000Z</time>
      </trkpt>
      <trkpt lat="48.87288" lon="2.33149">
        <ele>48.799999237061</ele>
        <time>2016-07-18T20:34:56.000Z</time>
      </trkpt>
      <trkpt lat="48.87278" lon="2.33176">
        <ele>50</ele>
        <time>2016-07-18T20:35:05.000Z</time>
      </trkpt>
      <trkpt lat="48.87268" lon="2.33202">
        <ele>50.799999237061</ele>
        <time>2016-07-18T20:35:14.000Z</time>
      </trkpt>
      <trkpt lat="48.87254" lon="2.33224">
        <ele>51.799999237061</ele>
        <time>2016-07-18T20:35:22.000Z</time>
      </trkpt>
      <trkpt lat="48.8724" lon="2.33245">
        <ele>50.400001525879</ele>
        <time>2016-07-18T20:35:30.000Z</time>
      </trkpt>
      <trkpt lat="48.87225" lon="2.33256">
        <ele>49.599998474121</ele>
        <time>2016-07-18T20:35:40.000Z</time>
      </trkpt>
      <trkpt lat="48.8722" lon="2.33271">
        <ele>48.799999237061</ele>
        <time>2016-07-18T20:35:46.000Z</time>
      </trkpt>
      <trkpt lat="48.87218" lon="2.33295">
        <ele>49.400001525879</ele>
        <time>2016-07-18T20:35:52.000Z</time>
      </trkpt>
      <trkpt lat="48.87207" lon="2.33321">
        <ele>50.799999237061</ele>
        <time>2016-07-18T20:36:00.000Z</time>
      </trkpt>
      <trkpt lat="48.87194" lon="2.33343">
        <ele>51.599998474121</ele>
        <time>2016-07-18T20:36:05.000Z</time>
      </trkpt>
      <trkpt lat="48.8718" lon="2.33363">
        <ele>50</ele>
        <time>2016-07-18T20:36:10.000Z</time>
      </trkpt>
      <trkpt lat="48.87161" lon="2.33377">
        <ele>48.799999237061</ele>
        <time>2016-07-18T20:36:15.000Z</time>
      </trkpt>
      <trkpt lat="48.8714" lon="2.33389">
        <ele>48.400001525879</ele>
        <time>2016-07-18T20:36:20.000Z</time>
      </trkpt>
      <trkpt lat="48.87121" lon="2.33397">
        <ele>48.200000762939</ele>
        <time>2016-07-18T20:36:25.000Z</time>
      </trkpt>
      <trkpt lat="48.87106" lon="2.33407">
        <ele>48</ele>
        <time>2016-07-18T20:36:34.000Z</time>
      </trkpt>
      <trkpt lat="48.87104" lon="2.33434">
        <ele>48.200000762939</ele>
        <time>2016-07-18T20:36:40.000Z</time>
      </trkpt>
      <trkpt lat="48.87107" lon="2.33463">
        <ele>48.599998474121</ele>
        <time>2016-07-18T20:36:45.000Z</time>
      </trkpt>
      <trkpt lat="48.871" lon="2.33476">
        <ele>48.799999237061</ele>
        <time>2016-07-18T20:36:50.000Z</time>
      </trkpt>
      <trkpt lat="48.87079" lon="2.33476">
        <ele>49</ele>
        <time>2016-07-18T20:36:56.000Z</time>
      </trkpt>
      <trkpt lat="48.8706" lon="2.33468">
        <ele>49</ele>
        <time>2016-07-18T20:37:01.000Z</time>
      </trkpt>
      <trkpt lat="48.87041" lon="2.33466">
        <ele>49</ele>
        <time>2016-07-18T20:37:06.000Z</time>
      </trkpt>
      <trkpt lat="48.87022" lon="2.33464">
        <ele>49</ele>
        <time>2016-07-18T20:37:11.000Z</time>
      </trkpt>
      <trkpt lat="48.87008" lon="2.33459">
        <ele>48.599998474121</ele>
        <time>2016-07-18T20:37:17.000Z</time>
      </trkpt>
      <trkpt lat="48.86989" lon="2.33458">
        <ele>48.200000762939</ele>
        <time>2016-07-18T20:37:24.000Z</time>
      </trkpt>
      <trkpt lat="48.86985" lon="2.33456">
        <ele>48.200000762939</ele>
        <time>2016-07-18T20:37:25.000Z</time>
      </trkpt>
      <trkpt lat="48.86967" lon="2.33446">
        <ele>47.799999237061</ele>
        <time>2016-07-18T20:37:31.000Z</time>
      </trkpt>
      <trkpt lat="48.86946" lon="2.33446">
        <ele>47.400001525879</ele>
        <time>2016-07-18T20:37:36.000Z</time>
      </trkpt>
      <trkpt lat="48.86923" lon="2.3345">
        <ele>48.200000762939</ele>
        <time>2016-07-18T20:37:41.000Z</time>
      </trkpt>
      <trkpt lat="48.86903" lon="2.33446">
        <ele>49.200000762939</ele>
        <time>2016-07-18T20:37:46.000Z</time>
      </trkpt>
      <trkpt lat="48.86896" lon="2.33446">
        <ele>49.400001525879</ele>
        <time>2016-07-18T20:37:48.000Z</time>
      </trkpt>
      <trkpt lat="48.86892" lon="2.33471">
        <ele>49.200000762939</ele>
        <time>2016-07-18T20:37:53.000Z</time>
      </trkpt>
      <trkpt lat="48.86892" lon="2.33478">
        <ele>49</ele>
        <time>2016-07-18T20:37:54.000Z</time>
      </trkpt>
      <trkpt lat="48.86892" lon="2.33507">
        <ele>48.599998474121</ele>
        <time>2016-07-18T20:37:58.000Z</time>
      </trkpt>
      <trkpt lat="48.86894" lon="2.33539">
        <ele>48.400001525879</ele>
        <time>2016-07-18T20:38:03.000Z</time>
      </trkpt>
      <trkpt lat="48.86896" lon="2.33572">
        <ele>47.599998474121</ele>
        <time>2016-07-18T20:38:08.000Z</time>
      </trkpt>
      <trkpt lat="48.86898" lon="2.33605">
        <ele>47.799999237061</ele>
        <time>2016-07-18T20:38:13.000Z</time>
      </trkpt>
      <trkpt lat="48.86899" lon="2.33633">
        <ele>48.400001525879</ele>
        <time>2016-07-18T20:38:17.000Z</time>
      </trkpt>
      <trkpt lat="48.86895" lon="2.33661">
        <ele>50</ele>
        <time>2016-07-18T20:38:22.000Z</time>
      </trkpt>
      <trkpt lat="48.86895" lon="2.33691">
        <ele>50.400001525879</ele>
        <time>2016-07-18T20:38:27.000Z</time>
      </trkpt>
      <trkpt lat="48.86899" lon="2.33721">
        <ele>50.599998474121</ele>
        <time>2016-07-18T20:38:32.000Z</time>
      </trkpt>
      <trkpt lat="48.86898" lon="2.33754">
        <ele>51</ele>
        <time>2016-07-18T20:38:37.000Z</time>
      </trkpt>
      <trkpt lat="48.869" lon="2.33783">
        <ele>51</ele>
        <time>2016-07-18T20:38:41.000Z</time>
      </trkpt>
      <trkpt lat="48.86899" lon="2.33817">
        <ele>50.599998474121</ele>
        <time>2016-07-18T20:38:46.000Z</time>
      </trkpt>
      <trkpt lat="48.86897" lon="2.33835">
        <ele>50.400001525879</ele>
        <time>2016-07-18T20:38:49.000Z</time>
      </trkpt>
      <trkpt lat="48.86877" lon="2.33842">
        <ele>50.599998474121</ele>
        <time>2016-07-18T20:38:54.000Z</time>
      </trkpt>
      <trkpt lat="48.8687" lon="2.3384">
        <ele>50.799999237061</ele>
        <time>2016-07-18T20:38:56.000Z</time>
      </trkpt>
      <trkpt lat="48.8685" lon="2.33837">
        <ele>50.799999237061</ele>
        <time>2016-07-18T20:39:01.000Z</time>
      </trkpt>
      <trkpt lat="48.86834" lon="2.33833">
        <ele>50.400001525879</ele>
        <time>2016-07-18T20:39:06.000Z</time>
      </trkpt>
      <trkpt lat="48.86814" lon="2.33821">
        <ele>50.200000762939</ele>
        <time>2016-07-18T20:39:10.000Z</time>
      </trkpt>
      <trkpt lat="48.86806" lon="2.33816">
        <ele>50.200000762939</ele>
        <time>2016-07-18T20:39:12.000Z</time>
      </trkpt>
      <trkpt lat="48.86792" lon="2.33809">
        <ele>50</ele>
        <time>2016-07-18T20:39:15.000Z</time>
      </trkpt>
      <trkpt lat="48.86774" lon="2.33793">
        <ele>50</ele>
        <time>2016-07-18T20:39:19.000Z</time>
      </trkpt>
      <trkpt lat="48.86756" lon="2.33781">
        <ele>50.200000762939</ele>
        <time>2016-07-18T20:39:23.000Z</time>
      </trkpt>
      <trkpt lat="48.86736" lon="2.3377">
        <ele>50.400001525879</ele>
        <time>2016-07-18T20:39:27.000Z</time>
      </trkpt>
      <trkpt lat="48.86715" lon="2.33764">
        <ele>50.599998474121</ele>
        <time>2016-07-18T20:39:32.000Z</time>
      </trkpt>
      <trkpt lat="48.86696" lon="2.33753">
        <ele>50.799999237061</ele>
        <time>2016-07-18T20:39:37.000Z</time>
      </trkpt>
      <trkpt lat="48.86678" lon="2.33748">
        <ele>50.200000762939</ele>
        <time>2016-07-18T20:39:42.000Z</time>
      </trkpt>
      <trkpt lat="48.86674" lon="2.33745">
        <ele>50.200000762939</ele>
        <time>2016-07-18T20:39:43.000Z</time>
      </trkpt>
      <trkpt lat="48.86656" lon="2.33735">
        <ele>49.599998474121</ele>
        <time>2016-07-18T20:39:47.000Z</time>
      </trkpt>
      <trkpt lat="48.86634" lon="2.33724">
        <ele>48.799999237061</ele>
        <time>2016-07-18T20:39:52.000Z</time>
      </trkpt>
      <trkpt lat="48.86615" lon="2.33716">
        <ele>48</ele>
        <time>2016-07-18T20:39:56.000Z</time>
      </trkpt>
      <trkpt lat="48.86598" lon="2.33705">
        <ele>47.799999237061</ele>
        <time>2016-07-18T20:40:00.000Z</time>
      </trkpt>
      <trkpt lat="48.86591" lon="2.33702">
        <ele>47.799999237061</ele>
        <time>2016-07-18T20:40:02.000Z</time>
      </trkpt>
      <trkpt lat="48.86585" lon="2.33693">
        <ele>48.200000762939</ele>
        <time>2016-07-18T20:40:04.000Z</time>
      </trkpt>
      <trkpt lat="48.86566" lon="2.33677">
        <ele>48.400001525879</ele>
        <time>2016-07-18T20:40:08.000Z</time>
      </trkpt>
      <trkpt lat="48.8655" lon="2.33668">
        <ele>48.400001525879</ele>
        <time>2016-07-18T20:40:12.000Z</time>
      </trkpt>
      <trkpt lat="48.86531" lon="2.33656">
        <ele>48.599998474121</ele>
        <time>2016-07-18T20:40:16.000Z</time>
      </trkpt>
      <trkpt lat="48.86512" lon="2.33647">
        <ele>48</ele>
        <time>2016-07-18T20:40:20.000Z</time>
      </trkpt>
      <trkpt lat="48.86492" lon="2.33638">
        <ele>47.599998474121</ele>
        <time>2016-07-18T20:40:24.000Z</time>
      </trkpt>
      <trkpt lat="48.86475" lon="2.33628">
        <ele>47.200000762939</ele>
        <time>2016-07-18T20:40:28.000Z</time>
      </trkpt>
      <trkpt lat="48.86455" lon="2.33615">
        <ele>46.799999237061</ele>
        <time>2016-07-18T20:40:33.000Z</time>
      </trkpt>
      <trkpt lat="48.86439" lon="2.33598">
        <ele>46.599998474121</ele>
        <time>2016-07-18T20:40:38.000Z</time>
      </trkpt>
      <trkpt lat="48.86431" lon="2.33592">
        <ele>46.799999237061</ele>
        <time>2016-07-18T20:40:41.000Z</time>
      </trkpt>
      <trkpt lat="48.86413" lon="2.33588">
        <ele>46.799999237061</ele>
        <time>2016-07-18T20:40:47.000Z</time>
      </trkpt>
      <trkpt lat="48.86396" lon="2.33578">
        <ele>47</ele>
        <time>2016-07-18T20:40:52.000Z</time>
      </trkpt>
      <trkpt lat="48.86388" lon="2.33573">
        <ele>47</ele>
        <time>2016-07-18T20:40:55.000Z</time>
      </trkpt>
      <trkpt lat="48.86376" lon="2.33567">
        <ele>47.200000762939</ele>
        <time>2016-07-18T20:40:59.000Z</time>
      </trkpt>
      <trkpt lat="48.86359" lon="2.33557">
        <ele>47.200000762939</ele>
        <time>2016-07-18T20:41:04.000Z</time>
      </trkpt>
      <trkpt lat="48.86342" lon="2.33543">
        <ele>46.799999237061</ele>
        <time>2016-07-18T20:41:11.000Z</time>
      </trkpt>
      <trkpt lat="48.86324" lon="2.33552">
        <ele>46</ele>
        <time>2016-07-18T20:41:17.000Z</time>
      </trkpt>
      <trkpt lat="48.86322" lon="2.3358">
        <ele>47.400001525879</ele>
        <time>2016-07-18T20:41:22.000Z</time>
      </trkpt>
      <trkpt lat="48.86316" lon="2.33611">
        <ele>46.400001525879</ele>
        <time>2016-07-18T20:41:28.000Z</time>
      </trkpt>
      <trkpt lat="48.863" lon="2.33628">
        <ele>46.400001525879</ele>
        <time>2016-07-18T20:41:35.000Z</time>
      </trkpt>
      <trkpt lat="48.86283" lon="2.33645">
        <ele>46.799999237061</ele>
        <time>2016-07-18T20:41:42.000Z</time>
      </trkpt>
      <trkpt lat="48.8627" lon="2.33665">
        <ele>47</ele>
        <time>2016-07-18T20:41:52.000Z</time>
      </trkpt>
      <trkpt lat="48.86271" lon="2.33667">
        <ele>47</ele>
        <time>2016-07-18T20:41:53.000Z</time>
      </trkpt>
      <trkpt lat="48.86269" lon="2.33675">
        <ele>47</ele>
        <time>2016-07-18T20:41:59.000Z</time>
      </trkpt>
      <trkpt lat="48.86267" lon="2.33683">
        <ele>47</ele>
        <time>2016-07-18T20:42:03.000Z</time>
      </trkpt>
      <trkpt lat="48.86266" lon="2.33687">
        <ele>47</ele>
        <time>2016-07-18T20:42:05.000Z</time>
      </trkpt>
      <trkpt lat="48.86266" lon="2.33696">
        <ele>47</ele>
        <time>2016-07-18T20:42:10.000Z</time>
      </trkpt>
      <trkpt lat="48.86264" lon="2.33698">
        <ele>47</ele>
        <time>2016-07-18T20:42:13.000Z</time>
      </trkpt>
      <trkpt lat="48.86261" lon="2.3371">
        <ele>47</ele>
        <time>2016-07-18T20:42:57.000Z</time>
      </trkpt>
      <trkpt lat="48.86258" lon="2.3374">
        <ele>46.599998474121</ele>
        <time>2016-07-18T20:43:04.000Z</time>
      </trkpt>
      <trkpt lat="48.86253" lon="2.33769">
        <ele>46</ele>
        <time>2016-07-18T20:43:10.000Z</time>
      </trkpt>
      <trkpt lat="48.86248" lon="2.33799">
        <ele>45.599998474121</ele>
        <time>2016-07-18T20:43:16.000Z</time>
      </trkpt>
      <trkpt lat="48.86242" lon="2.33831">
        <ele>44.200000762939</ele>
        <time>2016-07-18T20:43:22.000Z</time>
      </trkpt>
      <trkpt lat="48.86238" lon="2.33863">
        <ele>45.400001525879</ele>
        <time>2016-07-18T20:43:28.000Z</time>
      </trkpt>
      <trkpt lat="48.86232" lon="2.33894">
        <ele>46</ele>
        <time>2016-07-18T20:43:34.000Z</time>
      </trkpt>
      <trkpt lat="48.86229" lon="2.33921">
        <ele>46.599998474121</ele>
        <time>2016-07-18T20:43:39.000Z</time>
      </trkpt>
      <trkpt lat="48.86224" lon="2.33952">
        <ele>47.200000762939</ele>
        <time>2016-07-18T20:43:45.000Z</time>
      </trkpt>
      <trkpt lat="48.86217" lon="2.33977">
        <ele>48.400001525879</ele>
        <time>2016-07-18T20:43:50.000Z</time>
      </trkpt>
      <trkpt lat="48.86206" lon="2.34">
        <ele>49.200000762939</ele>
        <time>2016-07-18T20:43:55.000Z</time>
      </trkpt>
      <trkpt lat="48.86197" lon="2.34025">
        <ele>49.200000762939</ele>
        <time>2016-07-18T20:44:00.000Z</time>
      </trkpt>
      <trkpt lat="48.86189" lon="2.34052">
        <ele>49</ele>
        <time>2016-07-18T20:44:05.000Z</time>
      </trkpt>
      <trkpt lat="48.86182" lon="2.34081">
        <ele>48.799999237061</ele>
        <time>2016-07-18T20:44:10.000Z</time>
      </trkpt>
      <trkpt lat="48.86177" lon="2.34108">
        <ele>48.799999237061</ele>
        <time>2016-07-18T20:44:16.000Z</time>
      </trkpt>
      <trkpt lat="48.86169" lon="2.34138">
        <ele>49</ele>
        <time>2016-07-18T20:44:24.000Z</time>
      </trkpt>
      <trkpt lat="48.86158" lon="2.34163">
        <ele>49.200000762939</ele>
        <time>2016-07-18T20:44:30.000Z</time>
      </trkpt>
      <trkpt lat="48.86151" lon="2.34193">
        <ele>49</ele>
        <time>2016-07-18T20:44:36.000Z</time>
      </trkpt>
      <trkpt lat="48.86145" lon="2.34222">
        <ele>49.200000762939</ele>
        <time>2016-07-18T20:44:42.000Z</time>
      </trkpt>
      <trkpt lat="48.86146" lon="2.3425">
        <ele>49.400001525879</ele>
        <time>2016-07-18T20:44:47.000Z</time>
      </trkpt>
      <trkpt lat="48.86141" lon="2.34281">
        <ele>49</ele>
        <time>2016-07-18T20:44:53.000Z</time>
      </trkpt>
      <trkpt lat="48.86138" lon="2.34308">
        <ele>49.599998474121</ele>
        <time>2016-07-18T20:44:59.000Z</time>
      </trkpt>
      <trkpt lat="48.86126" lon="2.34333">
        <ele>50.400001525879</ele>
        <time>2016-07-18T20:45:05.000Z</time>
      </trkpt>
      <trkpt lat="48.86118" lon="2.34359">
        <ele>50</ele>
        <time>2016-07-18T20:45:10.000Z</time>
      </trkpt>
      <trkpt lat="48.86111" lon="2.34387">
        <ele>50</ele>
        <time>2016-07-18T20:45:15.000Z</time>
      </trkpt>
      <trkpt lat="48.86107" lon="2.3442">
        <ele>49.799999237061</ele>
        <time>2016-07-18T20:45:19.000Z</time>
      </trkpt>
      <trkpt lat="48.86105" lon="2.34451">
        <ele>50.599998474121</ele>
        <time>2016-07-18T20:45:23.000Z</time>
      </trkpt>
      <trkpt lat="48.861" lon="2.3448">
        <ele>51</ele>
        <time>2016-07-18T20:45:28.000Z</time>
      </trkpt>
      <trkpt lat="48.86095" lon="2.34507">
        <ele>51.200000762939</ele>
        <time>2016-07-18T20:45:34.000Z</time>
      </trkpt>
      <trkpt lat="48.86089" lon="2.3454">
        <ele>50.799999237061</ele>
        <time>2016-07-18T20:45:40.000Z</time>
      </trkpt>
      <trkpt lat="48.86081" lon="2.34566">
        <ele>50.400001525879</ele>
        <time>2016-07-18T20:45:45.000Z</time>
      </trkpt>
      <trkpt lat="48.86068" lon="2.34586">
        <ele>49.200000762939</ele>
        <time>2016-07-18T20:45:49.000Z</time>
      </trkpt>
      <trkpt lat="48.86053" lon="2.34602">
        <ele>47.599998474121</ele>
        <time>2016-07-18T20:45:53.000Z</time>
      </trkpt>
      <trkpt lat="48.86034" lon="2.34619">
        <ele>47.200000762939</ele>
        <time>2016-07-18T20:45:57.000Z</time>
      </trkpt>
      <trkpt lat="48.86017" lon="2.34636">
        <ele>47.200000762939</ele>
        <time>2016-07-18T20:46:02.000Z</time>
      </trkpt>
      <trkpt lat="48.85998" lon="2.34649">
        <ele>47</ele>
        <time>2016-07-18T20:46:08.000Z</time>
      </trkpt>
      <trkpt lat="48.85981" lon="2.34663">
        <ele>46.599998474121</ele>
        <time>2016-07-18T20:46:14.000Z</time>
      </trkpt>
      <trkpt lat="48.85965" lon="2.34675">
        <ele>46.599998474121</ele>
        <time>2016-07-18T20:46:21.000Z</time>
      </trkpt>
      <trkpt lat="48.85961" lon="2.34684">
        <ele>46.599998474121</ele>
        <time>2016-07-18T20:46:25.000Z</time>
      </trkpt>
      <trkpt lat="48.85959" lon="2.34711">
        <ele>45.599998474121</ele>
        <time>2016-07-18T20:46:32.000Z</time>
      </trkpt>
      <trkpt lat="48.85954" lon="2.34723">
        <ele>45</ele>
        <time>2016-07-18T20:46:40.000Z</time>
      </trkpt>
      <trkpt lat="48.85957" lon="2.34724">
        <ele>45</ele>
        <time>2016-07-18T20:46:52.000Z</time>
      </trkpt>
    </trkseg>
  </trk>
</gpx>